<?xml version="1.0" encoding="UTF-8" standalone="no" ?>
<gpx xmlns="http://www.topografix.com/GPX/1/1" xmlns:xsi="http://www.w3.org/2001/XMLSchema-instance" xsi:schemaLocation="http://www.topografix.com/GPX/1/1 http://www.topografix.com/GPX/1/1/gpx.xsd" version="1.1" creator="VisuGPX - https://www.visugpx.com">
  <metadata>
    <name>Reco Bois Barbu</name>
  </metadata>
  <trk>
    <name><![CDATA[Reco Bois Barbu]]></name>
    <trkseg>
      <trkpt lat="45.06012" lon="5.52296">
        <ele>1136</ele>
        <time>2021-07-02T07:51:21Z</time>
      </trkpt>
      <trkpt lat="45.06013" lon="5.52297">
        <ele>1136</ele>
        <time>2021-07-02T07:51:22Z</time>
      </trkpt>
      <trkpt lat="45.06012" lon="5.52297">
        <ele>1136</ele>
        <time>2021-07-02T07:52:10Z</time>
      </trkpt>
      <trkpt lat="45.06008" lon="5.52297">
        <ele>1137</ele>
        <time>2021-07-02T07:52:55Z</time>
      </trkpt>
      <trkpt lat="45.06009" lon="5.52296">
        <ele>1137</ele>
        <time>2021-07-02T07:54:05Z</time>
      </trkpt>
      <trkpt lat="45.06017" lon="5.52299">
        <ele>1137</ele>
        <time>2021-07-02T07:55:11Z</time>
      </trkpt>
      <trkpt lat="45.06027" lon="5.52305">
        <ele>1138</ele>
        <time>2021-07-02T07:55:19Z</time>
      </trkpt>
      <trkpt lat="45.06032" lon="5.52307">
        <ele>1138</ele>
        <time>2021-07-02T07:55:26Z</time>
      </trkpt>
      <trkpt lat="45.06041" lon="5.52308">
        <ele>1138</ele>
        <time>2021-07-02T07:55:35Z</time>
      </trkpt>
      <trkpt lat="45.06049" lon="5.52314">
        <ele>1138</ele>
        <time>2021-07-02T07:55:45Z</time>
      </trkpt>
      <trkpt lat="45.06057" lon="5.52331">
        <ele>1138</ele>
        <time>2021-07-02T07:55:58Z</time>
      </trkpt>
      <trkpt lat="45.06058" lon="5.52352">
        <ele>1138</ele>
        <time>2021-07-02T07:56:13Z</time>
      </trkpt>
      <trkpt lat="45.0606" lon="5.52365">
        <ele>1137</ele>
        <time>2021-07-02T07:56:22Z</time>
      </trkpt>
      <trkpt lat="45.0606" lon="5.52373">
        <ele>1137</ele>
        <time>2021-07-02T07:56:29Z</time>
      </trkpt>
      <trkpt lat="45.06057" lon="5.52379">
        <ele>1137</ele>
        <time>2021-07-02T07:56:34Z</time>
      </trkpt>
      <trkpt lat="45.06053" lon="5.52382">
        <ele>1138</ele>
        <time>2021-07-02T07:56:39Z</time>
      </trkpt>
      <trkpt lat="45.06048" lon="5.52392">
        <ele>1138</ele>
        <time>2021-07-02T07:56:50Z</time>
      </trkpt>
      <trkpt lat="45.06045" lon="5.52397">
        <ele>1139</ele>
        <time>2021-07-02T07:57:00Z</time>
      </trkpt>
      <trkpt lat="45.06046" lon="5.52404">
        <ele>1140</ele>
        <time>2021-07-02T07:57:05Z</time>
      </trkpt>
      <trkpt lat="45.06048" lon="5.52433">
        <ele>1141</ele>
        <time>2021-07-02T07:57:25Z</time>
      </trkpt>
      <trkpt lat="45.06051" lon="5.52439">
        <ele>1141</ele>
        <time>2021-07-02T07:57:34Z</time>
      </trkpt>
      <trkpt lat="45.06053" lon="5.52447">
        <ele>1142</ele>
        <time>2021-07-02T07:57:45Z</time>
      </trkpt>
      <trkpt lat="45.06059" lon="5.52454">
        <ele>1143</ele>
        <time>2021-07-02T07:57:55Z</time>
      </trkpt>
      <trkpt lat="45.06065" lon="5.52458">
        <ele>1143</ele>
        <time>2021-07-02T07:58:07Z</time>
      </trkpt>
      <trkpt lat="45.0607" lon="5.52461">
        <ele>1144</ele>
        <time>2021-07-02T07:58:17Z</time>
      </trkpt>
      <trkpt lat="45.06078" lon="5.52463">
        <ele>1146</ele>
        <time>2021-07-02T07:58:27Z</time>
      </trkpt>
      <trkpt lat="45.06084" lon="5.52466">
        <ele>1146</ele>
        <time>2021-07-02T07:58:34Z</time>
      </trkpt>
      <trkpt lat="45.06091" lon="5.52467">
        <ele>1147</ele>
        <time>2021-07-02T07:58:44Z</time>
      </trkpt>
      <trkpt lat="45.06096" lon="5.52469">
        <ele>1147</ele>
        <time>2021-07-02T07:58:49Z</time>
      </trkpt>
      <trkpt lat="45.06102" lon="5.52469">
        <ele>1147</ele>
        <time>2021-07-02T07:58:56Z</time>
      </trkpt>
      <trkpt lat="45.06107" lon="5.5247">
        <ele>1148</ele>
        <time>2021-07-02T07:59:01Z</time>
      </trkpt>
      <trkpt lat="45.06111" lon="5.52469">
        <ele>1148</ele>
        <time>2021-07-02T07:59:05Z</time>
      </trkpt>
      <trkpt lat="45.06121" lon="5.52466">
        <ele>1148</ele>
        <time>2021-07-02T07:59:15Z</time>
      </trkpt>
      <trkpt lat="45.0613" lon="5.52469">
        <ele>1148</ele>
        <time>2021-07-02T07:59:22Z</time>
      </trkpt>
      <trkpt lat="45.06136" lon="5.52468">
        <ele>1149</ele>
        <time>2021-07-02T07:59:30Z</time>
      </trkpt>
      <trkpt lat="45.06149" lon="5.52474">
        <ele>1150</ele>
        <time>2021-07-02T07:59:46Z</time>
      </trkpt>
      <trkpt lat="45.06156" lon="5.52482">
        <ele>1150</ele>
        <time>2021-07-02T07:59:54Z</time>
      </trkpt>
      <trkpt lat="45.06161" lon="5.52485">
        <ele>1150</ele>
        <time>2021-07-02T07:59:58Z</time>
      </trkpt>
      <trkpt lat="45.06165" lon="5.52489">
        <ele>1150</ele>
        <time>2021-07-02T08:00:02Z</time>
      </trkpt>
      <trkpt lat="45.06176" lon="5.52501">
        <ele>1152</ele>
        <time>2021-07-02T08:00:18Z</time>
      </trkpt>
      <trkpt lat="45.06179" lon="5.52508">
        <ele>1153</ele>
        <time>2021-07-02T08:00:30Z</time>
      </trkpt>
      <trkpt lat="45.06183" lon="5.5252">
        <ele>1154</ele>
        <time>2021-07-02T08:00:40Z</time>
      </trkpt>
      <trkpt lat="45.06187" lon="5.52561">
        <ele>1158</ele>
        <time>2021-07-02T08:01:13Z</time>
      </trkpt>
      <trkpt lat="45.06188" lon="5.52573">
        <ele>1159</ele>
        <time>2021-07-02T08:01:22Z</time>
      </trkpt>
      <trkpt lat="45.06192" lon="5.52581">
        <ele>1160</ele>
        <time>2021-07-02T08:01:30Z</time>
      </trkpt>
      <trkpt lat="45.06194" lon="5.52586">
        <ele>1159</ele>
        <time>2021-07-02T08:01:35Z</time>
      </trkpt>
      <trkpt lat="45.06216" lon="5.52603">
        <ele>1159</ele>
        <time>2021-07-02T08:02:00Z</time>
      </trkpt>
      <trkpt lat="45.06227" lon="5.52605">
        <ele>1160</ele>
        <time>2021-07-02T08:02:12Z</time>
      </trkpt>
      <trkpt lat="45.06232" lon="5.52607">
        <ele>1160</ele>
        <time>2021-07-02T08:02:17Z</time>
      </trkpt>
      <trkpt lat="45.0624" lon="5.52613">
        <ele>1160</ele>
        <time>2021-07-02T08:02:25Z</time>
      </trkpt>
      <trkpt lat="45.0625" lon="5.52616">
        <ele>1161</ele>
        <time>2021-07-02T08:02:32Z</time>
      </trkpt>
      <trkpt lat="45.06259" lon="5.52616">
        <ele>1162</ele>
        <time>2021-07-02T08:02:43Z</time>
      </trkpt>
      <trkpt lat="45.06263" lon="5.52618">
        <ele>1163</ele>
        <time>2021-07-02T08:02:47Z</time>
      </trkpt>
      <trkpt lat="45.06269" lon="5.52619">
        <ele>1163</ele>
        <time>2021-07-02T08:02:54Z</time>
      </trkpt>
      <trkpt lat="45.06285" lon="5.52624">
        <ele>1165</ele>
        <time>2021-07-02T08:03:15Z</time>
      </trkpt>
      <trkpt lat="45.06299" lon="5.52625">
        <ele>1167</ele>
        <time>2021-07-02T08:03:33Z</time>
      </trkpt>
      <trkpt lat="45.06329" lon="5.52636">
        <ele>1171</ele>
        <time>2021-07-02T08:04:08Z</time>
      </trkpt>
      <trkpt lat="45.06335" lon="5.52638">
        <ele>1172</ele>
        <time>2021-07-02T08:04:15Z</time>
      </trkpt>
      <trkpt lat="45.06341" lon="5.52644">
        <ele>1172</ele>
        <time>2021-07-02T08:04:24Z</time>
      </trkpt>
      <trkpt lat="45.06346" lon="5.52644">
        <ele>1171</ele>
        <time>2021-07-02T08:04:49Z</time>
      </trkpt>
      <trkpt lat="45.06349" lon="5.52638">
        <ele>1171</ele>
        <time>2021-07-02T08:05:09Z</time>
      </trkpt>
      <trkpt lat="45.06347" lon="5.52637">
        <ele>1172</ele>
        <time>2021-07-02T08:07:14Z</time>
      </trkpt>
      <trkpt lat="45.06345" lon="5.52644">
        <ele>1172</ele>
        <time>2021-07-02T08:07:29Z</time>
      </trkpt>
      <trkpt lat="45.0634" lon="5.5265">
        <ele>1172</ele>
        <time>2021-07-02T08:07:58Z</time>
      </trkpt>
      <trkpt lat="45.06337" lon="5.52655">
        <ele>1172</ele>
        <time>2021-07-02T08:08:02Z</time>
      </trkpt>
      <trkpt lat="45.06331" lon="5.52674">
        <ele>1174</ele>
        <time>2021-07-02T08:08:17Z</time>
      </trkpt>
      <trkpt lat="45.06321" lon="5.52689">
        <ele>1175</ele>
        <time>2021-07-02T08:08:36Z</time>
      </trkpt>
      <trkpt lat="45.06316" lon="5.52692">
        <ele>1175</ele>
        <time>2021-07-02T08:08:41Z</time>
      </trkpt>
      <trkpt lat="45.0631" lon="5.52698">
        <ele>1176</ele>
        <time>2021-07-02T08:08:53Z</time>
      </trkpt>
      <trkpt lat="45.06305" lon="5.52699">
        <ele>1176</ele>
        <time>2021-07-02T08:08:57Z</time>
      </trkpt>
      <trkpt lat="45.063" lon="5.52707">
        <ele>1177</ele>
        <time>2021-07-02T08:09:19Z</time>
      </trkpt>
      <trkpt lat="45.06293" lon="5.52719">
        <ele>1179</ele>
        <time>2021-07-02T08:09:30Z</time>
      </trkpt>
      <trkpt lat="45.06288" lon="5.52724">
        <ele>1179</ele>
        <time>2021-07-02T08:09:37Z</time>
      </trkpt>
      <trkpt lat="45.06278" lon="5.52742">
        <ele>1181</ele>
        <time>2021-07-02T08:09:54Z</time>
      </trkpt>
      <trkpt lat="45.06271" lon="5.5276">
        <ele>1183</ele>
        <time>2021-07-02T08:10:11Z</time>
      </trkpt>
      <trkpt lat="45.06261" lon="5.52782">
        <ele>1185</ele>
        <time>2021-07-02T08:10:30Z</time>
      </trkpt>
      <trkpt lat="45.06246" lon="5.52824">
        <ele>1188</ele>
        <time>2021-07-02T08:11:08Z</time>
      </trkpt>
      <trkpt lat="45.06245" lon="5.52831">
        <ele>1189</ele>
        <time>2021-07-02T08:11:15Z</time>
      </trkpt>
      <trkpt lat="45.06241" lon="5.52834">
        <ele>1189</ele>
        <time>2021-07-02T08:11:20Z</time>
      </trkpt>
      <trkpt lat="45.06238" lon="5.52839">
        <ele>1190</ele>
        <time>2021-07-02T08:11:27Z</time>
      </trkpt>
      <trkpt lat="45.06234" lon="5.52842">
        <ele>1190</ele>
        <time>2021-07-02T08:11:31Z</time>
      </trkpt>
      <trkpt lat="45.0622" lon="5.52858">
        <ele>1190</ele>
        <time>2021-07-02T08:11:50Z</time>
      </trkpt>
      <trkpt lat="45.06193" lon="5.5288">
        <ele>1190</ele>
        <time>2021-07-02T08:12:12Z</time>
      </trkpt>
      <trkpt lat="45.06183" lon="5.52882">
        <ele>1190</ele>
        <time>2021-07-02T08:12:20Z</time>
      </trkpt>
      <trkpt lat="45.06179" lon="5.52883">
        <ele>1190</ele>
        <time>2021-07-02T08:12:24Z</time>
      </trkpt>
      <trkpt lat="45.0617" lon="5.5288">
        <ele>1190</ele>
        <time>2021-07-02T08:12:32Z</time>
      </trkpt>
      <trkpt lat="45.06162" lon="5.52874">
        <ele>1190</ele>
        <time>2021-07-02T08:12:41Z</time>
      </trkpt>
      <trkpt lat="45.06147" lon="5.52866">
        <ele>1191</ele>
        <time>2021-07-02T08:12:57Z</time>
      </trkpt>
      <trkpt lat="45.06122" lon="5.52845">
        <ele>1192</ele>
        <time>2021-07-02T08:13:27Z</time>
      </trkpt>
      <trkpt lat="45.06105" lon="5.52833">
        <ele>1193</ele>
        <time>2021-07-02T08:13:44Z</time>
      </trkpt>
      <trkpt lat="45.06097" lon="5.52831">
        <ele>1194</ele>
        <time>2021-07-02T08:13:53Z</time>
      </trkpt>
      <trkpt lat="45.06093" lon="5.52827">
        <ele>1194</ele>
        <time>2021-07-02T08:13:58Z</time>
      </trkpt>
      <trkpt lat="45.06083" lon="5.52823">
        <ele>1195</ele>
        <time>2021-07-02T08:14:08Z</time>
      </trkpt>
      <trkpt lat="45.06056" lon="5.52805">
        <ele>1197</ele>
        <time>2021-07-02T08:14:39Z</time>
      </trkpt>
      <trkpt lat="45.06021" lon="5.52792">
        <ele>1197</ele>
        <time>2021-07-02T08:15:12Z</time>
      </trkpt>
      <trkpt lat="45.06011" lon="5.52792">
        <ele>1197</ele>
        <time>2021-07-02T08:15:20Z</time>
      </trkpt>
      <trkpt lat="45.06007" lon="5.52791">
        <ele>1197</ele>
        <time>2021-07-02T08:15:24Z</time>
      </trkpt>
      <trkpt lat="45.06002" lon="5.52789">
        <ele>1197</ele>
        <time>2021-07-02T08:15:28Z</time>
      </trkpt>
      <trkpt lat="45.05993" lon="5.52789">
        <ele>1197</ele>
        <time>2021-07-02T08:15:36Z</time>
      </trkpt>
      <trkpt lat="45.05976" lon="5.52785">
        <ele>1197</ele>
        <time>2021-07-02T08:15:52Z</time>
      </trkpt>
      <trkpt lat="45.05958" lon="5.52772">
        <ele>1197</ele>
        <time>2021-07-02T08:16:11Z</time>
      </trkpt>
      <trkpt lat="45.05938" lon="5.5275">
        <ele>1199</ele>
        <time>2021-07-02T08:16:34Z</time>
      </trkpt>
      <trkpt lat="45.05931" lon="5.52744">
        <ele>1199</ele>
        <time>2021-07-02T08:16:43Z</time>
      </trkpt>
      <trkpt lat="45.05923" lon="5.52735">
        <ele>1200</ele>
        <time>2021-07-02T08:16:53Z</time>
      </trkpt>
      <trkpt lat="45.05918" lon="5.52732">
        <ele>1201</ele>
        <time>2021-07-02T08:16:57Z</time>
      </trkpt>
      <trkpt lat="45.05914" lon="5.52728">
        <ele>1201</ele>
        <time>2021-07-02T08:17:02Z</time>
      </trkpt>
      <trkpt lat="45.05881" lon="5.5272">
        <ele>1203</ele>
        <time>2021-07-02T08:17:33Z</time>
      </trkpt>
      <trkpt lat="45.05861" lon="5.5272">
        <ele>1203</ele>
        <time>2021-07-02T08:17:52Z</time>
      </trkpt>
      <trkpt lat="45.05824" lon="5.52719">
        <ele>1203</ele>
        <time>2021-07-02T08:18:25Z</time>
      </trkpt>
      <trkpt lat="45.05786" lon="5.52714">
        <ele>1203</ele>
        <time>2021-07-02T08:18:58Z</time>
      </trkpt>
      <trkpt lat="45.05767" lon="5.52705">
        <ele>1204</ele>
        <time>2021-07-02T08:19:14Z</time>
      </trkpt>
      <trkpt lat="45.05754" lon="5.52696">
        <ele>1206</ele>
        <time>2021-07-02T08:19:27Z</time>
      </trkpt>
      <trkpt lat="45.05739" lon="5.52689">
        <ele>1208</ele>
        <time>2021-07-02T08:19:44Z</time>
      </trkpt>
      <trkpt lat="45.05717" lon="5.52686">
        <ele>1210</ele>
        <time>2021-07-02T08:20:05Z</time>
      </trkpt>
      <trkpt lat="45.05684" lon="5.52693">
        <ele>1213</ele>
        <time>2021-07-02T08:20:35Z</time>
      </trkpt>
      <trkpt lat="45.05677" lon="5.52694">
        <ele>1214</ele>
        <time>2021-07-02T08:20:42Z</time>
      </trkpt>
      <trkpt lat="45.05652" lon="5.527">
        <ele>1215</ele>
        <time>2021-07-02T08:21:05Z</time>
      </trkpt>
      <trkpt lat="45.05645" lon="5.52705">
        <ele>1214</ele>
        <time>2021-07-02T08:21:12Z</time>
      </trkpt>
      <trkpt lat="45.05612" lon="5.5272">
        <ele>1214</ele>
        <time>2021-07-02T08:21:41Z</time>
      </trkpt>
      <trkpt lat="45.05588" lon="5.52723">
        <ele>1214</ele>
        <time>2021-07-02T08:22:02Z</time>
      </trkpt>
      <trkpt lat="45.05582" lon="5.52722">
        <ele>1214</ele>
        <time>2021-07-02T08:22:08Z</time>
      </trkpt>
      <trkpt lat="45.05578" lon="5.5272">
        <ele>1214</ele>
        <time>2021-07-02T08:22:11Z</time>
      </trkpt>
      <trkpt lat="45.05563" lon="5.52711">
        <ele>1214</ele>
        <time>2021-07-02T08:22:26Z</time>
      </trkpt>
      <trkpt lat="45.05559" lon="5.52707">
        <ele>1214</ele>
        <time>2021-07-02T08:22:31Z</time>
      </trkpt>
      <trkpt lat="45.0555" lon="5.527">
        <ele>1214</ele>
        <time>2021-07-02T08:22:38Z</time>
      </trkpt>
      <trkpt lat="45.05545" lon="5.52695">
        <ele>1214</ele>
        <time>2021-07-02T08:22:42Z</time>
      </trkpt>
      <trkpt lat="45.05528" lon="5.52671">
        <ele>1216</ele>
        <time>2021-07-02T08:23:01Z</time>
      </trkpt>
      <trkpt lat="45.05524" lon="5.52668">
        <ele>1217</ele>
        <time>2021-07-02T08:23:06Z</time>
      </trkpt>
      <trkpt lat="45.05514" lon="5.52661">
        <ele>1217</ele>
        <time>2021-07-02T08:23:17Z</time>
      </trkpt>
      <trkpt lat="45.0549" lon="5.52656">
        <ele>1218</ele>
        <time>2021-07-02T08:23:36Z</time>
      </trkpt>
      <trkpt lat="45.05485" lon="5.52654">
        <ele>1218</ele>
        <time>2021-07-02T08:23:40Z</time>
      </trkpt>
      <trkpt lat="45.05476" lon="5.52654">
        <ele>1219</ele>
        <time>2021-07-02T08:23:48Z</time>
      </trkpt>
      <trkpt lat="45.05471" lon="5.52652">
        <ele>1219</ele>
        <time>2021-07-02T08:23:54Z</time>
      </trkpt>
      <trkpt lat="45.05465" lon="5.52653">
        <ele>1219</ele>
        <time>2021-07-02T08:24:00Z</time>
      </trkpt>
      <trkpt lat="45.05456" lon="5.52653">
        <ele>1221</ele>
        <time>2021-07-02T08:24:08Z</time>
      </trkpt>
      <trkpt lat="45.05451" lon="5.5265">
        <ele>1221</ele>
        <time>2021-07-02T08:24:12Z</time>
      </trkpt>
      <trkpt lat="45.05436" lon="5.52649">
        <ele>1223</ele>
        <time>2021-07-02T08:24:26Z</time>
      </trkpt>
      <trkpt lat="45.05432" lon="5.52647">
        <ele>1223</ele>
        <time>2021-07-02T08:24:30Z</time>
      </trkpt>
      <trkpt lat="45.05416" lon="5.52644">
        <ele>1225</ele>
        <time>2021-07-02T08:24:45Z</time>
      </trkpt>
      <trkpt lat="45.0539" lon="5.52631">
        <ele>1228</ele>
        <time>2021-07-02T08:25:11Z</time>
      </trkpt>
      <trkpt lat="45.05378" lon="5.5262">
        <ele>1229</ele>
        <time>2021-07-02T08:25:24Z</time>
      </trkpt>
      <trkpt lat="45.05371" lon="5.52614">
        <ele>1229</ele>
        <time>2021-07-02T08:25:32Z</time>
      </trkpt>
      <trkpt lat="45.05355" lon="5.52597">
        <ele>1230</ele>
        <time>2021-07-02T08:25:49Z</time>
      </trkpt>
      <trkpt lat="45.05341" lon="5.52586">
        <ele>1231</ele>
        <time>2021-07-02T08:26:09Z</time>
      </trkpt>
      <trkpt lat="45.05336" lon="5.52581">
        <ele>1232</ele>
        <time>2021-07-02T08:26:21Z</time>
      </trkpt>
      <trkpt lat="45.05332" lon="5.52578">
        <ele>1232</ele>
        <time>2021-07-02T08:26:36Z</time>
      </trkpt>
      <trkpt lat="45.05323" lon="5.52569">
        <ele>1233</ele>
        <time>2021-07-02T08:26:49Z</time>
      </trkpt>
      <trkpt lat="45.05313" lon="5.52556">
        <ele>1234</ele>
        <time>2021-07-02T08:27:04Z</time>
      </trkpt>
      <trkpt lat="45.0531" lon="5.52553">
        <ele>1234</ele>
        <time>2021-07-02T08:27:11Z</time>
      </trkpt>
      <trkpt lat="45.05306" lon="5.52549">
        <ele>1234</ele>
        <time>2021-07-02T08:27:16Z</time>
      </trkpt>
      <trkpt lat="45.05302" lon="5.52547">
        <ele>1234</ele>
        <time>2021-07-02T08:27:45Z</time>
      </trkpt>
      <trkpt lat="45.05298" lon="5.52543">
        <ele>1234</ele>
        <time>2021-07-02T08:28:17Z</time>
      </trkpt>
      <trkpt lat="45.05283" lon="5.52525">
        <ele>1234</ele>
        <time>2021-07-02T08:28:41Z</time>
      </trkpt>
      <trkpt lat="45.05279" lon="5.52521">
        <ele>1234</ele>
        <time>2021-07-02T08:28:45Z</time>
      </trkpt>
      <trkpt lat="45.05274" lon="5.52514">
        <ele>1234</ele>
        <time>2021-07-02T08:28:52Z</time>
      </trkpt>
      <trkpt lat="45.05265" lon="5.52505">
        <ele>1235</ele>
        <time>2021-07-02T08:29:03Z</time>
      </trkpt>
      <trkpt lat="45.05247" lon="5.52478">
        <ele>1235</ele>
        <time>2021-07-02T08:29:24Z</time>
      </trkpt>
      <trkpt lat="45.05243" lon="5.52475">
        <ele>1236</ele>
        <time>2021-07-02T08:29:28Z</time>
      </trkpt>
      <trkpt lat="45.05231" lon="5.52462">
        <ele>1236</ele>
        <time>2021-07-02T08:29:43Z</time>
      </trkpt>
      <trkpt lat="45.05225" lon="5.52455">
        <ele>1237</ele>
        <time>2021-07-02T08:29:51Z</time>
      </trkpt>
      <trkpt lat="45.05221" lon="5.52451">
        <ele>1237</ele>
        <time>2021-07-02T08:29:56Z</time>
      </trkpt>
      <trkpt lat="45.05217" lon="5.52448">
        <ele>1237</ele>
        <time>2021-07-02T08:30:01Z</time>
      </trkpt>
      <trkpt lat="45.05199" lon="5.52424">
        <ele>1239</ele>
        <time>2021-07-02T08:30:20Z</time>
      </trkpt>
      <trkpt lat="45.0517" lon="5.52405">
        <ele>1241</ele>
        <time>2021-07-02T08:30:54Z</time>
      </trkpt>
      <trkpt lat="45.05129" lon="5.52385">
        <ele>1242</ele>
        <time>2021-07-02T08:31:26Z</time>
      </trkpt>
      <trkpt lat="45.05122" lon="5.52382">
        <ele>1243</ele>
        <time>2021-07-02T08:31:39Z</time>
      </trkpt>
      <trkpt lat="45.05102" lon="5.52382">
        <ele>1243</ele>
        <time>2021-07-02T08:32:00Z</time>
      </trkpt>
      <trkpt lat="45.05097" lon="5.52385">
        <ele>1242</ele>
        <time>2021-07-02T08:32:05Z</time>
      </trkpt>
      <trkpt lat="45.05086" lon="5.52383">
        <ele>1242</ele>
        <time>2021-07-02T08:32:20Z</time>
      </trkpt>
      <trkpt lat="45.05079" lon="5.52385">
        <ele>1241</ele>
        <time>2021-07-02T08:32:31Z</time>
      </trkpt>
      <trkpt lat="45.05076" lon="5.52384">
        <ele>1240</ele>
        <time>2021-07-02T08:33:24Z</time>
      </trkpt>
      <trkpt lat="45.05062" lon="5.52388">
        <ele>1240</ele>
        <time>2021-07-02T08:33:35Z</time>
      </trkpt>
      <trkpt lat="45.05021" lon="5.52384">
        <ele>1239</ele>
        <time>2021-07-02T08:34:06Z</time>
      </trkpt>
      <trkpt lat="45.05016" lon="5.52382">
        <ele>1238</ele>
        <time>2021-07-02T08:34:10Z</time>
      </trkpt>
      <trkpt lat="45.05007" lon="5.52383">
        <ele>1238</ele>
        <time>2021-07-02T08:34:17Z</time>
      </trkpt>
      <trkpt lat="45.04987" lon="5.52376">
        <ele>1238</ele>
        <time>2021-07-02T08:34:31Z</time>
      </trkpt>
      <trkpt lat="45.04971" lon="5.5236">
        <ele>1239</ele>
        <time>2021-07-02T08:34:45Z</time>
      </trkpt>
      <trkpt lat="45.04952" lon="5.52333">
        <ele>1240</ele>
        <time>2021-07-02T08:35:11Z</time>
      </trkpt>
      <trkpt lat="45.04947" lon="5.5233">
        <ele>1240</ele>
        <time>2021-07-02T08:35:16Z</time>
      </trkpt>
      <trkpt lat="45.04918" lon="5.52294">
        <ele>1240</ele>
        <time>2021-07-02T08:35:52Z</time>
      </trkpt>
      <trkpt lat="45.04902" lon="5.52291">
        <ele>1239</ele>
        <time>2021-07-02T08:36:08Z</time>
      </trkpt>
      <trkpt lat="45.04884" lon="5.5229">
        <ele>1239</ele>
        <time>2021-07-02T08:36:20Z</time>
      </trkpt>
      <trkpt lat="45.04879" lon="5.52288">
        <ele>1239</ele>
        <time>2021-07-02T08:36:25Z</time>
      </trkpt>
      <trkpt lat="45.04871" lon="5.52279">
        <ele>1239</ele>
        <time>2021-07-02T08:36:33Z</time>
      </trkpt>
      <trkpt lat="45.04869" lon="5.52274">
        <ele>1239</ele>
        <time>2021-07-02T08:36:36Z</time>
      </trkpt>
      <trkpt lat="45.04866" lon="5.52262">
        <ele>1239</ele>
        <time>2021-07-02T08:36:44Z</time>
      </trkpt>
      <trkpt lat="45.04867" lon="5.52256">
        <ele>1240</ele>
        <time>2021-07-02T08:36:48Z</time>
      </trkpt>
      <trkpt lat="45.04865" lon="5.52243">
        <ele>1240</ele>
        <time>2021-07-02T08:36:56Z</time>
      </trkpt>
      <trkpt lat="45.04857" lon="5.52207">
        <ele>1242</ele>
        <time>2021-07-02T08:37:22Z</time>
      </trkpt>
      <trkpt lat="45.04843" lon="5.5217">
        <ele>1244</ele>
        <time>2021-07-02T08:37:53Z</time>
      </trkpt>
      <trkpt lat="45.04836" lon="5.52152">
        <ele>1243</ele>
        <time>2021-07-02T08:38:07Z</time>
      </trkpt>
      <trkpt lat="45.04834" lon="5.52139">
        <ele>1243</ele>
        <time>2021-07-02T08:38:14Z</time>
      </trkpt>
      <trkpt lat="45.04826" lon="5.52117">
        <ele>1242</ele>
        <time>2021-07-02T08:38:33Z</time>
      </trkpt>
      <trkpt lat="45.04822" lon="5.52116">
        <ele>1242</ele>
        <time>2021-07-02T08:39:01Z</time>
      </trkpt>
      <trkpt lat="45.04819" lon="5.52115">
        <ele>1242</ele>
        <time>2021-07-02T08:39:40Z</time>
      </trkpt>
      <trkpt lat="45.04816" lon="5.5211">
        <ele>1242</ele>
        <time>2021-07-02T08:39:44Z</time>
      </trkpt>
      <trkpt lat="45.048" lon="5.52099">
        <ele>1239</ele>
        <time>2021-07-02T08:40:16Z</time>
      </trkpt>
      <trkpt lat="45.04789" lon="5.52098">
        <ele>1238</ele>
        <time>2021-07-02T08:40:27Z</time>
      </trkpt>
      <trkpt lat="45.04781" lon="5.521">
        <ele>1237</ele>
        <time>2021-07-02T08:40:36Z</time>
      </trkpt>
      <trkpt lat="45.04771" lon="5.52105">
        <ele>1236</ele>
        <time>2021-07-02T08:40:48Z</time>
      </trkpt>
      <trkpt lat="45.04763" lon="5.52111">
        <ele>1236</ele>
        <time>2021-07-02T08:40:59Z</time>
      </trkpt>
      <trkpt lat="45.04754" lon="5.52115">
        <ele>1236</ele>
        <time>2021-07-02T08:41:09Z</time>
      </trkpt>
      <trkpt lat="45.04728" lon="5.52126">
        <ele>1234</ele>
        <time>2021-07-02T08:41:34Z</time>
      </trkpt>
      <trkpt lat="45.04724" lon="5.52129">
        <ele>1234</ele>
        <time>2021-07-02T08:41:38Z</time>
      </trkpt>
      <trkpt lat="45.04712" lon="5.52135">
        <ele>1232</ele>
        <time>2021-07-02T08:41:50Z</time>
      </trkpt>
      <trkpt lat="45.04707" lon="5.52136">
        <ele>1232</ele>
        <time>2021-07-02T08:41:54Z</time>
      </trkpt>
      <trkpt lat="45.04674" lon="5.52158">
        <ele>1230</ele>
        <time>2021-07-02T08:42:26Z</time>
      </trkpt>
      <trkpt lat="45.04674" lon="5.52159">
        <ele>1236</ele>
        <time>2021-07-02T08:54:08Z</time>
      </trkpt>
      <trkpt lat="45.04668" lon="5.52162">
        <ele>1236</ele>
        <time>2021-07-02T08:54:12Z</time>
      </trkpt>
      <trkpt lat="45.04664" lon="5.52166">
        <ele>1237</ele>
        <time>2021-07-02T08:54:16Z</time>
      </trkpt>
      <trkpt lat="45.04658" lon="5.52168">
        <ele>1237</ele>
        <time>2021-07-02T08:54:20Z</time>
      </trkpt>
      <trkpt lat="45.04654" lon="5.52167">
        <ele>1237</ele>
        <time>2021-07-02T08:54:23Z</time>
      </trkpt>
      <trkpt lat="45.04649" lon="5.52168">
        <ele>1237</ele>
        <time>2021-07-02T08:54:31Z</time>
      </trkpt>
      <trkpt lat="45.04641" lon="5.52172">
        <ele>1237</ele>
        <time>2021-07-02T08:54:42Z</time>
      </trkpt>
      <trkpt lat="45.04637" lon="5.52176">
        <ele>1238</ele>
        <time>2021-07-02T08:54:50Z</time>
      </trkpt>
      <trkpt lat="45.0464" lon="5.52182">
        <ele>1239</ele>
        <time>2021-07-02T08:55:01Z</time>
      </trkpt>
      <trkpt lat="45.04641" lon="5.52183">
        <ele>1239</ele>
        <time>2021-07-02T08:55:37Z</time>
      </trkpt>
      <trkpt lat="45.04631" lon="5.52179">
        <ele>1240</ele>
        <time>2021-07-02T08:55:42Z</time>
      </trkpt>
      <trkpt lat="45.04617" lon="5.52175">
        <ele>1241</ele>
        <time>2021-07-02T08:55:56Z</time>
      </trkpt>
      <trkpt lat="45.04595" lon="5.52181">
        <ele>1242</ele>
        <time>2021-07-02T08:56:18Z</time>
      </trkpt>
      <trkpt lat="45.04588" lon="5.52176">
        <ele>1242</ele>
        <time>2021-07-02T08:56:26Z</time>
      </trkpt>
      <trkpt lat="45.04583" lon="5.52168">
        <ele>1244</ele>
        <time>2021-07-02T08:56:37Z</time>
      </trkpt>
      <trkpt lat="45.04582" lon="5.52161">
        <ele>1246</ele>
        <time>2021-07-02T08:56:47Z</time>
      </trkpt>
      <trkpt lat="45.04589" lon="5.52146">
        <ele>1248</ele>
        <time>2021-07-02T08:57:02Z</time>
      </trkpt>
      <trkpt lat="45.04591" lon="5.5214">
        <ele>1248</ele>
        <time>2021-07-02T08:57:10Z</time>
      </trkpt>
      <trkpt lat="45.04591" lon="5.52129">
        <ele>1247</ele>
        <time>2021-07-02T08:58:00Z</time>
      </trkpt>
      <trkpt lat="45.04592" lon="5.52122">
        <ele>1246</ele>
        <time>2021-07-02T08:58:03Z</time>
      </trkpt>
      <trkpt lat="45.04591" lon="5.52115">
        <ele>1245</ele>
        <time>2021-07-02T08:58:07Z</time>
      </trkpt>
      <trkpt lat="45.0459" lon="5.52108">
        <ele>1245</ele>
        <time>2021-07-02T08:58:11Z</time>
      </trkpt>
      <trkpt lat="45.04591" lon="5.52093">
        <ele>1245</ele>
        <time>2021-07-02T08:58:22Z</time>
      </trkpt>
      <trkpt lat="45.04595" lon="5.52085">
        <ele>1245</ele>
        <time>2021-07-02T08:58:29Z</time>
      </trkpt>
      <trkpt lat="45.046" lon="5.52079">
        <ele>1244</ele>
        <time>2021-07-02T08:58:41Z</time>
      </trkpt>
      <trkpt lat="45.04604" lon="5.52076">
        <ele>1243</ele>
        <time>2021-07-02T08:58:47Z</time>
      </trkpt>
      <trkpt lat="45.04604" lon="5.52061">
        <ele>1241</ele>
        <time>2021-07-02T09:00:15Z</time>
      </trkpt>
      <trkpt lat="45.04597" lon="5.52059">
        <ele>1242</ele>
        <time>2021-07-02T09:00:26Z</time>
      </trkpt>
      <trkpt lat="45.04594" lon="5.52053">
        <ele>1243</ele>
        <time>2021-07-02T09:00:30Z</time>
      </trkpt>
      <trkpt lat="45.04591" lon="5.5205">
        <ele>1243</ele>
        <time>2021-07-02T09:00:34Z</time>
      </trkpt>
      <trkpt lat="45.04586" lon="5.52047">
        <ele>1243</ele>
        <time>2021-07-02T09:00:38Z</time>
      </trkpt>
      <trkpt lat="45.04581" lon="5.52046">
        <ele>1243</ele>
        <time>2021-07-02T09:00:43Z</time>
      </trkpt>
      <trkpt lat="45.04575" lon="5.52044">
        <ele>1243</ele>
        <time>2021-07-02T09:00:50Z</time>
      </trkpt>
      <trkpt lat="45.04571" lon="5.52044">
        <ele>1244</ele>
        <time>2021-07-02T09:00:54Z</time>
      </trkpt>
      <trkpt lat="45.04558" lon="5.5204">
        <ele>1246</ele>
        <time>2021-07-02T09:01:09Z</time>
      </trkpt>
      <trkpt lat="45.04553" lon="5.52039">
        <ele>1246</ele>
        <time>2021-07-02T09:01:13Z</time>
      </trkpt>
      <trkpt lat="45.04552" lon="5.52034">
        <ele>1247</ele>
        <time>2021-07-02T09:01:28Z</time>
      </trkpt>
      <trkpt lat="45.04555" lon="5.52028">
        <ele>1247</ele>
        <time>2021-07-02T09:01:38Z</time>
      </trkpt>
      <trkpt lat="45.0456" lon="5.52025">
        <ele>1247</ele>
        <time>2021-07-02T09:01:48Z</time>
      </trkpt>
      <trkpt lat="45.0456" lon="5.52021">
        <ele>1247</ele>
        <time>2021-07-02T09:02:15Z</time>
      </trkpt>
      <trkpt lat="45.0456" lon="5.52013">
        <ele>1247</ele>
        <time>2021-07-02T09:02:20Z</time>
      </trkpt>
      <trkpt lat="45.04557" lon="5.51998">
        <ele>1248</ele>
        <time>2021-07-02T09:02:37Z</time>
      </trkpt>
      <trkpt lat="45.04558" lon="5.51992">
        <ele>1249</ele>
        <time>2021-07-02T09:02:42Z</time>
      </trkpt>
      <trkpt lat="45.0456" lon="5.51981">
        <ele>1248</ele>
        <time>2021-07-02T09:02:51Z</time>
      </trkpt>
      <trkpt lat="45.04563" lon="5.5197">
        <ele>1248</ele>
        <time>2021-07-02T09:03:01Z</time>
      </trkpt>
      <trkpt lat="45.04568" lon="5.51963">
        <ele>1249</ele>
        <time>2021-07-02T09:03:11Z</time>
      </trkpt>
      <trkpt lat="45.04573" lon="5.51942">
        <ele>1249</ele>
        <time>2021-07-02T09:03:28Z</time>
      </trkpt>
      <trkpt lat="45.04578" lon="5.51921">
        <ele>1249</ele>
        <time>2021-07-02T09:03:40Z</time>
      </trkpt>
      <trkpt lat="45.04575" lon="5.51912">
        <ele>1249</ele>
        <time>2021-07-02T09:03:48Z</time>
      </trkpt>
      <trkpt lat="45.04574" lon="5.51904">
        <ele>1248</ele>
        <time>2021-07-02T09:04:21Z</time>
      </trkpt>
      <trkpt lat="45.04569" lon="5.519">
        <ele>1249</ele>
        <time>2021-07-02T09:04:26Z</time>
      </trkpt>
      <trkpt lat="45.04568" lon="5.51893">
        <ele>1249</ele>
        <time>2021-07-02T09:04:33Z</time>
      </trkpt>
      <trkpt lat="45.04555" lon="5.51883">
        <ele>1249</ele>
        <time>2021-07-02T09:04:51Z</time>
      </trkpt>
      <trkpt lat="45.04549" lon="5.51881">
        <ele>1249</ele>
        <time>2021-07-02T09:04:58Z</time>
      </trkpt>
      <trkpt lat="45.04545" lon="5.51876">
        <ele>1249</ele>
        <time>2021-07-02T09:05:05Z</time>
      </trkpt>
      <trkpt lat="45.04539" lon="5.51874">
        <ele>1249</ele>
        <time>2021-07-02T09:05:10Z</time>
      </trkpt>
      <trkpt lat="45.04533" lon="5.5187">
        <ele>1250</ele>
        <time>2021-07-02T09:05:18Z</time>
      </trkpt>
      <trkpt lat="45.04528" lon="5.51866">
        <ele>1251</ele>
        <time>2021-07-02T09:05:26Z</time>
      </trkpt>
      <trkpt lat="45.04519" lon="5.51861">
        <ele>1251</ele>
        <time>2021-07-02T09:05:33Z</time>
      </trkpt>
      <trkpt lat="45.04515" lon="5.51858">
        <ele>1251</ele>
        <time>2021-07-02T09:05:37Z</time>
      </trkpt>
      <trkpt lat="45.04512" lon="5.51853">
        <ele>1252</ele>
        <time>2021-07-02T09:05:44Z</time>
      </trkpt>
      <trkpt lat="45.04512" lon="5.51847">
        <ele>1252</ele>
        <time>2021-07-02T09:05:48Z</time>
      </trkpt>
      <trkpt lat="45.0451" lon="5.51839">
        <ele>1252</ele>
        <time>2021-07-02T09:05:51Z</time>
      </trkpt>
      <trkpt lat="45.04509" lon="5.51834">
        <ele>1252</ele>
        <time>2021-07-02T09:05:54Z</time>
      </trkpt>
      <trkpt lat="45.04509" lon="5.51827">
        <ele>1251</ele>
        <time>2021-07-02T09:05:58Z</time>
      </trkpt>
      <trkpt lat="45.0451" lon="5.51821">
        <ele>1251</ele>
        <time>2021-07-02T09:06:02Z</time>
      </trkpt>
      <trkpt lat="45.04508" lon="5.51815">
        <ele>1252</ele>
        <time>2021-07-02T09:06:09Z</time>
      </trkpt>
      <trkpt lat="45.04504" lon="5.51807">
        <ele>1254</ele>
        <time>2021-07-02T09:06:19Z</time>
      </trkpt>
      <trkpt lat="45.04491" lon="5.51797">
        <ele>1257</ele>
        <time>2021-07-02T09:06:38Z</time>
      </trkpt>
      <trkpt lat="45.04484" lon="5.51798">
        <ele>1256</ele>
        <time>2021-07-02T09:06:47Z</time>
      </trkpt>
      <trkpt lat="45.04481" lon="5.51789">
        <ele>1257</ele>
        <time>2021-07-02T09:06:57Z</time>
      </trkpt>
      <trkpt lat="45.04452" lon="5.51781">
        <ele>1261</ele>
        <time>2021-07-02T09:07:38Z</time>
      </trkpt>
      <trkpt lat="45.04439" lon="5.51776">
        <ele>1263</ele>
        <time>2021-07-02T09:07:56Z</time>
      </trkpt>
      <trkpt lat="45.04433" lon="5.51774">
        <ele>1263</ele>
        <time>2021-07-02T09:08:01Z</time>
      </trkpt>
      <trkpt lat="45.04429" lon="5.51772">
        <ele>1263</ele>
        <time>2021-07-02T09:08:04Z</time>
      </trkpt>
      <trkpt lat="45.04421" lon="5.51764">
        <ele>1262</ele>
        <time>2021-07-02T09:08:13Z</time>
      </trkpt>
      <trkpt lat="45.04414" lon="5.51754">
        <ele>1261</ele>
        <time>2021-07-02T09:08:21Z</time>
      </trkpt>
      <trkpt lat="45.0441" lon="5.51749">
        <ele>1261</ele>
        <time>2021-07-02T09:08:26Z</time>
      </trkpt>
      <trkpt lat="45.04407" lon="5.51741">
        <ele>1261</ele>
        <time>2021-07-02T09:08:32Z</time>
      </trkpt>
      <trkpt lat="45.04403" lon="5.51738">
        <ele>1260</ele>
        <time>2021-07-02T09:08:40Z</time>
      </trkpt>
      <trkpt lat="45.04399" lon="5.51739">
        <ele>1260</ele>
        <time>2021-07-02T09:08:46Z</time>
      </trkpt>
      <trkpt lat="45.04385" lon="5.5175">
        <ele>1257</ele>
        <time>2021-07-02T09:09:08Z</time>
      </trkpt>
      <trkpt lat="45.04379" lon="5.51749">
        <ele>1256</ele>
        <time>2021-07-02T09:09:14Z</time>
      </trkpt>
      <trkpt lat="45.04374" lon="5.51745">
        <ele>1256</ele>
        <time>2021-07-02T09:09:18Z</time>
      </trkpt>
      <trkpt lat="45.04368" lon="5.51737">
        <ele>1256</ele>
        <time>2021-07-02T09:09:25Z</time>
      </trkpt>
      <trkpt lat="45.04362" lon="5.51733">
        <ele>1257</ele>
        <time>2021-07-02T09:09:34Z</time>
      </trkpt>
      <trkpt lat="45.04351" lon="5.51736">
        <ele>1259</ele>
        <time>2021-07-02T09:09:45Z</time>
      </trkpt>
      <trkpt lat="45.04347" lon="5.51742">
        <ele>1260</ele>
        <time>2021-07-02T09:09:52Z</time>
      </trkpt>
      <trkpt lat="45.04343" lon="5.51745">
        <ele>1260</ele>
        <time>2021-07-02T09:09:56Z</time>
      </trkpt>
      <trkpt lat="45.04334" lon="5.51748">
        <ele>1262</ele>
        <time>2021-07-02T09:10:08Z</time>
      </trkpt>
      <trkpt lat="45.0433" lon="5.51749">
        <ele>1262</ele>
        <time>2021-07-02T09:10:12Z</time>
      </trkpt>
      <trkpt lat="45.04319" lon="5.51757">
        <ele>1264</ele>
        <time>2021-07-02T09:10:30Z</time>
      </trkpt>
      <trkpt lat="45.04313" lon="5.51759">
        <ele>1266</ele>
        <time>2021-07-02T09:10:40Z</time>
      </trkpt>
      <trkpt lat="45.04309" lon="5.51766">
        <ele>1268</ele>
        <time>2021-07-02T09:10:50Z</time>
      </trkpt>
      <trkpt lat="45.04303" lon="5.51771">
        <ele>1270</ele>
        <time>2021-07-02T09:11:01Z</time>
      </trkpt>
      <trkpt lat="45.0428" lon="5.51771">
        <ele>1273</ele>
        <time>2021-07-02T09:11:27Z</time>
      </trkpt>
      <trkpt lat="45.04276" lon="5.5177">
        <ele>1274</ele>
        <time>2021-07-02T09:11:30Z</time>
      </trkpt>
      <trkpt lat="45.04269" lon="5.51771">
        <ele>1275</ele>
        <time>2021-07-02T09:11:41Z</time>
      </trkpt>
      <trkpt lat="45.04262" lon="5.51776">
        <ele>1275</ele>
        <time>2021-07-02T09:11:51Z</time>
      </trkpt>
      <trkpt lat="45.04256" lon="5.51777">
        <ele>1276</ele>
        <time>2021-07-02T09:11:56Z</time>
      </trkpt>
      <trkpt lat="45.04239" lon="5.51774">
        <ele>1277</ele>
        <time>2021-07-02T09:12:12Z</time>
      </trkpt>
      <trkpt lat="45.04236" lon="5.51771">
        <ele>1277</ele>
        <time>2021-07-02T09:12:17Z</time>
      </trkpt>
      <trkpt lat="45.04231" lon="5.51768">
        <ele>1277</ele>
        <time>2021-07-02T09:12:21Z</time>
      </trkpt>
      <trkpt lat="45.04216" lon="5.51771">
        <ele>1278</ele>
        <time>2021-07-02T09:12:36Z</time>
      </trkpt>
      <trkpt lat="45.04211" lon="5.51772">
        <ele>1278</ele>
        <time>2021-07-02T09:12:41Z</time>
      </trkpt>
      <trkpt lat="45.04198" lon="5.51778">
        <ele>1277</ele>
        <time>2021-07-02T09:12:54Z</time>
      </trkpt>
      <trkpt lat="45.04193" lon="5.51779">
        <ele>1277</ele>
        <time>2021-07-02T09:12:59Z</time>
      </trkpt>
      <trkpt lat="45.04188" lon="5.51783">
        <ele>1276</ele>
        <time>2021-07-02T09:13:06Z</time>
      </trkpt>
      <trkpt lat="45.04182" lon="5.51793">
        <ele>1275</ele>
        <time>2021-07-02T09:13:16Z</time>
      </trkpt>
      <trkpt lat="45.04177" lon="5.51795">
        <ele>1274</ele>
        <time>2021-07-02T09:13:20Z</time>
      </trkpt>
      <trkpt lat="45.04171" lon="5.51808">
        <ele>1273</ele>
        <time>2021-07-02T09:13:33Z</time>
      </trkpt>
      <trkpt lat="45.04167" lon="5.5181">
        <ele>1273</ele>
        <time>2021-07-02T09:13:38Z</time>
      </trkpt>
      <trkpt lat="45.04163" lon="5.51814">
        <ele>1273</ele>
        <time>2021-07-02T09:13:42Z</time>
      </trkpt>
      <trkpt lat="45.04161" lon="5.5182">
        <ele>1274</ele>
        <time>2021-07-02T09:13:47Z</time>
      </trkpt>
      <trkpt lat="45.04157" lon="5.51823">
        <ele>1274</ele>
        <time>2021-07-02T09:13:54Z</time>
      </trkpt>
      <trkpt lat="45.04153" lon="5.51827">
        <ele>1276</ele>
        <time>2021-07-02T09:14:00Z</time>
      </trkpt>
      <trkpt lat="45.04133" lon="5.51843">
        <ele>1280</ele>
        <time>2021-07-02T09:14:30Z</time>
      </trkpt>
      <trkpt lat="45.04129" lon="5.51845">
        <ele>1280</ele>
        <time>2021-07-02T09:14:34Z</time>
      </trkpt>
      <trkpt lat="45.04126" lon="5.51851">
        <ele>1280</ele>
        <time>2021-07-02T09:14:39Z</time>
      </trkpt>
      <trkpt lat="45.04121" lon="5.51853">
        <ele>1281</ele>
        <time>2021-07-02T09:14:46Z</time>
      </trkpt>
      <trkpt lat="45.04113" lon="5.51859">
        <ele>1283</ele>
        <time>2021-07-02T09:14:57Z</time>
      </trkpt>
      <trkpt lat="45.04109" lon="5.51865">
        <ele>1283</ele>
        <time>2021-07-02T09:15:04Z</time>
      </trkpt>
      <trkpt lat="45.04105" lon="5.51866">
        <ele>1283</ele>
        <time>2021-07-02T09:15:09Z</time>
      </trkpt>
      <trkpt lat="45.04099" lon="5.51858">
        <ele>1284</ele>
        <time>2021-07-02T09:15:20Z</time>
      </trkpt>
      <trkpt lat="45.04096" lon="5.51852">
        <ele>1284</ele>
        <time>2021-07-02T09:15:26Z</time>
      </trkpt>
      <trkpt lat="45.04093" lon="5.51839">
        <ele>1284</ele>
        <time>2021-07-02T09:15:35Z</time>
      </trkpt>
      <trkpt lat="45.04093" lon="5.51831">
        <ele>1285</ele>
        <time>2021-07-02T09:15:39Z</time>
      </trkpt>
      <trkpt lat="45.04086" lon="5.51783">
        <ele>1288</ele>
        <time>2021-07-02T09:16:18Z</time>
      </trkpt>
      <trkpt lat="45.04083" lon="5.51777">
        <ele>1290</ele>
        <time>2021-07-02T09:16:28Z</time>
      </trkpt>
      <trkpt lat="45.04057" lon="5.51752">
        <ele>1293</ele>
        <time>2021-07-02T09:17:01Z</time>
      </trkpt>
      <trkpt lat="45.04049" lon="5.51746">
        <ele>1294</ele>
        <time>2021-07-02T09:17:11Z</time>
      </trkpt>
      <trkpt lat="45.04043" lon="5.51741">
        <ele>1294</ele>
        <time>2021-07-02T09:17:19Z</time>
      </trkpt>
      <trkpt lat="45.0402" lon="5.51733">
        <ele>1295</ele>
        <time>2021-07-02T09:17:41Z</time>
      </trkpt>
      <trkpt lat="45.04017" lon="5.51729">
        <ele>1295</ele>
        <time>2021-07-02T09:17:45Z</time>
      </trkpt>
      <trkpt lat="45.04008" lon="5.51722">
        <ele>1296</ele>
        <time>2021-07-02T09:17:54Z</time>
      </trkpt>
      <trkpt lat="45.04005" lon="5.51717">
        <ele>1296</ele>
        <time>2021-07-02T09:17:59Z</time>
      </trkpt>
      <trkpt lat="45.04003" lon="5.51709">
        <ele>1296</ele>
        <time>2021-07-02T09:18:05Z</time>
      </trkpt>
      <trkpt lat="45.04003" lon="5.51702">
        <ele>1296</ele>
        <time>2021-07-02T09:18:10Z</time>
      </trkpt>
      <trkpt lat="45.04003" lon="5.51676">
        <ele>1299</ele>
        <time>2021-07-02T09:18:29Z</time>
      </trkpt>
      <trkpt lat="45.04" lon="5.5167">
        <ele>1299</ele>
        <time>2021-07-02T09:18:35Z</time>
      </trkpt>
      <trkpt lat="45.03991" lon="5.51664">
        <ele>1299</ele>
        <time>2021-07-02T09:18:44Z</time>
      </trkpt>
      <trkpt lat="45.03986" lon="5.51662">
        <ele>1299</ele>
        <time>2021-07-02T09:18:48Z</time>
      </trkpt>
      <trkpt lat="45.03973" lon="5.51653">
        <ele>1300</ele>
        <time>2021-07-02T09:19:02Z</time>
      </trkpt>
      <trkpt lat="45.03972" lon="5.51643">
        <ele>1300</ele>
        <time>2021-07-02T09:19:10Z</time>
      </trkpt>
      <trkpt lat="45.03972" lon="5.51635">
        <ele>1301</ele>
        <time>2021-07-02T09:19:15Z</time>
      </trkpt>
      <trkpt lat="45.03972" lon="5.51628">
        <ele>1301</ele>
        <time>2021-07-02T09:19:20Z</time>
      </trkpt>
      <trkpt lat="45.03972" lon="5.51621">
        <ele>1300</ele>
        <time>2021-07-02T09:19:28Z</time>
      </trkpt>
      <trkpt lat="45.03975" lon="5.51609">
        <ele>1298</ele>
        <time>2021-07-02T09:19:38Z</time>
      </trkpt>
      <trkpt lat="45.03978" lon="5.51601">
        <ele>1297</ele>
        <time>2021-07-02T09:19:44Z</time>
      </trkpt>
      <trkpt lat="45.0398" lon="5.51574">
        <ele>1295</ele>
        <time>2021-07-02T09:20:00Z</time>
      </trkpt>
      <trkpt lat="45.03975" lon="5.51571">
        <ele>1295</ele>
        <time>2021-07-02T09:20:04Z</time>
      </trkpt>
      <trkpt lat="45.03969" lon="5.51567">
        <ele>1296</ele>
        <time>2021-07-02T09:20:11Z</time>
      </trkpt>
      <trkpt lat="45.03964" lon="5.51562">
        <ele>1297</ele>
        <time>2021-07-02T09:20:18Z</time>
      </trkpt>
      <trkpt lat="45.03956" lon="5.51553">
        <ele>1297</ele>
        <time>2021-07-02T09:20:26Z</time>
      </trkpt>
      <trkpt lat="45.03953" lon="5.51548">
        <ele>1298</ele>
        <time>2021-07-02T09:20:31Z</time>
      </trkpt>
      <trkpt lat="45.0395" lon="5.51537">
        <ele>1299</ele>
        <time>2021-07-02T09:20:43Z</time>
      </trkpt>
      <trkpt lat="45.03942" lon="5.51527">
        <ele>1300</ele>
        <time>2021-07-02T09:20:54Z</time>
      </trkpt>
      <trkpt lat="45.03938" lon="5.51523">
        <ele>1300</ele>
        <time>2021-07-02T09:21:06Z</time>
      </trkpt>
      <trkpt lat="45.03935" lon="5.51518">
        <ele>1301</ele>
        <time>2021-07-02T09:23:08Z</time>
      </trkpt>
      <trkpt lat="45.03928" lon="5.51515">
        <ele>1301</ele>
        <time>2021-07-02T09:23:18Z</time>
      </trkpt>
      <trkpt lat="45.03923" lon="5.51513">
        <ele>1301</ele>
        <time>2021-07-02T09:23:21Z</time>
      </trkpt>
      <trkpt lat="45.03904" lon="5.5151">
        <ele>1302</ele>
        <time>2021-07-02T09:23:35Z</time>
      </trkpt>
      <trkpt lat="45.03899" lon="5.51511">
        <ele>1302</ele>
        <time>2021-07-02T09:23:39Z</time>
      </trkpt>
      <trkpt lat="45.03889" lon="5.51507">
        <ele>1302</ele>
        <time>2021-07-02T09:23:48Z</time>
      </trkpt>
      <trkpt lat="45.03884" lon="5.51502">
        <ele>1302</ele>
        <time>2021-07-02T09:23:54Z</time>
      </trkpt>
      <trkpt lat="45.03881" lon="5.51498">
        <ele>1302</ele>
        <time>2021-07-02T09:23:58Z</time>
      </trkpt>
      <trkpt lat="45.03877" lon="5.51492">
        <ele>1301</ele>
        <time>2021-07-02T09:24:04Z</time>
      </trkpt>
      <trkpt lat="45.03871" lon="5.51473">
        <ele>1301</ele>
        <time>2021-07-02T09:24:16Z</time>
      </trkpt>
      <trkpt lat="45.03872" lon="5.51442">
        <ele>1301</ele>
        <time>2021-07-02T09:24:35Z</time>
      </trkpt>
      <trkpt lat="45.03874" lon="5.51432">
        <ele>1302</ele>
        <time>2021-07-02T09:24:42Z</time>
      </trkpt>
      <trkpt lat="45.03879" lon="5.51409">
        <ele>1303</ele>
        <time>2021-07-02T09:24:57Z</time>
      </trkpt>
      <trkpt lat="45.03885" lon="5.51398">
        <ele>1303</ele>
        <time>2021-07-02T09:25:05Z</time>
      </trkpt>
      <trkpt lat="45.03884" lon="5.51393">
        <ele>1304</ele>
        <time>2021-07-02T09:25:09Z</time>
      </trkpt>
      <trkpt lat="45.03883" lon="5.51382">
        <ele>1304</ele>
        <time>2021-07-02T09:25:16Z</time>
      </trkpt>
      <trkpt lat="45.03873" lon="5.51375">
        <ele>1304</ele>
        <time>2021-07-02T09:25:24Z</time>
      </trkpt>
      <trkpt lat="45.03859" lon="5.51369">
        <ele>1305</ele>
        <time>2021-07-02T09:25:40Z</time>
      </trkpt>
      <trkpt lat="45.03842" lon="5.51371">
        <ele>1305</ele>
        <time>2021-07-02T09:25:57Z</time>
      </trkpt>
      <trkpt lat="45.03835" lon="5.5138">
        <ele>1305</ele>
        <time>2021-07-02T09:26:05Z</time>
      </trkpt>
      <trkpt lat="45.03829" lon="5.51383">
        <ele>1305</ele>
        <time>2021-07-02T09:26:11Z</time>
      </trkpt>
      <trkpt lat="45.03824" lon="5.51382">
        <ele>1305</ele>
        <time>2021-07-02T09:26:18Z</time>
      </trkpt>
      <trkpt lat="45.0382" lon="5.51382">
        <ele>1304</ele>
        <time>2021-07-02T09:27:30Z</time>
      </trkpt>
      <trkpt lat="45.03822" lon="5.51375">
        <ele>1304</ele>
        <time>2021-07-02T09:28:56Z</time>
      </trkpt>
      <trkpt lat="45.03827" lon="5.51377">
        <ele>1304</ele>
        <time>2021-07-02T09:29:12Z</time>
      </trkpt>
      <trkpt lat="45.03831" lon="5.51372">
        <ele>1304</ele>
        <time>2021-07-02T09:29:22Z</time>
      </trkpt>
      <trkpt lat="45.03833" lon="5.51368">
        <ele>1304</ele>
        <time>2021-07-02T09:31:51Z</time>
      </trkpt>
      <trkpt lat="45.03836" lon="5.51368">
        <ele>1304</ele>
        <time>2021-07-02T09:32:42Z</time>
      </trkpt>
      <trkpt lat="45.03841" lon="5.51367">
        <ele>1304</ele>
        <time>2021-07-02T09:32:46Z</time>
      </trkpt>
      <trkpt lat="45.03845" lon="5.51369">
        <ele>1304</ele>
        <time>2021-07-02T09:32:49Z</time>
      </trkpt>
      <trkpt lat="45.0385" lon="5.51368">
        <ele>1304</ele>
        <time>2021-07-02T09:32:53Z</time>
      </trkpt>
      <trkpt lat="45.03855" lon="5.51369">
        <ele>1304</ele>
        <time>2021-07-02T09:32:57Z</time>
      </trkpt>
      <trkpt lat="45.03862" lon="5.51368">
        <ele>1303</ele>
        <time>2021-07-02T09:33:05Z</time>
      </trkpt>
      <trkpt lat="45.03872" lon="5.51377">
        <ele>1303</ele>
        <time>2021-07-02T09:33:17Z</time>
      </trkpt>
      <trkpt lat="45.03878" lon="5.51381">
        <ele>1303</ele>
        <time>2021-07-02T09:33:24Z</time>
      </trkpt>
      <trkpt lat="45.03883" lon="5.51379">
        <ele>1302</ele>
        <time>2021-07-02T09:33:28Z</time>
      </trkpt>
      <trkpt lat="45.03887" lon="5.51376">
        <ele>1302</ele>
        <time>2021-07-02T09:33:31Z</time>
      </trkpt>
      <trkpt lat="45.03891" lon="5.51371">
        <ele>1302</ele>
        <time>2021-07-02T09:33:34Z</time>
      </trkpt>
      <trkpt lat="45.03893" lon="5.51357">
        <ele>1302</ele>
        <time>2021-07-02T09:33:42Z</time>
      </trkpt>
      <trkpt lat="45.03892" lon="5.5135">
        <ele>1301</ele>
        <time>2021-07-02T09:33:46Z</time>
      </trkpt>
      <trkpt lat="45.03891" lon="5.51338">
        <ele>1301</ele>
        <time>2021-07-02T09:33:55Z</time>
      </trkpt>
      <trkpt lat="45.03894" lon="5.5133">
        <ele>1301</ele>
        <time>2021-07-02T09:34:02Z</time>
      </trkpt>
      <trkpt lat="45.03894" lon="5.51324">
        <ele>1301</ele>
        <time>2021-07-02T09:34:06Z</time>
      </trkpt>
      <trkpt lat="45.03896" lon="5.51318">
        <ele>1301</ele>
        <time>2021-07-02T09:34:11Z</time>
      </trkpt>
      <trkpt lat="45.03897" lon="5.51303">
        <ele>1301</ele>
        <time>2021-07-02T09:34:19Z</time>
      </trkpt>
      <trkpt lat="45.03902" lon="5.51297">
        <ele>1301</ele>
        <time>2021-07-02T09:34:27Z</time>
      </trkpt>
      <trkpt lat="45.03908" lon="5.51285">
        <ele>1302</ele>
        <time>2021-07-02T09:34:35Z</time>
      </trkpt>
      <trkpt lat="45.03915" lon="5.51275">
        <ele>1303</ele>
        <time>2021-07-02T09:34:44Z</time>
      </trkpt>
      <trkpt lat="45.03918" lon="5.51267">
        <ele>1304</ele>
        <time>2021-07-02T09:34:51Z</time>
      </trkpt>
      <trkpt lat="45.03922" lon="5.51261">
        <ele>1304</ele>
        <time>2021-07-02T09:34:58Z</time>
      </trkpt>
      <trkpt lat="45.03927" lon="5.51246">
        <ele>1306</ele>
        <time>2021-07-02T09:35:09Z</time>
      </trkpt>
      <trkpt lat="45.03934" lon="5.51241">
        <ele>1307</ele>
        <time>2021-07-02T09:35:17Z</time>
      </trkpt>
      <trkpt lat="45.03937" lon="5.51238">
        <ele>1307</ele>
        <time>2021-07-02T09:35:21Z</time>
      </trkpt>
      <trkpt lat="45.0394" lon="5.51232">
        <ele>1307</ele>
        <time>2021-07-02T09:35:28Z</time>
      </trkpt>
      <trkpt lat="45.03949" lon="5.51218">
        <ele>1307</ele>
        <time>2021-07-02T09:35:42Z</time>
      </trkpt>
      <trkpt lat="45.03957" lon="5.5121">
        <ele>1306</ele>
        <time>2021-07-02T09:35:49Z</time>
      </trkpt>
      <trkpt lat="45.03961" lon="5.51204">
        <ele>1306</ele>
        <time>2021-07-02T09:35:53Z</time>
      </trkpt>
      <trkpt lat="45.03963" lon="5.51199">
        <ele>1306</ele>
        <time>2021-07-02T09:35:57Z</time>
      </trkpt>
      <trkpt lat="45.03975" lon="5.51183">
        <ele>1305</ele>
        <time>2021-07-02T09:36:13Z</time>
      </trkpt>
      <trkpt lat="45.03986" lon="5.51176">
        <ele>1303</ele>
        <time>2021-07-02T09:36:26Z</time>
      </trkpt>
      <trkpt lat="45.03989" lon="5.51171">
        <ele>1303</ele>
        <time>2021-07-02T09:36:30Z</time>
      </trkpt>
      <trkpt lat="45.03994" lon="5.51171">
        <ele>1303</ele>
        <time>2021-07-02T09:36:34Z</time>
      </trkpt>
      <trkpt lat="45.03999" lon="5.51172">
        <ele>1303</ele>
        <time>2021-07-02T09:36:37Z</time>
      </trkpt>
      <trkpt lat="45.04011" lon="5.51163">
        <ele>1301</ele>
        <time>2021-07-02T09:36:50Z</time>
      </trkpt>
      <trkpt lat="45.04024" lon="5.51158">
        <ele>1301</ele>
        <time>2021-07-02T09:37:03Z</time>
      </trkpt>
      <trkpt lat="45.04041" lon="5.51148">
        <ele>1299</ele>
        <time>2021-07-02T09:37:18Z</time>
      </trkpt>
      <trkpt lat="45.04051" lon="5.51135">
        <ele>1298</ele>
        <time>2021-07-02T09:37:32Z</time>
      </trkpt>
      <trkpt lat="45.04057" lon="5.51125">
        <ele>1297</ele>
        <time>2021-07-02T09:37:43Z</time>
      </trkpt>
      <trkpt lat="45.04059" lon="5.51119">
        <ele>1296</ele>
        <time>2021-07-02T09:37:50Z</time>
      </trkpt>
      <trkpt lat="45.04061" lon="5.51105">
        <ele>1293</ele>
        <time>2021-07-02T09:38:03Z</time>
      </trkpt>
      <trkpt lat="45.04059" lon="5.51097">
        <ele>1291</ele>
        <time>2021-07-02T09:38:13Z</time>
      </trkpt>
      <trkpt lat="45.04054" lon="5.51094">
        <ele>1290</ele>
        <time>2021-07-02T09:38:18Z</time>
      </trkpt>
      <trkpt lat="45.04024" lon="5.51086">
        <ele>1284</ele>
        <time>2021-07-02T09:38:50Z</time>
      </trkpt>
      <trkpt lat="45.03997" lon="5.51081">
        <ele>1281</ele>
        <time>2021-07-02T09:39:14Z</time>
      </trkpt>
      <trkpt lat="45.03993" lon="5.51072">
        <ele>1279</ele>
        <time>2021-07-02T09:39:23Z</time>
      </trkpt>
      <trkpt lat="45.03971" lon="5.51057">
        <ele>1273</ele>
        <time>2021-07-02T09:39:52Z</time>
      </trkpt>
      <trkpt lat="45.03969" lon="5.51042">
        <ele>1270</ele>
        <time>2021-07-02T09:40:07Z</time>
      </trkpt>
      <trkpt lat="45.03971" lon="5.51036">
        <ele>1269</ele>
        <time>2021-07-02T09:40:11Z</time>
      </trkpt>
      <trkpt lat="45.03975" lon="5.51024">
        <ele>1267</ele>
        <time>2021-07-02T09:40:22Z</time>
      </trkpt>
      <trkpt lat="45.03974" lon="5.51017">
        <ele>1266</ele>
        <time>2021-07-02T09:40:25Z</time>
      </trkpt>
      <trkpt lat="45.03975" lon="5.51011">
        <ele>1266</ele>
        <time>2021-07-02T09:40:29Z</time>
      </trkpt>
      <trkpt lat="45.03977" lon="5.51">
        <ele>1264</ele>
        <time>2021-07-02T09:40:38Z</time>
      </trkpt>
      <trkpt lat="45.03976" lon="5.50998">
        <ele>1262</ele>
        <time>2021-07-02T09:42:27Z</time>
      </trkpt>
      <trkpt lat="45.0397" lon="5.51001">
        <ele>1263</ele>
        <time>2021-07-02T09:42:47Z</time>
      </trkpt>
      <trkpt lat="45.03964" lon="5.50994">
        <ele>1263</ele>
        <time>2021-07-02T09:43:02Z</time>
      </trkpt>
      <trkpt lat="45.03957" lon="5.50993">
        <ele>1261</ele>
        <time>2021-07-02T09:43:13Z</time>
      </trkpt>
      <trkpt lat="45.03952" lon="5.5099">
        <ele>1261</ele>
        <time>2021-07-02T09:43:18Z</time>
      </trkpt>
      <trkpt lat="45.03947" lon="5.50992">
        <ele>1261</ele>
        <time>2021-07-02T09:43:23Z</time>
      </trkpt>
      <trkpt lat="45.03941" lon="5.5099">
        <ele>1260</ele>
        <time>2021-07-02T09:43:31Z</time>
      </trkpt>
      <trkpt lat="45.03936" lon="5.50989">
        <ele>1261</ele>
        <time>2021-07-02T09:43:38Z</time>
      </trkpt>
      <trkpt lat="45.03923" lon="5.50983">
        <ele>1260</ele>
        <time>2021-07-02T09:43:53Z</time>
      </trkpt>
      <trkpt lat="45.03919" lon="5.50985">
        <ele>1259</ele>
        <time>2021-07-02T09:44:00Z</time>
      </trkpt>
      <trkpt lat="45.0391" lon="5.50986">
        <ele>1258</ele>
        <time>2021-07-02T09:44:10Z</time>
      </trkpt>
      <trkpt lat="45.0389" lon="5.5098">
        <ele>1256</ele>
        <time>2021-07-02T09:44:31Z</time>
      </trkpt>
      <trkpt lat="45.03886" lon="5.50973">
        <ele>1256</ele>
        <time>2021-07-02T09:44:41Z</time>
      </trkpt>
      <trkpt lat="45.03887" lon="5.50953">
        <ele>1253</ele>
        <time>2021-07-02T09:45:01Z</time>
      </trkpt>
      <trkpt lat="45.03887" lon="5.50934">
        <ele>1249</ele>
        <time>2021-07-02T09:45:20Z</time>
      </trkpt>
      <trkpt lat="45.03896" lon="5.50909">
        <ele>1246</ele>
        <time>2021-07-02T09:45:41Z</time>
      </trkpt>
      <trkpt lat="45.03894" lon="5.50903">
        <ele>1245</ele>
        <time>2021-07-02T09:45:49Z</time>
      </trkpt>
      <trkpt lat="45.03864" lon="5.50891">
        <ele>1243</ele>
        <time>2021-07-02T09:46:23Z</time>
      </trkpt>
      <trkpt lat="45.03843" lon="5.50889">
        <ele>1242</ele>
        <time>2021-07-02T09:46:42Z</time>
      </trkpt>
      <trkpt lat="45.03822" lon="5.50897">
        <ele>1241</ele>
        <time>2021-07-02T09:47:04Z</time>
      </trkpt>
      <trkpt lat="45.03818" lon="5.509">
        <ele>1241</ele>
        <time>2021-07-02T09:47:08Z</time>
      </trkpt>
      <trkpt lat="45.03813" lon="5.50901">
        <ele>1240</ele>
        <time>2021-07-02T09:47:14Z</time>
      </trkpt>
      <trkpt lat="45.03808" lon="5.50905">
        <ele>1240</ele>
        <time>2021-07-02T09:47:18Z</time>
      </trkpt>
      <trkpt lat="45.03803" lon="5.50905">
        <ele>1240</ele>
        <time>2021-07-02T09:47:22Z</time>
      </trkpt>
      <trkpt lat="45.03793" lon="5.50904">
        <ele>1238</ele>
        <time>2021-07-02T09:47:32Z</time>
      </trkpt>
      <trkpt lat="45.03783" lon="5.50905">
        <ele>1237</ele>
        <time>2021-07-02T09:47:40Z</time>
      </trkpt>
      <trkpt lat="45.03768" lon="5.50898">
        <ele>1236</ele>
        <time>2021-07-02T09:47:53Z</time>
      </trkpt>
      <trkpt lat="45.0376" lon="5.50892">
        <ele>1235</ele>
        <time>2021-07-02T09:48:02Z</time>
      </trkpt>
      <trkpt lat="45.0374" lon="5.50854">
        <ele>1236</ele>
        <time>2021-07-02T09:48:35Z</time>
      </trkpt>
      <trkpt lat="45.03733" lon="5.50843">
        <ele>1236</ele>
        <time>2021-07-02T09:48:42Z</time>
      </trkpt>
      <trkpt lat="45.03729" lon="5.5084">
        <ele>1236</ele>
        <time>2021-07-02T09:48:46Z</time>
      </trkpt>
      <trkpt lat="45.03705" lon="5.5081">
        <ele>1236</ele>
        <time>2021-07-02T09:49:17Z</time>
      </trkpt>
      <trkpt lat="45.03701" lon="5.50806">
        <ele>1236</ele>
        <time>2021-07-02T09:49:24Z</time>
      </trkpt>
      <trkpt lat="45.03691" lon="5.50797">
        <ele>1236</ele>
        <time>2021-07-02T09:49:38Z</time>
      </trkpt>
      <trkpt lat="45.03686" lon="5.50799">
        <ele>1236</ele>
        <time>2021-07-02T09:49:51Z</time>
      </trkpt>
      <trkpt lat="45.03686" lon="5.50798">
        <ele>1236</ele>
        <time>2021-07-02T09:50:51Z</time>
      </trkpt>
      <trkpt lat="45.03688" lon="5.5079">
        <ele>1236</ele>
        <time>2021-07-02T09:51:06Z</time>
      </trkpt>
      <trkpt lat="45.03683" lon="5.50784">
        <ele>1236</ele>
        <time>2021-07-02T09:51:28Z</time>
      </trkpt>
      <trkpt lat="45.0368" lon="5.50777">
        <ele>1236</ele>
        <time>2021-07-02T09:51:40Z</time>
      </trkpt>
      <trkpt lat="45.03684" lon="5.50756">
        <ele>1236</ele>
        <time>2021-07-02T09:52:00Z</time>
      </trkpt>
      <trkpt lat="45.03681" lon="5.50741">
        <ele>1237</ele>
        <time>2021-07-02T09:52:15Z</time>
      </trkpt>
      <trkpt lat="45.03681" lon="5.50713">
        <ele>1237</ele>
        <time>2021-07-02T09:52:33Z</time>
      </trkpt>
      <trkpt lat="45.03683" lon="5.50707">
        <ele>1237</ele>
        <time>2021-07-02T09:52:37Z</time>
      </trkpt>
      <trkpt lat="45.03682" lon="5.50685">
        <ele>1239</ele>
        <time>2021-07-02T09:52:54Z</time>
      </trkpt>
      <trkpt lat="45.03683" lon="5.50684">
        <ele>1240</ele>
        <time>2021-07-02T09:53:53Z</time>
      </trkpt>
      <trkpt lat="45.03687" lon="5.50675">
        <ele>1241</ele>
        <time>2021-07-02T09:54:03Z</time>
      </trkpt>
      <trkpt lat="45.0369" lon="5.5067">
        <ele>1241</ele>
        <time>2021-07-02T09:54:07Z</time>
      </trkpt>
      <trkpt lat="45.03696" lon="5.50665">
        <ele>1241</ele>
        <time>2021-07-02T09:54:13Z</time>
      </trkpt>
      <trkpt lat="45.03713" lon="5.50636">
        <ele>1243</ele>
        <time>2021-07-02T09:54:37Z</time>
      </trkpt>
      <trkpt lat="45.03715" lon="5.50631">
        <ele>1243</ele>
        <time>2021-07-02T09:54:41Z</time>
      </trkpt>
      <trkpt lat="45.03719" lon="5.50615">
        <ele>1244</ele>
        <time>2021-07-02T09:54:54Z</time>
      </trkpt>
      <trkpt lat="45.03719" lon="5.50608">
        <ele>1245</ele>
        <time>2021-07-02T09:54:59Z</time>
      </trkpt>
      <trkpt lat="45.03719" lon="5.50582">
        <ele>1245</ele>
        <time>2021-07-02T09:55:20Z</time>
      </trkpt>
      <trkpt lat="45.0372" lon="5.50574">
        <ele>1245</ele>
        <time>2021-07-02T09:55:25Z</time>
      </trkpt>
      <trkpt lat="45.03721" lon="5.50568">
        <ele>1245</ele>
        <time>2021-07-02T09:55:29Z</time>
      </trkpt>
      <trkpt lat="45.03727" lon="5.50558">
        <ele>1245</ele>
        <time>2021-07-02T09:55:39Z</time>
      </trkpt>
      <trkpt lat="45.03733" lon="5.50544">
        <ele>1245</ele>
        <time>2021-07-02T09:55:51Z</time>
      </trkpt>
      <trkpt lat="45.03736" lon="5.50527">
        <ele>1246</ele>
        <time>2021-07-02T09:56:03Z</time>
      </trkpt>
      <trkpt lat="45.03743" lon="5.50514">
        <ele>1247</ele>
        <time>2021-07-02T09:56:18Z</time>
      </trkpt>
      <trkpt lat="45.03747" lon="5.50502">
        <ele>1247</ele>
        <time>2021-07-02T09:56:28Z</time>
      </trkpt>
      <trkpt lat="45.0375" lon="5.50496">
        <ele>1247</ele>
        <time>2021-07-02T09:56:32Z</time>
      </trkpt>
      <trkpt lat="45.03766" lon="5.50481">
        <ele>1246</ele>
        <time>2021-07-02T09:56:49Z</time>
      </trkpt>
      <trkpt lat="45.03768" lon="5.50474">
        <ele>1246</ele>
        <time>2021-07-02T09:56:53Z</time>
      </trkpt>
      <trkpt lat="45.03776" lon="5.50462">
        <ele>1246</ele>
        <time>2021-07-02T09:57:03Z</time>
      </trkpt>
      <trkpt lat="45.03776" lon="5.50455">
        <ele>1246</ele>
        <time>2021-07-02T09:57:08Z</time>
      </trkpt>
      <trkpt lat="45.03779" lon="5.50448">
        <ele>1247</ele>
        <time>2021-07-02T09:57:15Z</time>
      </trkpt>
      <trkpt lat="45.03794" lon="5.50437">
        <ele>1250</ele>
        <time>2021-07-02T09:57:35Z</time>
      </trkpt>
      <trkpt lat="45.038" lon="5.50428">
        <ele>1251</ele>
        <time>2021-07-02T09:57:45Z</time>
      </trkpt>
      <trkpt lat="45.03804" lon="5.50425">
        <ele>1252</ele>
        <time>2021-07-02T09:57:50Z</time>
      </trkpt>
      <trkpt lat="45.03806" lon="5.50412">
        <ele>1253</ele>
        <time>2021-07-02T09:57:59Z</time>
      </trkpt>
      <trkpt lat="45.03811" lon="5.50401">
        <ele>1254</ele>
        <time>2021-07-02T09:58:07Z</time>
      </trkpt>
      <trkpt lat="45.03816" lon="5.50378">
        <ele>1255</ele>
        <time>2021-07-02T09:58:24Z</time>
      </trkpt>
      <trkpt lat="45.0382" lon="5.50374">
        <ele>1256</ele>
        <time>2021-07-02T09:58:28Z</time>
      </trkpt>
      <trkpt lat="45.03831" lon="5.50361">
        <ele>1256</ele>
        <time>2021-07-02T09:58:43Z</time>
      </trkpt>
      <trkpt lat="45.03837" lon="5.50352">
        <ele>1257</ele>
        <time>2021-07-02T09:58:51Z</time>
      </trkpt>
      <trkpt lat="45.03841" lon="5.50345">
        <ele>1257</ele>
        <time>2021-07-02T09:58:59Z</time>
      </trkpt>
      <trkpt lat="45.03845" lon="5.5034">
        <ele>1257</ele>
        <time>2021-07-02T09:59:02Z</time>
      </trkpt>
      <trkpt lat="45.03848" lon="5.50334">
        <ele>1257</ele>
        <time>2021-07-02T09:59:07Z</time>
      </trkpt>
      <trkpt lat="45.03852" lon="5.5033">
        <ele>1257</ele>
        <time>2021-07-02T09:59:11Z</time>
      </trkpt>
      <trkpt lat="45.03852" lon="5.5032">
        <ele>1258</ele>
        <time>2021-07-02T09:59:18Z</time>
      </trkpt>
      <trkpt lat="45.03858" lon="5.50313">
        <ele>1259</ele>
        <time>2021-07-02T09:59:28Z</time>
      </trkpt>
      <trkpt lat="45.03863" lon="5.50306">
        <ele>1260</ele>
        <time>2021-07-02T09:59:34Z</time>
      </trkpt>
      <trkpt lat="45.03872" lon="5.50292">
        <ele>1261</ele>
        <time>2021-07-02T09:59:46Z</time>
      </trkpt>
      <trkpt lat="45.03888" lon="5.50275">
        <ele>1264</ele>
        <time>2021-07-02T10:00:07Z</time>
      </trkpt>
      <trkpt lat="45.03892" lon="5.50271">
        <ele>1265</ele>
        <time>2021-07-02T10:00:16Z</time>
      </trkpt>
      <trkpt lat="45.03889" lon="5.50263">
        <ele>1266</ele>
        <time>2021-07-02T10:00:26Z</time>
      </trkpt>
      <trkpt lat="45.03891" lon="5.50252">
        <ele>1266</ele>
        <time>2021-07-02T10:00:37Z</time>
      </trkpt>
      <trkpt lat="45.03885" lon="5.5025">
        <ele>1266</ele>
        <time>2021-07-02T10:00:45Z</time>
      </trkpt>
      <trkpt lat="45.03895" lon="5.50241">
        <ele>1269</ele>
        <time>2021-07-02T10:01:17Z</time>
      </trkpt>
      <trkpt lat="45.03898" lon="5.50233">
        <ele>1270</ele>
        <time>2021-07-02T10:01:27Z</time>
      </trkpt>
      <trkpt lat="45.03896" lon="5.50225">
        <ele>1270</ele>
        <time>2021-07-02T10:01:33Z</time>
      </trkpt>
      <trkpt lat="45.03894" lon="5.50216">
        <ele>1271</ele>
        <time>2021-07-02T10:01:41Z</time>
      </trkpt>
      <trkpt lat="45.03895" lon="5.50206">
        <ele>1273</ele>
        <time>2021-07-02T10:01:51Z</time>
      </trkpt>
      <trkpt lat="45.03901" lon="5.50174">
        <ele>1277</ele>
        <time>2021-07-02T10:02:22Z</time>
      </trkpt>
      <trkpt lat="45.03907" lon="5.50166">
        <ele>1278</ele>
        <time>2021-07-02T10:02:30Z</time>
      </trkpt>
      <trkpt lat="45.03909" lon="5.50158">
        <ele>1279</ele>
        <time>2021-07-02T10:02:38Z</time>
      </trkpt>
      <trkpt lat="45.03911" lon="5.50149">
        <ele>1280</ele>
        <time>2021-07-02T10:02:50Z</time>
      </trkpt>
      <trkpt lat="45.03922" lon="5.50126">
        <ele>1285</ele>
        <time>2021-07-02T10:03:25Z</time>
      </trkpt>
      <trkpt lat="45.0393" lon="5.50116">
        <ele>1287</ele>
        <time>2021-07-02T10:03:40Z</time>
      </trkpt>
      <trkpt lat="45.03942" lon="5.50109">
        <ele>1288</ele>
        <time>2021-07-02T10:03:55Z</time>
      </trkpt>
      <trkpt lat="45.03947" lon="5.50104">
        <ele>1289</ele>
        <time>2021-07-02T10:04:02Z</time>
      </trkpt>
      <trkpt lat="45.03952" lon="5.50102">
        <ele>1289</ele>
        <time>2021-07-02T10:04:06Z</time>
      </trkpt>
      <trkpt lat="45.03955" lon="5.50097">
        <ele>1289</ele>
        <time>2021-07-02T10:04:11Z</time>
      </trkpt>
      <trkpt lat="45.03963" lon="5.50087">
        <ele>1289</ele>
        <time>2021-07-02T10:04:24Z</time>
      </trkpt>
      <trkpt lat="45.03977" lon="5.50087">
        <ele>1288</ele>
        <time>2021-07-02T10:04:37Z</time>
      </trkpt>
      <trkpt lat="45.03982" lon="5.50084">
        <ele>1288</ele>
        <time>2021-07-02T10:04:41Z</time>
      </trkpt>
      <trkpt lat="45.03997" lon="5.50081">
        <ele>1287</ele>
        <time>2021-07-02T10:04:56Z</time>
      </trkpt>
      <trkpt lat="45.04012" lon="5.50083">
        <ele>1286</ele>
        <time>2021-07-02T10:05:10Z</time>
      </trkpt>
      <trkpt lat="45.04017" lon="5.5008">
        <ele>1285</ele>
        <time>2021-07-02T10:05:15Z</time>
      </trkpt>
      <trkpt lat="45.04023" lon="5.50078">
        <ele>1285</ele>
        <time>2021-07-02T10:05:23Z</time>
      </trkpt>
      <trkpt lat="45.0403" lon="5.50083">
        <ele>1284</ele>
        <time>2021-07-02T10:05:33Z</time>
      </trkpt>
      <trkpt lat="45.04036" lon="5.50085">
        <ele>1284</ele>
        <time>2021-07-02T10:05:37Z</time>
      </trkpt>
      <trkpt lat="45.04041" lon="5.50086">
        <ele>1283</ele>
        <time>2021-07-02T10:05:44Z</time>
      </trkpt>
      <trkpt lat="45.04052" lon="5.50083">
        <ele>1282</ele>
        <time>2021-07-02T10:05:53Z</time>
      </trkpt>
      <trkpt lat="45.04071" lon="5.50081">
        <ele>1282</ele>
        <time>2021-07-02T10:06:10Z</time>
      </trkpt>
      <trkpt lat="45.0409" lon="5.50088">
        <ele>1280</ele>
        <time>2021-07-02T10:06:32Z</time>
      </trkpt>
      <trkpt lat="45.04097" lon="5.50087">
        <ele>1279</ele>
        <time>2021-07-02T10:06:38Z</time>
      </trkpt>
      <trkpt lat="45.04101" lon="5.50084">
        <ele>1279</ele>
        <time>2021-07-02T10:06:43Z</time>
      </trkpt>
      <trkpt lat="45.04106" lon="5.5008">
        <ele>1279</ele>
        <time>2021-07-02T10:06:47Z</time>
      </trkpt>
      <trkpt lat="45.04125" lon="5.50075">
        <ele>1277</ele>
        <time>2021-07-02T10:07:10Z</time>
      </trkpt>
      <trkpt lat="45.04135" lon="5.50071">
        <ele>1277</ele>
        <time>2021-07-02T10:07:19Z</time>
      </trkpt>
      <trkpt lat="45.04141" lon="5.50071">
        <ele>1277</ele>
        <time>2021-07-02T10:07:24Z</time>
      </trkpt>
      <trkpt lat="45.04146" lon="5.50075">
        <ele>1277</ele>
        <time>2021-07-02T10:07:31Z</time>
      </trkpt>
      <trkpt lat="45.04151" lon="5.50071">
        <ele>1276</ele>
        <time>2021-07-02T10:07:37Z</time>
      </trkpt>
      <trkpt lat="45.04156" lon="5.50073">
        <ele>1276</ele>
        <time>2021-07-02T10:07:42Z</time>
      </trkpt>
      <trkpt lat="45.04168" lon="5.50071">
        <ele>1275</ele>
        <time>2021-07-02T10:07:54Z</time>
      </trkpt>
      <trkpt lat="45.04171" lon="5.50067">
        <ele>1275</ele>
        <time>2021-07-02T10:07:58Z</time>
      </trkpt>
      <trkpt lat="45.04176" lon="5.50069">
        <ele>1275</ele>
        <time>2021-07-02T10:08:28Z</time>
      </trkpt>
      <trkpt lat="45.0418" lon="5.50068">
        <ele>1275</ele>
        <time>2021-07-02T10:08:32Z</time>
      </trkpt>
      <trkpt lat="45.04185" lon="5.5007">
        <ele>1274</ele>
        <time>2021-07-02T10:08:39Z</time>
      </trkpt>
      <trkpt lat="45.04189" lon="5.50068">
        <ele>1274</ele>
        <time>2021-07-02T10:08:42Z</time>
      </trkpt>
      <trkpt lat="45.04202" lon="5.50072">
        <ele>1273</ele>
        <time>2021-07-02T10:08:51Z</time>
      </trkpt>
      <trkpt lat="45.04206" lon="5.50068">
        <ele>1273</ele>
        <time>2021-07-02T10:08:56Z</time>
      </trkpt>
      <trkpt lat="45.04211" lon="5.50068">
        <ele>1273</ele>
        <time>2021-07-02T10:09:02Z</time>
      </trkpt>
      <trkpt lat="45.04235" lon="5.50058">
        <ele>1276</ele>
        <time>2021-07-02T10:09:24Z</time>
      </trkpt>
      <trkpt lat="45.04242" lon="5.5005">
        <ele>1276</ele>
        <time>2021-07-02T10:09:33Z</time>
      </trkpt>
      <trkpt lat="45.04256" lon="5.50048">
        <ele>1277</ele>
        <time>2021-07-02T10:09:47Z</time>
      </trkpt>
      <trkpt lat="45.0426" lon="5.50045">
        <ele>1277</ele>
        <time>2021-07-02T10:09:50Z</time>
      </trkpt>
      <trkpt lat="45.04265" lon="5.50045">
        <ele>1277</ele>
        <time>2021-07-02T10:09:55Z</time>
      </trkpt>
      <trkpt lat="45.0427" lon="5.50037">
        <ele>1276</ele>
        <time>2021-07-02T10:10:04Z</time>
      </trkpt>
      <trkpt lat="45.04283" lon="5.50024">
        <ele>1276</ele>
        <time>2021-07-02T10:10:20Z</time>
      </trkpt>
      <trkpt lat="45.04286" lon="5.50019">
        <ele>1275</ele>
        <time>2021-07-02T10:10:25Z</time>
      </trkpt>
      <trkpt lat="45.04291" lon="5.50013">
        <ele>1274</ele>
        <time>2021-07-02T10:10:32Z</time>
      </trkpt>
      <trkpt lat="45.04295" lon="5.50006">
        <ele>1275</ele>
        <time>2021-07-02T10:10:36Z</time>
      </trkpt>
      <trkpt lat="45.04295" lon="5.49999">
        <ele>1274</ele>
        <time>2021-07-02T10:10:40Z</time>
      </trkpt>
      <trkpt lat="45.04299" lon="5.49994">
        <ele>1275</ele>
        <time>2021-07-02T10:10:45Z</time>
      </trkpt>
      <trkpt lat="45.04299" lon="5.49984">
        <ele>1275</ele>
        <time>2021-07-02T10:10:53Z</time>
      </trkpt>
      <trkpt lat="45.04294" lon="5.4998">
        <ele>1275</ele>
        <time>2021-07-02T10:10:58Z</time>
      </trkpt>
      <trkpt lat="45.04278" lon="5.49961">
        <ele>1278</ele>
        <time>2021-07-02T10:11:27Z</time>
      </trkpt>
      <trkpt lat="45.0427" lon="5.49929">
        <ele>1281</ele>
        <time>2021-07-02T10:11:47Z</time>
      </trkpt>
      <trkpt lat="45.04271" lon="5.49917">
        <ele>1281</ele>
        <time>2021-07-02T10:11:59Z</time>
      </trkpt>
      <trkpt lat="45.04268" lon="5.49913">
        <ele>1283</ele>
        <time>2021-07-02T10:14:08Z</time>
      </trkpt>
      <trkpt lat="45.04267" lon="5.49907">
        <ele>1283</ele>
        <time>2021-07-02T10:14:13Z</time>
      </trkpt>
      <trkpt lat="45.04263" lon="5.49901">
        <ele>1283</ele>
        <time>2021-07-02T10:14:20Z</time>
      </trkpt>
      <trkpt lat="45.04258" lon="5.49897">
        <ele>1283</ele>
        <time>2021-07-02T10:14:29Z</time>
      </trkpt>
      <trkpt lat="45.04257" lon="5.49891">
        <ele>1282</ele>
        <time>2021-07-02T10:14:45Z</time>
      </trkpt>
      <trkpt lat="45.04262" lon="5.49887">
        <ele>1282</ele>
        <time>2021-07-02T10:14:51Z</time>
      </trkpt>
      <trkpt lat="45.04275" lon="5.49872">
        <ele>1284</ele>
        <time>2021-07-02T10:15:07Z</time>
      </trkpt>
      <trkpt lat="45.04278" lon="5.49866">
        <ele>1284</ele>
        <time>2021-07-02T10:15:12Z</time>
      </trkpt>
      <trkpt lat="45.04281" lon="5.49857">
        <ele>1285</ele>
        <time>2021-07-02T10:15:19Z</time>
      </trkpt>
      <trkpt lat="45.04283" lon="5.49852">
        <ele>1285</ele>
        <time>2021-07-02T10:15:23Z</time>
      </trkpt>
      <trkpt lat="45.04282" lon="5.4984">
        <ele>1287</ele>
        <time>2021-07-02T10:15:33Z</time>
      </trkpt>
      <trkpt lat="45.04279" lon="5.49834">
        <ele>1287</ele>
        <time>2021-07-02T10:15:37Z</time>
      </trkpt>
      <trkpt lat="45.04276" lon="5.49818">
        <ele>1289</ele>
        <time>2021-07-02T10:15:59Z</time>
      </trkpt>
      <trkpt lat="45.04268" lon="5.49802">
        <ele>1291</ele>
        <time>2021-07-02T10:16:15Z</time>
      </trkpt>
      <trkpt lat="45.04266" lon="5.49794">
        <ele>1291</ele>
        <time>2021-07-02T10:16:20Z</time>
      </trkpt>
      <trkpt lat="45.04263" lon="5.49788">
        <ele>1292</ele>
        <time>2021-07-02T10:16:24Z</time>
      </trkpt>
      <trkpt lat="45.0426" lon="5.49767">
        <ele>1293</ele>
        <time>2021-07-02T10:16:36Z</time>
      </trkpt>
      <trkpt lat="45.04256" lon="5.49755">
        <ele>1294</ele>
        <time>2021-07-02T10:16:47Z</time>
      </trkpt>
      <trkpt lat="45.04253" lon="5.49751">
        <ele>1294</ele>
        <time>2021-07-02T10:16:51Z</time>
      </trkpt>
      <trkpt lat="45.0425" lon="5.49746">
        <ele>1295</ele>
        <time>2021-07-02T10:16:55Z</time>
      </trkpt>
      <trkpt lat="45.04246" lon="5.49743">
        <ele>1295</ele>
        <time>2021-07-02T10:16:58Z</time>
      </trkpt>
      <trkpt lat="45.04241" lon="5.49743">
        <ele>1296</ele>
        <time>2021-07-02T10:17:02Z</time>
      </trkpt>
      <trkpt lat="45.04231" lon="5.4974">
        <ele>1297</ele>
        <time>2021-07-02T10:17:13Z</time>
      </trkpt>
      <trkpt lat="45.04222" lon="5.49732">
        <ele>1299</ele>
        <time>2021-07-02T10:17:22Z</time>
      </trkpt>
      <trkpt lat="45.04218" lon="5.4973">
        <ele>1299</ele>
        <time>2021-07-02T10:17:26Z</time>
      </trkpt>
      <trkpt lat="45.04206" lon="5.49727">
        <ele>1301</ele>
        <time>2021-07-02T10:17:39Z</time>
      </trkpt>
      <trkpt lat="45.04182" lon="5.49712">
        <ele>1305</ele>
        <time>2021-07-02T10:18:09Z</time>
      </trkpt>
      <trkpt lat="45.04173" lon="5.49709">
        <ele>1306</ele>
        <time>2021-07-02T10:18:19Z</time>
      </trkpt>
      <trkpt lat="45.04169" lon="5.49705">
        <ele>1306</ele>
        <time>2021-07-02T10:18:23Z</time>
      </trkpt>
      <trkpt lat="45.04139" lon="5.49692">
        <ele>1310</ele>
        <time>2021-07-02T10:18:56Z</time>
      </trkpt>
      <trkpt lat="45.04131" lon="5.4969">
        <ele>1311</ele>
        <time>2021-07-02T10:19:06Z</time>
      </trkpt>
      <trkpt lat="45.04121" lon="5.49686">
        <ele>1312</ele>
        <time>2021-07-02T10:19:17Z</time>
      </trkpt>
      <trkpt lat="45.04116" lon="5.49686">
        <ele>1313</ele>
        <time>2021-07-02T10:19:22Z</time>
      </trkpt>
      <trkpt lat="45.04088" lon="5.49678">
        <ele>1317</ele>
        <time>2021-07-02T10:19:54Z</time>
      </trkpt>
      <trkpt lat="45.04062" lon="5.49672">
        <ele>1320</ele>
        <time>2021-07-02T10:20:24Z</time>
      </trkpt>
      <trkpt lat="45.04052" lon="5.49667">
        <ele>1321</ele>
        <time>2021-07-02T10:20:36Z</time>
      </trkpt>
      <trkpt lat="45.04048" lon="5.49664">
        <ele>1321</ele>
        <time>2021-07-02T10:20:41Z</time>
      </trkpt>
      <trkpt lat="45.04035" lon="5.49657">
        <ele>1323</ele>
        <time>2021-07-02T10:20:57Z</time>
      </trkpt>
      <trkpt lat="45.04019" lon="5.49645">
        <ele>1325</ele>
        <time>2021-07-02T10:21:17Z</time>
      </trkpt>
      <trkpt lat="45.03985" lon="5.49636">
        <ele>1329</ele>
        <time>2021-07-02T10:21:53Z</time>
      </trkpt>
      <trkpt lat="45.03952" lon="5.49625">
        <ele>1333</ele>
        <time>2021-07-02T10:22:27Z</time>
      </trkpt>
      <trkpt lat="45.03939" lon="5.4962">
        <ele>1335</ele>
        <time>2021-07-02T10:22:41Z</time>
      </trkpt>
      <trkpt lat="45.03934" lon="5.49622">
        <ele>1335</ele>
        <time>2021-07-02T10:22:46Z</time>
      </trkpt>
      <trkpt lat="45.0393" lon="5.49622">
        <ele>1336</ele>
        <time>2021-07-02T10:22:51Z</time>
      </trkpt>
      <trkpt lat="45.03916" lon="5.49611">
        <ele>1338</ele>
        <time>2021-07-02T10:23:11Z</time>
      </trkpt>
      <trkpt lat="45.03902" lon="5.49586">
        <ele>1341</ele>
        <time>2021-07-02T10:23:32Z</time>
      </trkpt>
      <trkpt lat="45.03892" lon="5.4958">
        <ele>1341</ele>
        <time>2021-07-02T10:23:40Z</time>
      </trkpt>
      <trkpt lat="45.03875" lon="5.49567">
        <ele>1343</ele>
        <time>2021-07-02T10:23:57Z</time>
      </trkpt>
      <trkpt lat="45.03841" lon="5.49542">
        <ele>1345</ele>
        <time>2021-07-02T10:25:05Z</time>
      </trkpt>
      <trkpt lat="45.03825" lon="5.49522">
        <ele>1347</ele>
        <time>2021-07-02T10:25:23Z</time>
      </trkpt>
      <trkpt lat="45.03817" lon="5.49458">
        <ele>1347</ele>
        <time>2021-07-02T10:25:27Z</time>
      </trkpt>
      <trkpt lat="45.03806" lon="5.49446">
        <ele>1348</ele>
        <time>2021-07-02T10:25:34Z</time>
      </trkpt>
      <trkpt lat="45.03791" lon="5.4944">
        <ele>1351</ele>
        <time>2021-07-02T10:25:46Z</time>
      </trkpt>
      <trkpt lat="45.03762" lon="5.49451">
        <ele>1352</ele>
        <time>2021-07-02T10:25:53Z</time>
      </trkpt>
      <trkpt lat="45.03752" lon="5.49451">
        <ele>1357</ele>
        <time>2021-07-02T10:26:21Z</time>
      </trkpt>
      <trkpt lat="45.03726" lon="5.49428">
        <ele>1360</ele>
        <time>2021-07-02T10:26:46Z</time>
      </trkpt>
      <trkpt lat="45.03713" lon="5.49415">
        <ele>1361</ele>
        <time>2021-07-02T10:26:56Z</time>
      </trkpt>
      <trkpt lat="45.03678" lon="5.49397">
        <ele>1362</ele>
        <time>2021-07-02T10:27:06Z</time>
      </trkpt>
      <trkpt lat="45.03663" lon="5.49369">
        <ele>1364</ele>
        <time>2021-07-02T10:27:17Z</time>
      </trkpt>
      <trkpt lat="45.03807" lon="5.49379">
        <ele>1365</ele>
        <time>2021-07-02T10:27:27Z</time>
      </trkpt>
      <trkpt lat="45.03877" lon="5.49406">
        <ele>1367</ele>
        <time>2021-07-02T10:27:43Z</time>
      </trkpt>
      <trkpt lat="45.03921" lon="5.494">
        <ele>1369</ele>
        <time>2021-07-02T10:27:54Z</time>
      </trkpt>
      <trkpt lat="45.03997" lon="5.49376">
        <ele>1370</ele>
        <time>2021-07-02T10:28:13Z</time>
      </trkpt>
      <trkpt lat="45.04021" lon="5.49368">
        <ele>1370</ele>
        <time>2021-07-02T10:28:18Z</time>
      </trkpt>
      <trkpt lat="45.04039" lon="5.49365">
        <ele>1372</ele>
        <time>2021-07-02T10:28:36Z</time>
      </trkpt>
      <trkpt lat="45.04075" lon="5.49358">
        <ele>1396</ele>
        <time>2021-07-02T10:57:21Z</time>
      </trkpt>
      <trkpt lat="45.04085" lon="5.49357">
        <ele>1398</ele>
        <time>2021-07-02T10:57:41Z</time>
      </trkpt>
      <trkpt lat="45.04106" lon="5.49351">
        <ele>1404</ele>
        <time>2021-07-02T10:58:22Z</time>
      </trkpt>
      <trkpt lat="45.04119" lon="5.4935">
        <ele>1405</ele>
        <time>2021-07-02T10:58:38Z</time>
      </trkpt>
      <trkpt lat="45.04121" lon="5.49341">
        <ele>1406</ele>
        <time>2021-07-02T10:58:49Z</time>
      </trkpt>
      <trkpt lat="45.04155" lon="5.49347">
        <ele>1409</ele>
        <time>2021-07-02T10:59:28Z</time>
      </trkpt>
      <trkpt lat="45.04161" lon="5.49346">
        <ele>1409</ele>
        <time>2021-07-02T10:59:35Z</time>
      </trkpt>
      <trkpt lat="45.04183" lon="5.49339">
        <ele>1413</ele>
        <time>2021-07-02T11:00:08Z</time>
      </trkpt>
      <trkpt lat="45.04187" lon="5.4934">
        <ele>1414</ele>
        <time>2021-07-02T11:00:12Z</time>
      </trkpt>
      <trkpt lat="45.04199" lon="5.49337">
        <ele>1415</ele>
        <time>2021-07-02T11:00:26Z</time>
      </trkpt>
      <trkpt lat="45.04203" lon="5.49334">
        <ele>1416</ele>
        <time>2021-07-02T11:00:30Z</time>
      </trkpt>
      <trkpt lat="45.04211" lon="5.49336">
        <ele>1416</ele>
        <time>2021-07-02T11:00:38Z</time>
      </trkpt>
      <trkpt lat="45.04239" lon="5.49328">
        <ele>1418</ele>
        <time>2021-07-02T11:01:09Z</time>
      </trkpt>
      <trkpt lat="45.04244" lon="5.49329">
        <ele>1418</ele>
        <time>2021-07-02T11:01:14Z</time>
      </trkpt>
      <trkpt lat="45.04248" lon="5.4933">
        <ele>1417</ele>
        <time>2021-07-02T11:01:18Z</time>
      </trkpt>
      <trkpt lat="45.04256" lon="5.4933">
        <ele>1417</ele>
        <time>2021-07-02T11:01:27Z</time>
      </trkpt>
      <trkpt lat="45.04279" lon="5.4933">
        <ele>1419</ele>
        <time>2021-07-02T11:01:51Z</time>
      </trkpt>
      <trkpt lat="45.04284" lon="5.49333">
        <ele>1419</ele>
        <time>2021-07-02T11:01:56Z</time>
      </trkpt>
      <trkpt lat="45.04289" lon="5.49331">
        <ele>1419</ele>
        <time>2021-07-02T11:02:01Z</time>
      </trkpt>
      <trkpt lat="45.04294" lon="5.49327">
        <ele>1419</ele>
        <time>2021-07-02T11:02:06Z</time>
      </trkpt>
      <trkpt lat="45.04296" lon="5.49322">
        <ele>1418</ele>
        <time>2021-07-02T11:02:18Z</time>
      </trkpt>
      <trkpt lat="45.04297" lon="5.49316">
        <ele>1418</ele>
        <time>2021-07-02T11:02:28Z</time>
      </trkpt>
      <trkpt lat="45.04298" lon="5.4932">
        <ele>1415</ele>
        <time>2021-07-02T11:04:06Z</time>
      </trkpt>
      <trkpt lat="45.04295" lon="5.49329">
        <ele>1419</ele>
        <time>2021-07-02T11:04:22Z</time>
      </trkpt>
      <trkpt lat="45.04292" lon="5.49332">
        <ele>1419</ele>
        <time>2021-07-02T11:06:06Z</time>
      </trkpt>
      <trkpt lat="45.04298" lon="5.49332">
        <ele>1419</ele>
        <time>2021-07-02T11:06:23Z</time>
      </trkpt>
      <trkpt lat="45.043" lon="5.49332">
        <ele>1419</ele>
        <time>2021-07-02T11:07:08Z</time>
      </trkpt>
      <trkpt lat="45.04311" lon="5.49333">
        <ele>1418</ele>
        <time>2021-07-02T11:10:49Z</time>
      </trkpt>
      <trkpt lat="45.0432" lon="5.49327">
        <ele>1418</ele>
        <time>2021-07-02T11:10:57Z</time>
      </trkpt>
      <trkpt lat="45.04331" lon="5.49328">
        <ele>1420</ele>
        <time>2021-07-02T11:11:14Z</time>
      </trkpt>
      <trkpt lat="45.0434" lon="5.49329">
        <ele>1421</ele>
        <time>2021-07-02T11:11:26Z</time>
      </trkpt>
      <trkpt lat="45.04345" lon="5.49328">
        <ele>1422</ele>
        <time>2021-07-02T11:11:31Z</time>
      </trkpt>
      <trkpt lat="45.04352" lon="5.49325">
        <ele>1422</ele>
        <time>2021-07-02T11:11:39Z</time>
      </trkpt>
      <trkpt lat="45.04359" lon="5.49323">
        <ele>1423</ele>
        <time>2021-07-02T11:11:46Z</time>
      </trkpt>
      <trkpt lat="45.04365" lon="5.4932">
        <ele>1423</ele>
        <time>2021-07-02T11:11:51Z</time>
      </trkpt>
      <trkpt lat="45.0437" lon="5.49318">
        <ele>1424</ele>
        <time>2021-07-02T11:11:58Z</time>
      </trkpt>
      <trkpt lat="45.04382" lon="5.49306">
        <ele>1427</ele>
        <time>2021-07-02T11:12:15Z</time>
      </trkpt>
      <trkpt lat="45.04404" lon="5.493">
        <ele>1428</ele>
        <time>2021-07-02T11:12:39Z</time>
      </trkpt>
      <trkpt lat="45.04411" lon="5.493">
        <ele>1429</ele>
        <time>2021-07-02T11:12:48Z</time>
      </trkpt>
      <trkpt lat="45.04416" lon="5.49296">
        <ele>1430</ele>
        <time>2021-07-02T11:12:57Z</time>
      </trkpt>
      <trkpt lat="45.0442" lon="5.49294">
        <ele>1431</ele>
        <time>2021-07-02T11:13:02Z</time>
      </trkpt>
      <trkpt lat="45.04426" lon="5.49295">
        <ele>1431</ele>
        <time>2021-07-02T11:13:10Z</time>
      </trkpt>
      <trkpt lat="45.0443" lon="5.49292">
        <ele>1432</ele>
        <time>2021-07-02T11:13:15Z</time>
      </trkpt>
      <trkpt lat="45.04435" lon="5.4929">
        <ele>1433</ele>
        <time>2021-07-02T11:13:25Z</time>
      </trkpt>
      <trkpt lat="45.04439" lon="5.49286">
        <ele>1433</ele>
        <time>2021-07-02T11:13:31Z</time>
      </trkpt>
      <trkpt lat="45.04452" lon="5.49286">
        <ele>1434</ele>
        <time>2021-07-02T11:13:47Z</time>
      </trkpt>
      <trkpt lat="45.04463" lon="5.49274">
        <ele>1436</ele>
        <time>2021-07-02T11:14:03Z</time>
      </trkpt>
      <trkpt lat="45.04485" lon="5.49262">
        <ele>1440</ele>
        <time>2021-07-02T11:14:34Z</time>
      </trkpt>
      <trkpt lat="45.04489" lon="5.4926">
        <ele>1440</ele>
        <time>2021-07-02T11:14:39Z</time>
      </trkpt>
      <trkpt lat="45.045" lon="5.49246">
        <ele>1442</ele>
        <time>2021-07-02T11:14:54Z</time>
      </trkpt>
      <trkpt lat="45.04505" lon="5.49245">
        <ele>1443</ele>
        <time>2021-07-02T11:15:01Z</time>
      </trkpt>
      <trkpt lat="45.04503" lon="5.49237">
        <ele>1444</ele>
        <time>2021-07-02T11:15:16Z</time>
      </trkpt>
      <trkpt lat="45.04506" lon="5.4923">
        <ele>1443</ele>
        <time>2021-07-02T11:15:26Z</time>
      </trkpt>
      <trkpt lat="45.04508" lon="5.4922">
        <ele>1444</ele>
        <time>2021-07-02T11:15:37Z</time>
      </trkpt>
      <trkpt lat="45.04514" lon="5.49207">
        <ele>1446</ele>
        <time>2021-07-02T11:15:51Z</time>
      </trkpt>
      <trkpt lat="45.04518" lon="5.49201">
        <ele>1447</ele>
        <time>2021-07-02T11:16:02Z</time>
      </trkpt>
      <trkpt lat="45.04521" lon="5.49196">
        <ele>1448</ele>
        <time>2021-07-02T11:16:08Z</time>
      </trkpt>
      <trkpt lat="45.04526" lon="5.49183">
        <ele>1449</ele>
        <time>2021-07-02T11:16:20Z</time>
      </trkpt>
      <trkpt lat="45.04528" lon="5.49175">
        <ele>1450</ele>
        <time>2021-07-02T11:16:30Z</time>
      </trkpt>
      <trkpt lat="45.04528" lon="5.49166">
        <ele>1452</ele>
        <time>2021-07-02T11:16:40Z</time>
      </trkpt>
      <trkpt lat="45.04528" lon="5.49159">
        <ele>1452</ele>
        <time>2021-07-02T11:16:46Z</time>
      </trkpt>
      <trkpt lat="45.04534" lon="5.49145">
        <ele>1454</ele>
        <time>2021-07-02T11:17:07Z</time>
      </trkpt>
      <trkpt lat="45.04533" lon="5.49139">
        <ele>1456</ele>
        <time>2021-07-02T11:17:18Z</time>
      </trkpt>
      <trkpt lat="45.04535" lon="5.49122">
        <ele>1459</ele>
        <time>2021-07-02T11:17:35Z</time>
      </trkpt>
      <trkpt lat="45.04536" lon="5.49115">
        <ele>1459</ele>
        <time>2021-07-02T11:17:43Z</time>
      </trkpt>
      <trkpt lat="45.04538" lon="5.49095">
        <ele>1460</ele>
        <time>2021-07-02T11:18:00Z</time>
      </trkpt>
      <trkpt lat="45.04538" lon="5.49084">
        <ele>1461</ele>
        <time>2021-07-02T11:18:12Z</time>
      </trkpt>
      <trkpt lat="45.04541" lon="5.49073">
        <ele>1462</ele>
        <time>2021-07-02T11:18:22Z</time>
      </trkpt>
      <trkpt lat="45.04552" lon="5.49055">
        <ele>1463</ele>
        <time>2021-07-02T11:18:41Z</time>
      </trkpt>
      <trkpt lat="45.04561" lon="5.49047">
        <ele>1464</ele>
        <time>2021-07-02T11:18:54Z</time>
      </trkpt>
      <trkpt lat="45.04586" lon="5.49035">
        <ele>1467</ele>
        <time>2021-07-02T11:19:26Z</time>
      </trkpt>
      <trkpt lat="45.04598" lon="5.49026">
        <ele>1469</ele>
        <time>2021-07-02T11:19:43Z</time>
      </trkpt>
      <trkpt lat="45.04603" lon="5.49026">
        <ele>1470</ele>
        <time>2021-07-02T11:19:47Z</time>
      </trkpt>
      <trkpt lat="45.04607" lon="5.49024">
        <ele>1470</ele>
        <time>2021-07-02T11:19:54Z</time>
      </trkpt>
      <trkpt lat="45.04615" lon="5.4902">
        <ele>1471</ele>
        <time>2021-07-02T11:20:06Z</time>
      </trkpt>
      <trkpt lat="45.04621" lon="5.49019">
        <ele>1473</ele>
        <time>2021-07-02T11:20:18Z</time>
      </trkpt>
      <trkpt lat="45.04627" lon="5.49021">
        <ele>1474</ele>
        <time>2021-07-02T11:20:28Z</time>
      </trkpt>
      <trkpt lat="45.04639" lon="5.49021">
        <ele>1477</ele>
        <time>2021-07-02T11:20:43Z</time>
      </trkpt>
      <trkpt lat="45.04663" lon="5.49006">
        <ele>1481</ele>
        <time>2021-07-02T11:21:19Z</time>
      </trkpt>
      <trkpt lat="45.0467" lon="5.49004">
        <ele>1482</ele>
        <time>2021-07-02T11:21:29Z</time>
      </trkpt>
      <trkpt lat="45.04676" lon="5.48998">
        <ele>1484</ele>
        <time>2021-07-02T11:21:40Z</time>
      </trkpt>
      <trkpt lat="45.0468" lon="5.48996">
        <ele>1485</ele>
        <time>2021-07-02T11:21:45Z</time>
      </trkpt>
      <trkpt lat="45.04694" lon="5.48986">
        <ele>1486</ele>
        <time>2021-07-02T11:22:00Z</time>
      </trkpt>
      <trkpt lat="45.04708" lon="5.48966">
        <ele>1488</ele>
        <time>2021-07-02T11:22:32Z</time>
      </trkpt>
      <trkpt lat="45.0472" lon="5.48941">
        <ele>1490</ele>
        <time>2021-07-02T11:22:58Z</time>
      </trkpt>
      <trkpt lat="45.04727" lon="5.48934">
        <ele>1490</ele>
        <time>2021-07-02T11:23:07Z</time>
      </trkpt>
      <trkpt lat="45.04732" lon="5.48932">
        <ele>1491</ele>
        <time>2021-07-02T11:23:11Z</time>
      </trkpt>
      <trkpt lat="45.04751" lon="5.48913">
        <ele>1494</ele>
        <time>2021-07-02T11:23:34Z</time>
      </trkpt>
      <trkpt lat="45.04756" lon="5.48906">
        <ele>1495</ele>
        <time>2021-07-02T11:23:43Z</time>
      </trkpt>
      <trkpt lat="45.04761" lon="5.48899">
        <ele>1496</ele>
        <time>2021-07-02T11:23:50Z</time>
      </trkpt>
      <trkpt lat="45.04764" lon="5.48895">
        <ele>1496</ele>
        <time>2021-07-02T11:23:55Z</time>
      </trkpt>
      <trkpt lat="45.04791" lon="5.48866">
        <ele>1501</ele>
        <time>2021-07-02T11:24:32Z</time>
      </trkpt>
      <trkpt lat="45.04821" lon="5.48833">
        <ele>1504</ele>
        <time>2021-07-02T11:25:07Z</time>
      </trkpt>
      <trkpt lat="45.04826" lon="5.4883">
        <ele>1505</ele>
        <time>2021-07-02T11:25:12Z</time>
      </trkpt>
      <trkpt lat="45.04839" lon="5.48813">
        <ele>1507</ele>
        <time>2021-07-02T11:25:29Z</time>
      </trkpt>
      <trkpt lat="45.04843" lon="5.4881">
        <ele>1507</ele>
        <time>2021-07-02T11:25:34Z</time>
      </trkpt>
      <trkpt lat="45.04857" lon="5.48791">
        <ele>1509</ele>
        <time>2021-07-02T11:25:53Z</time>
      </trkpt>
      <trkpt lat="45.04859" lon="5.48783">
        <ele>1510</ele>
        <time>2021-07-02T11:26:01Z</time>
      </trkpt>
      <trkpt lat="45.04861" lon="5.48777">
        <ele>1510</ele>
        <time>2021-07-02T11:26:06Z</time>
      </trkpt>
      <trkpt lat="45.04864" lon="5.48763">
        <ele>1510</ele>
        <time>2021-07-02T11:26:19Z</time>
      </trkpt>
      <trkpt lat="45.04875" lon="5.48717">
        <ele>1507</ele>
        <time>2021-07-02T11:26:49Z</time>
      </trkpt>
      <trkpt lat="45.04879" lon="5.48705">
        <ele>1506</ele>
        <time>2021-07-02T11:26:57Z</time>
      </trkpt>
      <trkpt lat="45.04881" lon="5.48699">
        <ele>1506</ele>
        <time>2021-07-02T11:27:06Z</time>
      </trkpt>
      <trkpt lat="45.04884" lon="5.48687">
        <ele>1505</ele>
        <time>2021-07-02T11:27:36Z</time>
      </trkpt>
      <trkpt lat="45.04886" lon="5.48679">
        <ele>1505</ele>
        <time>2021-07-02T11:27:43Z</time>
      </trkpt>
      <trkpt lat="45.04886" lon="5.48672">
        <ele>1506</ele>
        <time>2021-07-02T11:27:51Z</time>
      </trkpt>
      <trkpt lat="45.04889" lon="5.48667">
        <ele>1505</ele>
        <time>2021-07-02T11:27:55Z</time>
      </trkpt>
      <trkpt lat="45.04892" lon="5.48663">
        <ele>1506</ele>
        <time>2021-07-02T11:28:00Z</time>
      </trkpt>
      <trkpt lat="45.04894" lon="5.48657">
        <ele>1505</ele>
        <time>2021-07-02T11:28:04Z</time>
      </trkpt>
      <trkpt lat="45.04899" lon="5.48645">
        <ele>1505</ele>
        <time>2021-07-02T11:28:13Z</time>
      </trkpt>
      <trkpt lat="45.049" lon="5.48639">
        <ele>1506</ele>
        <time>2021-07-02T11:28:17Z</time>
      </trkpt>
      <trkpt lat="45.04897" lon="5.48629">
        <ele>1507</ele>
        <time>2021-07-02T11:28:31Z</time>
      </trkpt>
      <trkpt lat="45.04894" lon="5.48625">
        <ele>1507</ele>
        <time>2021-07-02T11:28:36Z</time>
      </trkpt>
      <trkpt lat="45.0489" lon="5.48619">
        <ele>1506</ele>
        <time>2021-07-02T11:28:55Z</time>
      </trkpt>
      <trkpt lat="45.04885" lon="5.48616">
        <ele>1506</ele>
        <time>2021-07-02T11:29:02Z</time>
      </trkpt>
      <trkpt lat="45.04882" lon="5.48609">
        <ele>1506</ele>
        <time>2021-07-02T11:29:07Z</time>
      </trkpt>
      <trkpt lat="45.0487" lon="5.48599">
        <ele>1506</ele>
        <time>2021-07-02T11:29:17Z</time>
      </trkpt>
      <trkpt lat="45.04865" lon="5.48592">
        <ele>1505</ele>
        <time>2021-07-02T11:29:40Z</time>
      </trkpt>
      <trkpt lat="45.04861" lon="5.48588">
        <ele>1506</ele>
        <time>2021-07-02T11:29:44Z</time>
      </trkpt>
      <trkpt lat="45.04856" lon="5.48585">
        <ele>1506</ele>
        <time>2021-07-02T11:29:48Z</time>
      </trkpt>
      <trkpt lat="45.04814" lon="5.48561">
        <ele>1507</ele>
        <time>2021-07-02T11:30:22Z</time>
      </trkpt>
      <trkpt lat="45.04797" lon="5.48548">
        <ele>1508</ele>
        <time>2021-07-02T11:30:39Z</time>
      </trkpt>
      <trkpt lat="45.04765" lon="5.48523">
        <ele>1510</ele>
        <time>2021-07-02T11:31:11Z</time>
      </trkpt>
      <trkpt lat="45.0476" lon="5.4852">
        <ele>1510</ele>
        <time>2021-07-02T11:31:16Z</time>
      </trkpt>
      <trkpt lat="45.04728" lon="5.48498">
        <ele>1512</ele>
        <time>2021-07-02T11:31:49Z</time>
      </trkpt>
      <trkpt lat="45.04701" lon="5.48483">
        <ele>1513</ele>
        <time>2021-07-02T11:32:20Z</time>
      </trkpt>
      <trkpt lat="45.04696" lon="5.48481">
        <ele>1513</ele>
        <time>2021-07-02T11:32:24Z</time>
      </trkpt>
      <trkpt lat="45.04692" lon="5.48479">
        <ele>1513</ele>
        <time>2021-07-02T11:32:28Z</time>
      </trkpt>
      <trkpt lat="45.04687" lon="5.48476">
        <ele>1513</ele>
        <time>2021-07-02T11:32:32Z</time>
      </trkpt>
      <trkpt lat="45.04657" lon="5.48457">
        <ele>1515</ele>
        <time>2021-07-02T11:33:02Z</time>
      </trkpt>
      <trkpt lat="45.04623" lon="5.48432">
        <ele>1517</ele>
        <time>2021-07-02T11:33:36Z</time>
      </trkpt>
      <trkpt lat="45.0462" lon="5.48429">
        <ele>1518</ele>
        <time>2021-07-02T11:33:39Z</time>
      </trkpt>
      <trkpt lat="45.04616" lon="5.48426">
        <ele>1518</ele>
        <time>2021-07-02T11:33:43Z</time>
      </trkpt>
      <trkpt lat="45.0459" lon="5.48409">
        <ele>1519</ele>
        <time>2021-07-02T11:34:10Z</time>
      </trkpt>
      <trkpt lat="45.04569" lon="5.48396">
        <ele>1519</ele>
        <time>2021-07-02T11:34:33Z</time>
      </trkpt>
      <trkpt lat="45.04544" lon="5.48369">
        <ele>1521</ele>
        <time>2021-07-02T11:35:04Z</time>
      </trkpt>
      <trkpt lat="45.04523" lon="5.48341">
        <ele>1521</ele>
        <time>2021-07-02T11:35:29Z</time>
      </trkpt>
      <trkpt lat="45.0452" lon="5.48336">
        <ele>1520</ele>
        <time>2021-07-02T11:35:34Z</time>
      </trkpt>
      <trkpt lat="45.04518" lon="5.4833">
        <ele>1520</ele>
        <time>2021-07-02T11:35:38Z</time>
      </trkpt>
      <trkpt lat="45.04517" lon="5.48325">
        <ele>1520</ele>
        <time>2021-07-02T11:36:29Z</time>
      </trkpt>
      <trkpt lat="45.04521" lon="5.48323">
        <ele>1520</ele>
        <time>2021-07-02T11:36:57Z</time>
      </trkpt>
      <trkpt lat="45.04521" lon="5.4832">
        <ele>1521</ele>
        <time>2021-07-02T11:56:01Z</time>
      </trkpt>
      <trkpt lat="45.04526" lon="5.4832">
        <ele>1522</ele>
        <time>2021-07-02T12:14:25Z</time>
      </trkpt>
      <trkpt lat="45.04531" lon="5.48323">
        <ele>1521</ele>
        <time>2021-07-02T12:14:56Z</time>
      </trkpt>
      <trkpt lat="45.0454" lon="5.48326">
        <ele>1521</ele>
        <time>2021-07-02T12:15:06Z</time>
      </trkpt>
      <trkpt lat="45.04548" lon="5.48326">
        <ele>1521</ele>
        <time>2021-07-02T12:15:15Z</time>
      </trkpt>
      <trkpt lat="45.04566" lon="5.48319">
        <ele>1522</ele>
        <time>2021-07-02T12:15:34Z</time>
      </trkpt>
      <trkpt lat="45.04574" lon="5.48311">
        <ele>1522</ele>
        <time>2021-07-02T12:15:43Z</time>
      </trkpt>
      <trkpt lat="45.04578" lon="5.48306">
        <ele>1522</ele>
        <time>2021-07-02T12:15:50Z</time>
      </trkpt>
      <trkpt lat="45.04592" lon="5.48301">
        <ele>1525</ele>
        <time>2021-07-02T12:16:10Z</time>
      </trkpt>
      <trkpt lat="45.04606" lon="5.48301">
        <ele>1527</ele>
        <time>2021-07-02T12:16:29Z</time>
      </trkpt>
      <trkpt lat="45.04624" lon="5.48295">
        <ele>1533</ele>
        <time>2021-07-02T12:17:01Z</time>
      </trkpt>
      <trkpt lat="45.04628" lon="5.48293">
        <ele>1535</ele>
        <time>2021-07-02T12:17:12Z</time>
      </trkpt>
      <trkpt lat="45.04644" lon="5.48296">
        <ele>1537</ele>
        <time>2021-07-02T12:17:34Z</time>
      </trkpt>
      <trkpt lat="45.04648" lon="5.48296">
        <ele>1537</ele>
        <time>2021-07-02T12:17:49Z</time>
      </trkpt>
      <trkpt lat="45.04653" lon="5.48298">
        <ele>1537</ele>
        <time>2021-07-02T12:18:04Z</time>
      </trkpt>
      <trkpt lat="45.04656" lon="5.48305">
        <ele>1537</ele>
        <time>2021-07-02T12:18:14Z</time>
      </trkpt>
      <trkpt lat="45.04682" lon="5.48317">
        <ele>1535</ele>
        <time>2021-07-02T12:18:49Z</time>
      </trkpt>
      <trkpt lat="45.04693" lon="5.48318">
        <ele>1536</ele>
        <time>2021-07-02T12:18:59Z</time>
      </trkpt>
      <trkpt lat="45.04706" lon="5.48315">
        <ele>1536</ele>
        <time>2021-07-02T12:19:16Z</time>
      </trkpt>
      <trkpt lat="45.04726" lon="5.48299">
        <ele>1542</ele>
        <time>2021-07-02T12:19:50Z</time>
      </trkpt>
      <trkpt lat="45.04732" lon="5.48295">
        <ele>1543</ele>
        <time>2021-07-02T12:20:00Z</time>
      </trkpt>
      <trkpt lat="45.04743" lon="5.48286">
        <ele>1545</ele>
        <time>2021-07-02T12:20:18Z</time>
      </trkpt>
      <trkpt lat="45.04753" lon="5.48275">
        <ele>1545</ele>
        <time>2021-07-02T12:20:51Z</time>
      </trkpt>
      <trkpt lat="45.04757" lon="5.48271">
        <ele>1545</ele>
        <time>2021-07-02T12:20:56Z</time>
      </trkpt>
      <trkpt lat="45.04759" lon="5.48265">
        <ele>1545</ele>
        <time>2021-07-02T12:21:01Z</time>
      </trkpt>
      <trkpt lat="45.04771" lon="5.4824">
        <ele>1548</ele>
        <time>2021-07-02T12:21:30Z</time>
      </trkpt>
      <trkpt lat="45.0478" lon="5.48218">
        <ele>1553</ele>
        <time>2021-07-02T12:22:00Z</time>
      </trkpt>
      <trkpt lat="45.0479" lon="5.48196">
        <ele>1557</ele>
        <time>2021-07-02T12:22:25Z</time>
      </trkpt>
      <trkpt lat="45.04791" lon="5.4819">
        <ele>1557</ele>
        <time>2021-07-02T12:22:31Z</time>
      </trkpt>
      <trkpt lat="45.04794" lon="5.48187">
        <ele>1558</ele>
        <time>2021-07-02T12:22:47Z</time>
      </trkpt>
      <trkpt lat="45.04793" lon="5.48186">
        <ele>1556</ele>
        <time>2021-07-02T12:24:29Z</time>
      </trkpt>
      <trkpt lat="45.04794" lon="5.48187">
        <ele>1553</ele>
        <time>2021-07-02T12:32:32Z</time>
      </trkpt>
      <trkpt lat="45.04799" lon="5.48186">
        <ele>1550</ele>
        <time>2021-07-02T12:41:53Z</time>
      </trkpt>
      <trkpt lat="45.04803" lon="5.48187">
        <ele>1550</ele>
        <time>2021-07-02T12:41:58Z</time>
      </trkpt>
      <trkpt lat="45.04814" lon="5.48194">
        <ele>1548</ele>
        <time>2021-07-02T12:42:12Z</time>
      </trkpt>
      <trkpt lat="45.0482" lon="5.48196">
        <ele>1547</ele>
        <time>2021-07-02T12:42:19Z</time>
      </trkpt>
      <trkpt lat="45.04824" lon="5.48198">
        <ele>1547</ele>
        <time>2021-07-02T12:42:23Z</time>
      </trkpt>
      <trkpt lat="45.04843" lon="5.48212">
        <ele>1544</ele>
        <time>2021-07-02T12:42:44Z</time>
      </trkpt>
      <trkpt lat="45.04847" lon="5.48214">
        <ele>1544</ele>
        <time>2021-07-02T12:42:48Z</time>
      </trkpt>
      <trkpt lat="45.04873" lon="5.48234">
        <ele>1539</ele>
        <time>2021-07-02T12:43:20Z</time>
      </trkpt>
      <trkpt lat="45.04889" lon="5.48244">
        <ele>1537</ele>
        <time>2021-07-02T12:43:38Z</time>
      </trkpt>
      <trkpt lat="45.04894" lon="5.48245">
        <ele>1537</ele>
        <time>2021-07-02T12:43:42Z</time>
      </trkpt>
      <trkpt lat="45.04903" lon="5.4825">
        <ele>1536</ele>
        <time>2021-07-02T12:43:51Z</time>
      </trkpt>
      <trkpt lat="45.04939" lon="5.48265">
        <ele>1534</ele>
        <time>2021-07-02T12:44:27Z</time>
      </trkpt>
      <trkpt lat="45.04945" lon="5.48271">
        <ele>1534</ele>
        <time>2021-07-02T12:44:34Z</time>
      </trkpt>
      <trkpt lat="45.04955" lon="5.48286">
        <ele>1533</ele>
        <time>2021-07-02T12:44:49Z</time>
      </trkpt>
      <trkpt lat="45.04968" lon="5.48298">
        <ele>1533</ele>
        <time>2021-07-02T12:45:01Z</time>
      </trkpt>
      <trkpt lat="45.0498" lon="5.48309">
        <ele>1532</ele>
        <time>2021-07-02T12:45:17Z</time>
      </trkpt>
      <trkpt lat="45.04994" lon="5.48328">
        <ele>1530</ele>
        <time>2021-07-02T12:45:39Z</time>
      </trkpt>
      <trkpt lat="45.05028" lon="5.48343">
        <ele>1527</ele>
        <time>2021-07-02T12:46:11Z</time>
      </trkpt>
      <trkpt lat="45.05032" lon="5.48347">
        <ele>1526</ele>
        <time>2021-07-02T12:46:18Z</time>
      </trkpt>
      <trkpt lat="45.0503" lon="5.48365">
        <ele>1526</ele>
        <time>2021-07-02T12:46:32Z</time>
      </trkpt>
      <trkpt lat="45.05029" lon="5.48377">
        <ele>1525</ele>
        <time>2021-07-02T12:46:41Z</time>
      </trkpt>
      <trkpt lat="45.05028" lon="5.48383">
        <ele>1524</ele>
        <time>2021-07-02T12:46:46Z</time>
      </trkpt>
      <trkpt lat="45.0502" lon="5.48388">
        <ele>1523</ele>
        <time>2021-07-02T12:46:56Z</time>
      </trkpt>
      <trkpt lat="45.0501" lon="5.48391">
        <ele>1522</ele>
        <time>2021-07-02T12:47:07Z</time>
      </trkpt>
      <trkpt lat="45.04997" lon="5.48401">
        <ele>1520</ele>
        <time>2021-07-02T12:47:19Z</time>
      </trkpt>
      <trkpt lat="45.04994" lon="5.48406">
        <ele>1519</ele>
        <time>2021-07-02T12:47:23Z</time>
      </trkpt>
      <trkpt lat="45.0498" lon="5.48419">
        <ele>1517</ele>
        <time>2021-07-02T12:47:38Z</time>
      </trkpt>
      <trkpt lat="45.04977" lon="5.48424">
        <ele>1516</ele>
        <time>2021-07-02T12:47:43Z</time>
      </trkpt>
      <trkpt lat="45.04975" lon="5.4843">
        <ele>1516</ele>
        <time>2021-07-02T12:47:47Z</time>
      </trkpt>
      <trkpt lat="45.0497" lon="5.48458">
        <ele>1513</ele>
        <time>2021-07-02T12:48:07Z</time>
      </trkpt>
      <trkpt lat="45.04955" lon="5.48502">
        <ele>1510</ele>
        <time>2021-07-02T12:48:42Z</time>
      </trkpt>
      <trkpt lat="45.04942" lon="5.48546">
        <ele>1508</ele>
        <time>2021-07-02T12:49:14Z</time>
      </trkpt>
      <trkpt lat="45.04937" lon="5.48572">
        <ele>1507</ele>
        <time>2021-07-02T12:49:29Z</time>
      </trkpt>
      <trkpt lat="45.04919" lon="5.48608">
        <ele>1506</ele>
        <time>2021-07-02T12:50:00Z</time>
      </trkpt>
      <trkpt lat="45.04897" lon="5.48647">
        <ele>1505</ele>
        <time>2021-07-02T12:50:31Z</time>
      </trkpt>
      <trkpt lat="45.04896" lon="5.48654">
        <ele>1505</ele>
        <time>2021-07-02T12:50:35Z</time>
      </trkpt>
      <trkpt lat="45.04886" lon="5.48685">
        <ele>1504</ele>
        <time>2021-07-02T12:50:55Z</time>
      </trkpt>
      <trkpt lat="45.04886" lon="5.4869">
        <ele>1504</ele>
        <time>2021-07-02T12:51:00Z</time>
      </trkpt>
      <trkpt lat="45.04882" lon="5.48695">
        <ele>1504</ele>
        <time>2021-07-02T12:51:06Z</time>
      </trkpt>
      <trkpt lat="45.04881" lon="5.48701">
        <ele>1505</ele>
        <time>2021-07-02T12:51:16Z</time>
      </trkpt>
      <trkpt lat="45.04877" lon="5.48709">
        <ele>1505</ele>
        <time>2021-07-02T12:51:36Z</time>
      </trkpt>
      <trkpt lat="45.04875" lon="5.48722">
        <ele>1506</ele>
        <time>2021-07-02T12:51:48Z</time>
      </trkpt>
      <trkpt lat="45.0487" lon="5.48734">
        <ele>1507</ele>
        <time>2021-07-02T12:51:57Z</time>
      </trkpt>
      <trkpt lat="45.04867" lon="5.48748">
        <ele>1508</ele>
        <time>2021-07-02T12:52:09Z</time>
      </trkpt>
      <trkpt lat="45.04861" lon="5.48767">
        <ele>1509</ele>
        <time>2021-07-02T12:52:25Z</time>
      </trkpt>
      <trkpt lat="45.04859" lon="5.48778">
        <ele>1510</ele>
        <time>2021-07-02T12:52:33Z</time>
      </trkpt>
      <trkpt lat="45.04857" lon="5.48784">
        <ele>1510</ele>
        <time>2021-07-02T12:52:39Z</time>
      </trkpt>
      <trkpt lat="45.04851" lon="5.48799">
        <ele>1509</ele>
        <time>2021-07-02T12:52:51Z</time>
      </trkpt>
      <trkpt lat="45.04831" lon="5.48829">
        <ele>1505</ele>
        <time>2021-07-02T12:53:21Z</time>
      </trkpt>
      <trkpt lat="45.04808" lon="5.48869">
        <ele>1500</ele>
        <time>2021-07-02T12:53:52Z</time>
      </trkpt>
      <trkpt lat="45.04799" lon="5.48881">
        <ele>1499</ele>
        <time>2021-07-02T12:54:05Z</time>
      </trkpt>
      <trkpt lat="45.04794" lon="5.48885">
        <ele>1499</ele>
        <time>2021-07-02T12:54:10Z</time>
      </trkpt>
      <trkpt lat="45.04784" lon="5.48892">
        <ele>1498</ele>
        <time>2021-07-02T12:54:20Z</time>
      </trkpt>
      <trkpt lat="45.04755" lon="5.48928">
        <ele>1494</ele>
        <time>2021-07-02T12:54:53Z</time>
      </trkpt>
      <trkpt lat="45.04728" lon="5.48952">
        <ele>1491</ele>
        <time>2021-07-02T12:55:25Z</time>
      </trkpt>
      <trkpt lat="45.04703" lon="5.48979">
        <ele>1488</ele>
        <time>2021-07-02T12:55:57Z</time>
      </trkpt>
      <trkpt lat="45.04686" lon="5.49005">
        <ele>1485</ele>
        <time>2021-07-02T12:56:20Z</time>
      </trkpt>
      <trkpt lat="45.04679" lon="5.49005">
        <ele>1484</ele>
        <time>2021-07-02T12:56:30Z</time>
      </trkpt>
      <trkpt lat="45.04656" lon="5.49022">
        <ele>1479</ele>
        <time>2021-07-02T12:57:00Z</time>
      </trkpt>
      <trkpt lat="45.0464" lon="5.4903">
        <ele>1476</ele>
        <time>2021-07-02T12:57:16Z</time>
      </trkpt>
      <trkpt lat="45.04635" lon="5.49031">
        <ele>1475</ele>
        <time>2021-07-02T12:57:21Z</time>
      </trkpt>
      <trkpt lat="45.0461" lon="5.49026">
        <ele>1471</ele>
        <time>2021-07-02T12:57:44Z</time>
      </trkpt>
      <trkpt lat="45.04596" lon="5.49032">
        <ele>1469</ele>
        <time>2021-07-02T12:58:00Z</time>
      </trkpt>
      <trkpt lat="45.04584" lon="5.49043">
        <ele>1466</ele>
        <time>2021-07-02T12:58:20Z</time>
      </trkpt>
      <trkpt lat="45.04563" lon="5.49051">
        <ele>1463</ele>
        <time>2021-07-02T12:58:45Z</time>
      </trkpt>
      <trkpt lat="45.04551" lon="5.49066">
        <ele>1462</ele>
        <time>2021-07-02T12:58:58Z</time>
      </trkpt>
      <trkpt lat="45.04545" lon="5.49077">
        <ele>1461</ele>
        <time>2021-07-02T12:59:06Z</time>
      </trkpt>
      <trkpt lat="45.04543" lon="5.49083">
        <ele>1461</ele>
        <time>2021-07-02T12:59:11Z</time>
      </trkpt>
      <trkpt lat="45.0454" lon="5.4909">
        <ele>1460</ele>
        <time>2021-07-02T12:59:19Z</time>
      </trkpt>
      <trkpt lat="45.04535" lon="5.49136">
        <ele>1457</ele>
        <time>2021-07-02T12:59:49Z</time>
      </trkpt>
      <trkpt lat="45.04536" lon="5.49143">
        <ele>1456</ele>
        <time>2021-07-02T12:59:55Z</time>
      </trkpt>
      <trkpt lat="45.04535" lon="5.49154">
        <ele>1453</ele>
        <time>2021-07-02T13:00:06Z</time>
      </trkpt>
      <trkpt lat="45.04532" lon="5.49164">
        <ele>1452</ele>
        <time>2021-07-02T13:00:16Z</time>
      </trkpt>
      <trkpt lat="45.04531" lon="5.49172">
        <ele>1451</ele>
        <time>2021-07-02T13:00:23Z</time>
      </trkpt>
      <trkpt lat="45.0453" lon="5.49179">
        <ele>1450</ele>
        <time>2021-07-02T13:00:28Z</time>
      </trkpt>
      <trkpt lat="45.04529" lon="5.49192">
        <ele>1449</ele>
        <time>2021-07-02T13:00:38Z</time>
      </trkpt>
      <trkpt lat="45.04528" lon="5.49201">
        <ele>1447</ele>
        <time>2021-07-02T13:00:45Z</time>
      </trkpt>
      <trkpt lat="45.04521" lon="5.49209">
        <ele>1447</ele>
        <time>2021-07-02T13:00:52Z</time>
      </trkpt>
      <trkpt lat="45.04517" lon="5.49212">
        <ele>1446</ele>
        <time>2021-07-02T13:00:59Z</time>
      </trkpt>
      <trkpt lat="45.04512" lon="5.49222">
        <ele>1445</ele>
        <time>2021-07-02T13:01:08Z</time>
      </trkpt>
      <trkpt lat="45.04511" lon="5.49229">
        <ele>1444</ele>
        <time>2021-07-02T13:01:15Z</time>
      </trkpt>
      <trkpt lat="45.04508" lon="5.49235">
        <ele>1443</ele>
        <time>2021-07-02T13:01:20Z</time>
      </trkpt>
      <trkpt lat="45.04503" lon="5.49247">
        <ele>1443</ele>
        <time>2021-07-02T13:01:28Z</time>
      </trkpt>
      <trkpt lat="45.045" lon="5.49253">
        <ele>1444</ele>
        <time>2021-07-02T13:01:32Z</time>
      </trkpt>
      <trkpt lat="45.04489" lon="5.49269">
        <ele>1442</ele>
        <time>2021-07-02T13:01:48Z</time>
      </trkpt>
      <trkpt lat="45.04481" lon="5.49273">
        <ele>1441</ele>
        <time>2021-07-02T13:01:56Z</time>
      </trkpt>
      <trkpt lat="45.04476" lon="5.49277">
        <ele>1440</ele>
        <time>2021-07-02T13:02:03Z</time>
      </trkpt>
      <trkpt lat="45.0447" lon="5.49278">
        <ele>1440</ele>
        <time>2021-07-02T13:02:07Z</time>
      </trkpt>
      <trkpt lat="45.0445" lon="5.49289">
        <ele>1436</ele>
        <time>2021-07-02T13:02:27Z</time>
      </trkpt>
      <trkpt lat="45.04446" lon="5.49293">
        <ele>1436</ele>
        <time>2021-07-02T13:02:32Z</time>
      </trkpt>
      <trkpt lat="45.04437" lon="5.49299">
        <ele>1436</ele>
        <time>2021-07-02T13:02:40Z</time>
      </trkpt>
      <trkpt lat="45.0442" lon="5.49302">
        <ele>1433</ele>
        <time>2021-07-02T13:03:00Z</time>
      </trkpt>
      <trkpt lat="45.04406" lon="5.49308">
        <ele>1432</ele>
        <time>2021-07-02T13:03:14Z</time>
      </trkpt>
      <trkpt lat="45.04396" lon="5.49308">
        <ele>1431</ele>
        <time>2021-07-02T13:03:22Z</time>
      </trkpt>
      <trkpt lat="45.04391" lon="5.49311">
        <ele>1430</ele>
        <time>2021-07-02T13:03:28Z</time>
      </trkpt>
      <trkpt lat="45.0438" lon="5.49316">
        <ele>1430</ele>
        <time>2021-07-02T13:03:39Z</time>
      </trkpt>
      <trkpt lat="45.04374" lon="5.49324">
        <ele>1430</ele>
        <time>2021-07-02T13:03:47Z</time>
      </trkpt>
      <trkpt lat="45.04369" lon="5.49329">
        <ele>1429</ele>
        <time>2021-07-02T13:03:54Z</time>
      </trkpt>
      <trkpt lat="45.04359" lon="5.4933">
        <ele>1427</ele>
        <time>2021-07-02T13:04:05Z</time>
      </trkpt>
      <trkpt lat="45.04354" lon="5.49332">
        <ele>1427</ele>
        <time>2021-07-02T13:04:09Z</time>
      </trkpt>
      <trkpt lat="45.04327" lon="5.49332">
        <ele>1424</ele>
        <time>2021-07-02T13:04:37Z</time>
      </trkpt>
      <trkpt lat="45.04322" lon="5.49334">
        <ele>1424</ele>
        <time>2021-07-02T13:04:42Z</time>
      </trkpt>
      <trkpt lat="45.04312" lon="5.49333">
        <ele>1423</ele>
        <time>2021-07-02T13:04:51Z</time>
      </trkpt>
      <trkpt lat="45.04303" lon="5.49338">
        <ele>1422</ele>
        <time>2021-07-02T13:05:00Z</time>
      </trkpt>
      <trkpt lat="45.04283" lon="5.4934">
        <ele>1421</ele>
        <time>2021-07-02T13:05:21Z</time>
      </trkpt>
      <trkpt lat="45.04274" lon="5.49336">
        <ele>1421</ele>
        <time>2021-07-02T13:05:27Z</time>
      </trkpt>
      <trkpt lat="45.0427" lon="5.49336">
        <ele>1421</ele>
        <time>2021-07-02T13:05:31Z</time>
      </trkpt>
      <trkpt lat="45.04248" lon="5.49334">
        <ele>1418</ele>
        <time>2021-07-02T13:05:53Z</time>
      </trkpt>
      <trkpt lat="45.04242" lon="5.49333">
        <ele>1418</ele>
        <time>2021-07-02T13:05:59Z</time>
      </trkpt>
      <trkpt lat="45.04237" lon="5.49335">
        <ele>1419</ele>
        <time>2021-07-02T13:06:06Z</time>
      </trkpt>
      <trkpt lat="45.04222" lon="5.49339">
        <ele>1418</ele>
        <time>2021-07-02T13:06:20Z</time>
      </trkpt>
      <trkpt lat="45.04218" lon="5.49341">
        <ele>1418</ele>
        <time>2021-07-02T13:06:25Z</time>
      </trkpt>
      <trkpt lat="45.0421" lon="5.49341">
        <ele>1417</ele>
        <time>2021-07-02T13:06:34Z</time>
      </trkpt>
      <trkpt lat="45.04205" lon="5.49342">
        <ele>1417</ele>
        <time>2021-07-02T13:06:38Z</time>
      </trkpt>
      <trkpt lat="45.04198" lon="5.49345">
        <ele>1416</ele>
        <time>2021-07-02T13:06:45Z</time>
      </trkpt>
      <trkpt lat="45.04192" lon="5.49343">
        <ele>1415</ele>
        <time>2021-07-02T13:06:52Z</time>
      </trkpt>
      <trkpt lat="45.04179" lon="5.49344">
        <ele>1413</ele>
        <time>2021-07-02T13:07:06Z</time>
      </trkpt>
      <trkpt lat="45.04168" lon="5.4935">
        <ele>1411</ele>
        <time>2021-07-02T13:07:18Z</time>
      </trkpt>
      <trkpt lat="45.04146" lon="5.49355">
        <ele>1409</ele>
        <time>2021-07-02T13:07:42Z</time>
      </trkpt>
      <trkpt lat="45.04124" lon="5.49353">
        <ele>1407</ele>
        <time>2021-07-02T13:08:05Z</time>
      </trkpt>
      <trkpt lat="45.04105" lon="5.49361">
        <ele>1404</ele>
        <time>2021-07-02T13:08:28Z</time>
      </trkpt>
      <trkpt lat="45.04097" lon="5.49363">
        <ele>1402</ele>
        <time>2021-07-02T13:08:38Z</time>
      </trkpt>
      <trkpt lat="45.04071" lon="5.49371">
        <ele>1397</ele>
        <time>2021-07-02T13:09:08Z</time>
      </trkpt>
      <trkpt lat="45.04067" lon="5.49378">
        <ele>1397</ele>
        <time>2021-07-02T13:09:14Z</time>
      </trkpt>
      <trkpt lat="45.04066" lon="5.4938">
        <ele>1397</ele>
        <time>2021-07-02T13:10:04Z</time>
      </trkpt>
      <trkpt lat="45.04066" lon="5.49386">
        <ele>1397</ele>
        <time>2021-07-02T13:10:08Z</time>
      </trkpt>
      <trkpt lat="45.04073" lon="5.49402">
        <ele>1394</ele>
        <time>2021-07-02T13:10:20Z</time>
      </trkpt>
      <trkpt lat="45.04071" lon="5.49403">
        <ele>1392</ele>
        <time>2021-07-02T13:10:43Z</time>
      </trkpt>
      <trkpt lat="45.04074" lon="5.49408">
        <ele>1391</ele>
        <time>2021-07-02T13:10:49Z</time>
      </trkpt>
      <trkpt lat="45.04078" lon="5.49422">
        <ele>1390</ele>
        <time>2021-07-02T13:10:56Z</time>
      </trkpt>
      <trkpt lat="45.0408" lon="5.49429">
        <ele>1389</ele>
        <time>2021-07-02T13:11:00Z</time>
      </trkpt>
      <trkpt lat="45.04084" lon="5.49454">
        <ele>1385</ele>
        <time>2021-07-02T13:11:20Z</time>
      </trkpt>
      <trkpt lat="45.04085" lon="5.49465">
        <ele>1383</ele>
        <time>2021-07-02T13:11:41Z</time>
      </trkpt>
      <trkpt lat="45.04083" lon="5.49473">
        <ele>1383</ele>
        <time>2021-07-02T13:11:46Z</time>
      </trkpt>
      <trkpt lat="45.0408" lon="5.49477">
        <ele>1382</ele>
        <time>2021-07-02T13:11:51Z</time>
      </trkpt>
      <trkpt lat="45.04074" lon="5.49474">
        <ele>1382</ele>
        <time>2021-07-02T13:12:01Z</time>
      </trkpt>
      <trkpt lat="45.04069" lon="5.49483">
        <ele>1380</ele>
        <time>2021-07-02T13:12:20Z</time>
      </trkpt>
      <trkpt lat="45.04059" lon="5.49496">
        <ele>1378</ele>
        <time>2021-07-02T13:12:35Z</time>
      </trkpt>
      <trkpt lat="45.04055" lon="5.49499">
        <ele>1376</ele>
        <time>2021-07-02T13:12:41Z</time>
      </trkpt>
      <trkpt lat="45.04046" lon="5.49501">
        <ele>1375</ele>
        <time>2021-07-02T13:12:52Z</time>
      </trkpt>
      <trkpt lat="45.04042" lon="5.49504">
        <ele>1374</ele>
        <time>2021-07-02T13:12:55Z</time>
      </trkpt>
      <trkpt lat="45.04037" lon="5.49505">
        <ele>1374</ele>
        <time>2021-07-02T13:13:02Z</time>
      </trkpt>
      <trkpt lat="45.04022" lon="5.49509">
        <ele>1373</ele>
        <time>2021-07-02T13:13:18Z</time>
      </trkpt>
      <trkpt lat="45.04013" lon="5.49507">
        <ele>1371</ele>
        <time>2021-07-02T13:13:28Z</time>
      </trkpt>
      <trkpt lat="45.04007" lon="5.4951">
        <ele>1370</ele>
        <time>2021-07-02T13:13:34Z</time>
      </trkpt>
      <trkpt lat="45.03986" lon="5.49512">
        <ele>1367</ele>
        <time>2021-07-02T13:13:56Z</time>
      </trkpt>
      <trkpt lat="45.03983" lon="5.49515">
        <ele>1366</ele>
        <time>2021-07-02T13:14:01Z</time>
      </trkpt>
      <trkpt lat="45.03962" lon="5.49535">
        <ele>1360</ele>
        <time>2021-07-02T13:14:34Z</time>
      </trkpt>
      <trkpt lat="45.0396" lon="5.49543">
        <ele>1358</ele>
        <time>2021-07-02T13:14:41Z</time>
      </trkpt>
      <trkpt lat="45.03957" lon="5.49548">
        <ele>1357</ele>
        <time>2021-07-02T13:14:47Z</time>
      </trkpt>
      <trkpt lat="45.03954" lon="5.4956">
        <ele>1354</ele>
        <time>2021-07-02T13:14:59Z</time>
      </trkpt>
      <trkpt lat="45.03943" lon="5.49573">
        <ele>1350</ele>
        <time>2021-07-02T13:15:17Z</time>
      </trkpt>
      <trkpt lat="45.03939" lon="5.49573">
        <ele>1349</ele>
        <time>2021-07-02T13:15:22Z</time>
      </trkpt>
      <trkpt lat="45.03911" lon="5.49591">
        <ele>1345</ele>
        <time>2021-07-02T13:15:47Z</time>
      </trkpt>
      <trkpt lat="45.03907" lon="5.49591">
        <ele>1344</ele>
        <time>2021-07-02T13:15:51Z</time>
      </trkpt>
      <trkpt lat="45.03903" lon="5.49594">
        <ele>1343</ele>
        <time>2021-07-02T13:15:58Z</time>
      </trkpt>
      <trkpt lat="45.03905" lon="5.49597">
        <ele>1342</ele>
        <time>2021-07-02T13:17:32Z</time>
      </trkpt>
      <trkpt lat="45.03909" lon="5.49603">
        <ele>1342</ele>
        <time>2021-07-02T13:17:43Z</time>
      </trkpt>
      <trkpt lat="45.03914" lon="5.49602">
        <ele>1342</ele>
        <time>2021-07-02T13:17:58Z</time>
      </trkpt>
      <trkpt lat="45.03918" lon="5.49607">
        <ele>1341</ele>
        <time>2021-07-02T13:18:05Z</time>
      </trkpt>
      <trkpt lat="45.03923" lon="5.49611">
        <ele>1340</ele>
        <time>2021-07-02T13:18:12Z</time>
      </trkpt>
      <trkpt lat="45.03926" lon="5.49616">
        <ele>1339</ele>
        <time>2021-07-02T13:18:18Z</time>
      </trkpt>
      <trkpt lat="45.0393" lon="5.49621">
        <ele>1339</ele>
        <time>2021-07-02T13:18:24Z</time>
      </trkpt>
      <trkpt lat="45.0394" lon="5.4962">
        <ele>1337</ele>
        <time>2021-07-02T13:18:35Z</time>
      </trkpt>
      <trkpt lat="45.03954" lon="5.49628">
        <ele>1335</ele>
        <time>2021-07-02T13:18:46Z</time>
      </trkpt>
      <trkpt lat="45.03981" lon="5.49632">
        <ele>1331</ele>
        <time>2021-07-02T13:19:14Z</time>
      </trkpt>
      <trkpt lat="45.03989" lon="5.49632">
        <ele>1330</ele>
        <time>2021-07-02T13:19:23Z</time>
      </trkpt>
      <trkpt lat="45.03993" lon="5.49634">
        <ele>1330</ele>
        <time>2021-07-02T13:19:28Z</time>
      </trkpt>
      <trkpt lat="45.04013" lon="5.49638">
        <ele>1328</ele>
        <time>2021-07-02T13:19:44Z</time>
      </trkpt>
      <trkpt lat="45.04034" lon="5.49647">
        <ele>1326</ele>
        <time>2021-07-02T13:20:01Z</time>
      </trkpt>
      <trkpt lat="45.04038" lon="5.4965">
        <ele>1325</ele>
        <time>2021-07-02T13:20:05Z</time>
      </trkpt>
      <trkpt lat="45.04043" lon="5.49657">
        <ele>1324</ele>
        <time>2021-07-02T13:20:13Z</time>
      </trkpt>
      <trkpt lat="45.04055" lon="5.49666">
        <ele>1322</ele>
        <time>2021-07-02T13:20:28Z</time>
      </trkpt>
      <trkpt lat="45.04076" lon="5.49675">
        <ele>1318</ele>
        <time>2021-07-02T13:21:00Z</time>
      </trkpt>
      <trkpt lat="45.04086" lon="5.49675">
        <ele>1317</ele>
        <time>2021-07-02T13:21:11Z</time>
      </trkpt>
      <trkpt lat="45.04104" lon="5.49681">
        <ele>1315</ele>
        <time>2021-07-02T13:21:27Z</time>
      </trkpt>
      <trkpt lat="45.04124" lon="5.49683">
        <ele>1312</ele>
        <time>2021-07-02T13:21:43Z</time>
      </trkpt>
      <trkpt lat="45.04129" lon="5.49685">
        <ele>1311</ele>
        <time>2021-07-02T13:21:48Z</time>
      </trkpt>
      <trkpt lat="45.04145" lon="5.4969">
        <ele>1309</ele>
        <time>2021-07-02T13:22:02Z</time>
      </trkpt>
      <trkpt lat="45.04176" lon="5.49705">
        <ele>1305</ele>
        <time>2021-07-02T13:22:30Z</time>
      </trkpt>
      <trkpt lat="45.0418" lon="5.49709">
        <ele>1305</ele>
        <time>2021-07-02T13:22:33Z</time>
      </trkpt>
      <trkpt lat="45.04215" lon="5.49728">
        <ele>1300</ele>
        <time>2021-07-02T13:23:06Z</time>
      </trkpt>
      <trkpt lat="45.0423" lon="5.49733">
        <ele>1298</ele>
        <time>2021-07-02T13:23:21Z</time>
      </trkpt>
      <trkpt lat="45.04253" lon="5.49744">
        <ele>1296</ele>
        <time>2021-07-02T13:23:41Z</time>
      </trkpt>
      <trkpt lat="45.04257" lon="5.49749">
        <ele>1296</ele>
        <time>2021-07-02T13:23:45Z</time>
      </trkpt>
      <trkpt lat="45.04262" lon="5.49752">
        <ele>1295</ele>
        <time>2021-07-02T13:23:48Z</time>
      </trkpt>
      <trkpt lat="45.04265" lon="5.49759">
        <ele>1295</ele>
        <time>2021-07-02T13:23:53Z</time>
      </trkpt>
      <trkpt lat="45.04267" lon="5.49765">
        <ele>1294</ele>
        <time>2021-07-02T13:23:58Z</time>
      </trkpt>
      <trkpt lat="45.04269" lon="5.4978">
        <ele>1293</ele>
        <time>2021-07-02T13:24:06Z</time>
      </trkpt>
      <trkpt lat="45.04271" lon="5.49785">
        <ele>1293</ele>
        <time>2021-07-02T13:24:10Z</time>
      </trkpt>
      <trkpt lat="45.04274" lon="5.49805">
        <ele>1292</ele>
        <time>2021-07-02T13:24:23Z</time>
      </trkpt>
      <trkpt lat="45.04281" lon="5.49828">
        <ele>1290</ele>
        <time>2021-07-02T13:24:40Z</time>
      </trkpt>
      <trkpt lat="45.04285" lon="5.49834">
        <ele>1290</ele>
        <time>2021-07-02T13:24:44Z</time>
      </trkpt>
      <trkpt lat="45.04286" lon="5.49839">
        <ele>1289</ele>
        <time>2021-07-02T13:24:47Z</time>
      </trkpt>
      <trkpt lat="45.04289" lon="5.49845">
        <ele>1289</ele>
        <time>2021-07-02T13:24:51Z</time>
      </trkpt>
      <trkpt lat="45.04289" lon="5.49872">
        <ele>1287</ele>
        <time>2021-07-02T13:25:08Z</time>
      </trkpt>
      <trkpt lat="45.04277" lon="5.49899">
        <ele>1285</ele>
        <time>2021-07-02T13:25:25Z</time>
      </trkpt>
      <trkpt lat="45.04272" lon="5.49908">
        <ele>1284</ele>
        <time>2021-07-02T13:25:33Z</time>
      </trkpt>
      <trkpt lat="45.04268" lon="5.49921">
        <ele>1283</ele>
        <time>2021-07-02T13:25:41Z</time>
      </trkpt>
      <trkpt lat="45.04269" lon="5.49942">
        <ele>1283</ele>
        <time>2021-07-02T13:25:52Z</time>
      </trkpt>
      <trkpt lat="45.04271" lon="5.49946">
        <ele>1282</ele>
        <time>2021-07-02T13:25:56Z</time>
      </trkpt>
      <trkpt lat="45.0427" lon="5.49949">
        <ele>1281</ele>
        <time>2021-07-02T13:27:13Z</time>
      </trkpt>
      <trkpt lat="45.04275" lon="5.49955">
        <ele>1280</ele>
        <time>2021-07-02T13:27:51Z</time>
      </trkpt>
      <trkpt lat="45.04297" lon="5.49983">
        <ele>1276</ele>
        <time>2021-07-02T13:28:22Z</time>
      </trkpt>
      <trkpt lat="45.04303" lon="5.49993">
        <ele>1276</ele>
        <time>2021-07-02T13:28:30Z</time>
      </trkpt>
      <trkpt lat="45.04303" lon="5.50006">
        <ele>1275</ele>
        <time>2021-07-02T13:28:52Z</time>
      </trkpt>
      <trkpt lat="45.04309" lon="5.50005">
        <ele>1275</ele>
        <time>2021-07-02T13:29:12Z</time>
      </trkpt>
      <trkpt lat="45.04316" lon="5.50002">
        <ele>1273</ele>
        <time>2021-07-02T13:29:21Z</time>
      </trkpt>
      <trkpt lat="45.04324" lon="5.50005">
        <ele>1272</ele>
        <time>2021-07-02T13:29:33Z</time>
      </trkpt>
      <trkpt lat="45.04336" lon="5.50013">
        <ele>1273</ele>
        <time>2021-07-02T13:29:47Z</time>
      </trkpt>
      <trkpt lat="45.04348" lon="5.50018">
        <ele>1272</ele>
        <time>2021-07-02T13:30:02Z</time>
      </trkpt>
      <trkpt lat="45.04354" lon="5.50018">
        <ele>1272</ele>
        <time>2021-07-02T13:30:10Z</time>
      </trkpt>
      <trkpt lat="45.04359" lon="5.50019">
        <ele>1272</ele>
        <time>2021-07-02T13:30:15Z</time>
      </trkpt>
      <trkpt lat="45.04364" lon="5.50019">
        <ele>1272</ele>
        <time>2021-07-02T13:30:23Z</time>
      </trkpt>
      <trkpt lat="45.04368" lon="5.50016">
        <ele>1271</ele>
        <time>2021-07-02T13:30:29Z</time>
      </trkpt>
      <trkpt lat="45.04374" lon="5.50012">
        <ele>1270</ele>
        <time>2021-07-02T13:30:39Z</time>
      </trkpt>
      <trkpt lat="45.04384" lon="5.5001">
        <ele>1269</ele>
        <time>2021-07-02T13:30:49Z</time>
      </trkpt>
      <trkpt lat="45.0439" lon="5.5001">
        <ele>1269</ele>
        <time>2021-07-02T13:30:53Z</time>
      </trkpt>
      <trkpt lat="45.04398" lon="5.50006">
        <ele>1268</ele>
        <time>2021-07-02T13:31:02Z</time>
      </trkpt>
      <trkpt lat="45.04406" lon="5.49998">
        <ele>1267</ele>
        <time>2021-07-02T13:31:10Z</time>
      </trkpt>
      <trkpt lat="45.04424" lon="5.49996">
        <ele>1265</ele>
        <time>2021-07-02T13:31:30Z</time>
      </trkpt>
      <trkpt lat="45.04428" lon="5.49999">
        <ele>1265</ele>
        <time>2021-07-02T13:31:34Z</time>
      </trkpt>
      <trkpt lat="45.04434" lon="5.49998">
        <ele>1265</ele>
        <time>2021-07-02T13:31:37Z</time>
      </trkpt>
      <trkpt lat="45.04438" lon="5.5">
        <ele>1265</ele>
        <time>2021-07-02T13:31:41Z</time>
      </trkpt>
      <trkpt lat="45.04442" lon="5.50006">
        <ele>1266</ele>
        <time>2021-07-02T13:31:46Z</time>
      </trkpt>
      <trkpt lat="45.04446" lon="5.50008">
        <ele>1266</ele>
        <time>2021-07-02T13:31:51Z</time>
      </trkpt>
      <trkpt lat="45.04456" lon="5.50009">
        <ele>1265</ele>
        <time>2021-07-02T13:32:01Z</time>
      </trkpt>
      <trkpt lat="45.04461" lon="5.50006">
        <ele>1265</ele>
        <time>2021-07-02T13:32:06Z</time>
      </trkpt>
      <trkpt lat="45.04465" lon="5.50001">
        <ele>1265</ele>
        <time>2021-07-02T13:32:11Z</time>
      </trkpt>
      <trkpt lat="45.04469" lon="5.49987">
        <ele>1263</ele>
        <time>2021-07-02T13:32:22Z</time>
      </trkpt>
      <trkpt lat="45.04472" lon="5.4998">
        <ele>1263</ele>
        <time>2021-07-02T13:32:28Z</time>
      </trkpt>
      <trkpt lat="45.04485" lon="5.49983">
        <ele>1262</ele>
        <time>2021-07-02T13:32:44Z</time>
      </trkpt>
      <trkpt lat="45.04505" lon="5.49988">
        <ele>1260</ele>
        <time>2021-07-02T13:33:01Z</time>
      </trkpt>
      <trkpt lat="45.04509" lon="5.49987">
        <ele>1260</ele>
        <time>2021-07-02T13:33:05Z</time>
      </trkpt>
      <trkpt lat="45.04512" lon="5.49983">
        <ele>1260</ele>
        <time>2021-07-02T13:33:14Z</time>
      </trkpt>
      <trkpt lat="45.04527" lon="5.49976">
        <ele>1261</ele>
        <time>2021-07-02T13:33:35Z</time>
      </trkpt>
      <trkpt lat="45.04532" lon="5.49978">
        <ele>1261</ele>
        <time>2021-07-02T13:33:40Z</time>
      </trkpt>
      <trkpt lat="45.04554" lon="5.49973">
        <ele>1264</ele>
        <time>2021-07-02T13:34:07Z</time>
      </trkpt>
      <trkpt lat="45.04566" lon="5.49975">
        <ele>1264</ele>
        <time>2021-07-02T13:34:18Z</time>
      </trkpt>
      <trkpt lat="45.04576" lon="5.49979">
        <ele>1263</ele>
        <time>2021-07-02T13:34:26Z</time>
      </trkpt>
      <trkpt lat="45.04581" lon="5.49982">
        <ele>1262</ele>
        <time>2021-07-02T13:34:30Z</time>
      </trkpt>
      <trkpt lat="45.04585" lon="5.49983">
        <ele>1263</ele>
        <time>2021-07-02T13:34:35Z</time>
      </trkpt>
      <trkpt lat="45.04596" lon="5.49985">
        <ele>1264</ele>
        <time>2021-07-02T13:34:47Z</time>
      </trkpt>
      <trkpt lat="45.04599" lon="5.4998">
        <ele>1264</ele>
        <time>2021-07-02T13:34:50Z</time>
      </trkpt>
      <trkpt lat="45.04603" lon="5.49973">
        <ele>1265</ele>
        <time>2021-07-02T13:34:58Z</time>
      </trkpt>
      <trkpt lat="45.04607" lon="5.49967">
        <ele>1266</ele>
        <time>2021-07-02T13:35:08Z</time>
      </trkpt>
      <trkpt lat="45.04615" lon="5.4997">
        <ele>1267</ele>
        <time>2021-07-02T13:35:17Z</time>
      </trkpt>
      <trkpt lat="45.0462" lon="5.49972">
        <ele>1267</ele>
        <time>2021-07-02T13:35:21Z</time>
      </trkpt>
      <trkpt lat="45.04624" lon="5.49976">
        <ele>1267</ele>
        <time>2021-07-02T13:35:25Z</time>
      </trkpt>
      <trkpt lat="45.04632" lon="5.49985">
        <ele>1268</ele>
        <time>2021-07-02T13:35:33Z</time>
      </trkpt>
      <trkpt lat="45.04636" lon="5.49992">
        <ele>1268</ele>
        <time>2021-07-02T13:35:40Z</time>
      </trkpt>
      <trkpt lat="45.04639" lon="5.49995">
        <ele>1267</ele>
        <time>2021-07-02T13:35:44Z</time>
      </trkpt>
      <trkpt lat="45.04644" lon="5.49999">
        <ele>1267</ele>
        <time>2021-07-02T13:35:49Z</time>
      </trkpt>
      <trkpt lat="45.04652" lon="5.50006">
        <ele>1266</ele>
        <time>2021-07-02T13:35:56Z</time>
      </trkpt>
      <trkpt lat="45.04656" lon="5.50009">
        <ele>1266</ele>
        <time>2021-07-02T13:36:03Z</time>
      </trkpt>
      <trkpt lat="45.04661" lon="5.50012">
        <ele>1266</ele>
        <time>2021-07-02T13:36:07Z</time>
      </trkpt>
      <trkpt lat="45.04666" lon="5.50015">
        <ele>1266</ele>
        <time>2021-07-02T13:36:11Z</time>
      </trkpt>
      <trkpt lat="45.04672" lon="5.50021">
        <ele>1264</ele>
        <time>2021-07-02T13:36:19Z</time>
      </trkpt>
      <trkpt lat="45.04677" lon="5.50022">
        <ele>1264</ele>
        <time>2021-07-02T13:36:25Z</time>
      </trkpt>
      <trkpt lat="45.04682" lon="5.5002">
        <ele>1264</ele>
        <time>2021-07-02T13:36:29Z</time>
      </trkpt>
      <trkpt lat="45.04687" lon="5.50021">
        <ele>1264</ele>
        <time>2021-07-02T13:36:33Z</time>
      </trkpt>
      <trkpt lat="45.04693" lon="5.50024">
        <ele>1264</ele>
        <time>2021-07-02T13:36:40Z</time>
      </trkpt>
      <trkpt lat="45.04698" lon="5.50023">
        <ele>1263</ele>
        <time>2021-07-02T13:36:47Z</time>
      </trkpt>
      <trkpt lat="45.04706" lon="5.50022">
        <ele>1264</ele>
        <time>2021-07-02T13:36:56Z</time>
      </trkpt>
      <trkpt lat="45.04713" lon="5.50023">
        <ele>1265</ele>
        <time>2021-07-02T13:37:06Z</time>
      </trkpt>
      <trkpt lat="45.04721" lon="5.50024">
        <ele>1264</ele>
        <time>2021-07-02T13:37:16Z</time>
      </trkpt>
      <trkpt lat="45.04725" lon="5.50027">
        <ele>1264</ele>
        <time>2021-07-02T13:37:20Z</time>
      </trkpt>
      <trkpt lat="45.0473" lon="5.50027">
        <ele>1264</ele>
        <time>2021-07-02T13:37:25Z</time>
      </trkpt>
      <trkpt lat="45.04737" lon="5.50022">
        <ele>1265</ele>
        <time>2021-07-02T13:37:32Z</time>
      </trkpt>
      <trkpt lat="45.04746" lon="5.50024">
        <ele>1266</ele>
        <time>2021-07-02T13:37:40Z</time>
      </trkpt>
      <trkpt lat="45.04755" lon="5.50029">
        <ele>1266</ele>
        <time>2021-07-02T13:37:47Z</time>
      </trkpt>
      <trkpt lat="45.04759" lon="5.50033">
        <ele>1266</ele>
        <time>2021-07-02T13:37:51Z</time>
      </trkpt>
      <trkpt lat="45.04768" lon="5.50045">
        <ele>1268</ele>
        <time>2021-07-02T13:38:05Z</time>
      </trkpt>
      <trkpt lat="45.04772" lon="5.50051">
        <ele>1268</ele>
        <time>2021-07-02T13:38:13Z</time>
      </trkpt>
      <trkpt lat="45.04777" lon="5.50052">
        <ele>1268</ele>
        <time>2021-07-02T13:38:17Z</time>
      </trkpt>
      <trkpt lat="45.04784" lon="5.50053">
        <ele>1267</ele>
        <time>2021-07-02T13:38:27Z</time>
      </trkpt>
      <trkpt lat="45.04791" lon="5.50052">
        <ele>1267</ele>
        <time>2021-07-02T13:38:35Z</time>
      </trkpt>
      <trkpt lat="45.04794" lon="5.50057">
        <ele>1267</ele>
        <time>2021-07-02T13:38:43Z</time>
      </trkpt>
      <trkpt lat="45.04795" lon="5.50051">
        <ele>1267</ele>
        <time>2021-07-02T13:38:53Z</time>
      </trkpt>
      <trkpt lat="45.04802" lon="5.50061">
        <ele>1266</ele>
        <time>2021-07-02T13:39:01Z</time>
      </trkpt>
      <trkpt lat="45.04818" lon="5.50076">
        <ele>1265</ele>
        <time>2021-07-02T13:39:18Z</time>
      </trkpt>
      <trkpt lat="45.04819" lon="5.50082">
        <ele>1265</ele>
        <time>2021-07-02T13:39:22Z</time>
      </trkpt>
      <trkpt lat="45.04821" lon="5.50087">
        <ele>1265</ele>
        <time>2021-07-02T13:39:26Z</time>
      </trkpt>
      <trkpt lat="45.04816" lon="5.50091">
        <ele>1265</ele>
        <time>2021-07-02T13:39:44Z</time>
      </trkpt>
      <trkpt lat="45.0481" lon="5.50104">
        <ele>1266</ele>
        <time>2021-07-02T13:40:00Z</time>
      </trkpt>
      <trkpt lat="45.04806" lon="5.5011">
        <ele>1267</ele>
        <time>2021-07-02T13:40:07Z</time>
      </trkpt>
      <trkpt lat="45.04809" lon="5.5011">
        <ele>1267</ele>
        <time>2021-07-02T13:40:22Z</time>
      </trkpt>
      <trkpt lat="45.04813" lon="5.50107">
        <ele>1267</ele>
        <time>2021-07-02T13:40:33Z</time>
      </trkpt>
      <trkpt lat="45.04812" lon="5.50106">
        <ele>1267</ele>
        <time>2021-07-02T13:41:15Z</time>
      </trkpt>
      <trkpt lat="45.0481" lon="5.50115">
        <ele>1266</ele>
        <time>2021-07-02T13:43:37Z</time>
      </trkpt>
      <trkpt lat="45.04813" lon="5.50112">
        <ele>1266</ele>
        <time>2021-07-02T13:44:07Z</time>
      </trkpt>
      <trkpt lat="45.04809" lon="5.50108">
        <ele>1266</ele>
        <time>2021-07-02T13:44:11Z</time>
      </trkpt>
      <trkpt lat="45.04809" lon="5.50102">
        <ele>1266</ele>
        <time>2021-07-02T13:44:22Z</time>
      </trkpt>
      <trkpt lat="45.04813" lon="5.50102">
        <ele>1266</ele>
        <time>2021-07-02T13:44:32Z</time>
      </trkpt>
      <trkpt lat="45.04816" lon="5.50091">
        <ele>1264</ele>
        <time>2021-07-02T13:44:41Z</time>
      </trkpt>
      <trkpt lat="45.04824" lon="5.50091">
        <ele>1264</ele>
        <time>2021-07-02T13:44:48Z</time>
      </trkpt>
      <trkpt lat="45.04828" lon="5.50097">
        <ele>1263</ele>
        <time>2021-07-02T13:44:52Z</time>
      </trkpt>
      <trkpt lat="45.04826" lon="5.50091">
        <ele>1262</ele>
        <time>2021-07-02T13:45:03Z</time>
      </trkpt>
      <trkpt lat="45.04823" lon="5.50087">
        <ele>1263</ele>
        <time>2021-07-02T13:45:07Z</time>
      </trkpt>
      <trkpt lat="45.04826" lon="5.5008">
        <ele>1262</ele>
        <time>2021-07-02T13:45:29Z</time>
      </trkpt>
      <trkpt lat="45.0483" lon="5.50076">
        <ele>1262</ele>
        <time>2021-07-02T13:46:34Z</time>
      </trkpt>
      <trkpt lat="45.04835" lon="5.5008">
        <ele>1261</ele>
        <time>2021-07-02T13:46:39Z</time>
      </trkpt>
      <trkpt lat="45.04838" lon="5.50088">
        <ele>1259</ele>
        <time>2021-07-02T13:46:47Z</time>
      </trkpt>
      <trkpt lat="45.04845" lon="5.50094">
        <ele>1257</ele>
        <time>2021-07-02T13:46:56Z</time>
      </trkpt>
      <trkpt lat="45.0485" lon="5.50096">
        <ele>1256</ele>
        <time>2021-07-02T13:47:03Z</time>
      </trkpt>
      <trkpt lat="45.04856" lon="5.50088">
        <ele>1254</ele>
        <time>2021-07-02T13:47:15Z</time>
      </trkpt>
      <trkpt lat="45.04863" lon="5.50087">
        <ele>1253</ele>
        <time>2021-07-02T13:47:23Z</time>
      </trkpt>
      <trkpt lat="45.04878" lon="5.50086">
        <ele>1254</ele>
        <time>2021-07-02T13:47:38Z</time>
      </trkpt>
      <trkpt lat="45.04887" lon="5.50082">
        <ele>1253</ele>
        <time>2021-07-02T13:47:47Z</time>
      </trkpt>
      <trkpt lat="45.04892" lon="5.50078">
        <ele>1253</ele>
        <time>2021-07-02T13:47:52Z</time>
      </trkpt>
      <trkpt lat="45.04896" lon="5.50077">
        <ele>1252</ele>
        <time>2021-07-02T13:47:56Z</time>
      </trkpt>
      <trkpt lat="45.04897" lon="5.50069">
        <ele>1252</ele>
        <time>2021-07-02T13:48:00Z</time>
      </trkpt>
      <trkpt lat="45.04902" lon="5.50063">
        <ele>1253</ele>
        <time>2021-07-02T13:48:07Z</time>
      </trkpt>
      <trkpt lat="45.04907" lon="5.50066">
        <ele>1252</ele>
        <time>2021-07-02T13:48:12Z</time>
      </trkpt>
      <trkpt lat="45.04914" lon="5.50067">
        <ele>1251</ele>
        <time>2021-07-02T13:48:20Z</time>
      </trkpt>
      <trkpt lat="45.04919" lon="5.50069">
        <ele>1251</ele>
        <time>2021-07-02T13:48:25Z</time>
      </trkpt>
      <trkpt lat="45.04924" lon="5.50074">
        <ele>1250</ele>
        <time>2021-07-02T13:48:32Z</time>
      </trkpt>
      <trkpt lat="45.04927" lon="5.5008">
        <ele>1250</ele>
        <time>2021-07-02T13:48:35Z</time>
      </trkpt>
      <trkpt lat="45.04938" lon="5.50094">
        <ele>1251</ele>
        <time>2021-07-02T13:48:49Z</time>
      </trkpt>
      <trkpt lat="45.04944" lon="5.50107">
        <ele>1251</ele>
        <time>2021-07-02T13:49:00Z</time>
      </trkpt>
      <trkpt lat="45.04951" lon="5.50107">
        <ele>1251</ele>
        <time>2021-07-02T13:49:07Z</time>
      </trkpt>
      <trkpt lat="45.04966" lon="5.50118">
        <ele>1252</ele>
        <time>2021-07-02T13:49:24Z</time>
      </trkpt>
      <trkpt lat="45.0498" lon="5.50137">
        <ele>1252</ele>
        <time>2021-07-02T13:49:40Z</time>
      </trkpt>
      <trkpt lat="45.0499" lon="5.50142">
        <ele>1252</ele>
        <time>2021-07-02T13:49:50Z</time>
      </trkpt>
      <trkpt lat="45.04994" lon="5.50144">
        <ele>1252</ele>
        <time>2021-07-02T13:49:55Z</time>
      </trkpt>
      <trkpt lat="45.05002" lon="5.50148">
        <ele>1252</ele>
        <time>2021-07-02T13:50:05Z</time>
      </trkpt>
      <trkpt lat="45.05007" lon="5.50148">
        <ele>1252</ele>
        <time>2021-07-02T13:50:09Z</time>
      </trkpt>
      <trkpt lat="45.05018" lon="5.50149">
        <ele>1252</ele>
        <time>2021-07-02T13:50:25Z</time>
      </trkpt>
      <trkpt lat="45.05022" lon="5.50151">
        <ele>1251</ele>
        <time>2021-07-02T13:50:30Z</time>
      </trkpt>
      <trkpt lat="45.05027" lon="5.50152">
        <ele>1251</ele>
        <time>2021-07-02T13:50:34Z</time>
      </trkpt>
      <trkpt lat="45.05032" lon="5.5015">
        <ele>1251</ele>
        <time>2021-07-02T13:50:46Z</time>
      </trkpt>
      <trkpt lat="45.0504" lon="5.50151">
        <ele>1251</ele>
        <time>2021-07-02T13:50:58Z</time>
      </trkpt>
      <trkpt lat="45.05044" lon="5.5015">
        <ele>1248</ele>
        <time>2021-07-02T13:51:10Z</time>
      </trkpt>
      <trkpt lat="45.05048" lon="5.50153">
        <ele>1248</ele>
        <time>2021-07-02T13:51:14Z</time>
      </trkpt>
      <trkpt lat="45.05052" lon="5.50159">
        <ele>1248</ele>
        <time>2021-07-02T13:51:19Z</time>
      </trkpt>
      <trkpt lat="45.05066" lon="5.50161">
        <ele>1247</ele>
        <time>2021-07-02T13:51:35Z</time>
      </trkpt>
      <trkpt lat="45.0507" lon="5.50163">
        <ele>1247</ele>
        <time>2021-07-02T13:51:40Z</time>
      </trkpt>
      <trkpt lat="45.05082" lon="5.50163">
        <ele>1246</ele>
        <time>2021-07-02T13:51:52Z</time>
      </trkpt>
      <trkpt lat="45.05087" lon="5.50166">
        <ele>1246</ele>
        <time>2021-07-02T13:51:56Z</time>
      </trkpt>
      <trkpt lat="45.05092" lon="5.50167">
        <ele>1246</ele>
        <time>2021-07-02T13:52:01Z</time>
      </trkpt>
      <trkpt lat="45.05103" lon="5.50169">
        <ele>1245</ele>
        <time>2021-07-02T13:52:10Z</time>
      </trkpt>
      <trkpt lat="45.05108" lon="5.50171">
        <ele>1245</ele>
        <time>2021-07-02T13:52:14Z</time>
      </trkpt>
      <trkpt lat="45.05126" lon="5.50177">
        <ele>1244</ele>
        <time>2021-07-02T13:52:33Z</time>
      </trkpt>
      <trkpt lat="45.05132" lon="5.50178">
        <ele>1243</ele>
        <time>2021-07-02T13:52:37Z</time>
      </trkpt>
      <trkpt lat="45.05145" lon="5.50186">
        <ele>1242</ele>
        <time>2021-07-02T13:52:48Z</time>
      </trkpt>
      <trkpt lat="45.05154" lon="5.50187">
        <ele>1242</ele>
        <time>2021-07-02T13:52:56Z</time>
      </trkpt>
      <trkpt lat="45.05158" lon="5.50191">
        <ele>1242</ele>
        <time>2021-07-02T13:52:59Z</time>
      </trkpt>
      <trkpt lat="45.05163" lon="5.50193">
        <ele>1242</ele>
        <time>2021-07-02T13:53:03Z</time>
      </trkpt>
      <trkpt lat="45.05168" lon="5.50194">
        <ele>1242</ele>
        <time>2021-07-02T13:53:07Z</time>
      </trkpt>
      <trkpt lat="45.05174" lon="5.50196">
        <ele>1242</ele>
        <time>2021-07-02T13:53:13Z</time>
      </trkpt>
      <trkpt lat="45.05183" lon="5.50199">
        <ele>1242</ele>
        <time>2021-07-02T13:53:22Z</time>
      </trkpt>
      <trkpt lat="45.05191" lon="5.50208">
        <ele>1241</ele>
        <time>2021-07-02T13:53:31Z</time>
      </trkpt>
      <trkpt lat="45.05197" lon="5.50212">
        <ele>1241</ele>
        <time>2021-07-02T13:53:37Z</time>
      </trkpt>
      <trkpt lat="45.05212" lon="5.50229">
        <ele>1242</ele>
        <time>2021-07-02T13:53:54Z</time>
      </trkpt>
      <trkpt lat="45.05218" lon="5.50239">
        <ele>1243</ele>
        <time>2021-07-02T13:54:03Z</time>
      </trkpt>
      <trkpt lat="45.0522" lon="5.50245">
        <ele>1243</ele>
        <time>2021-07-02T13:54:07Z</time>
      </trkpt>
      <trkpt lat="45.05221" lon="5.50251">
        <ele>1243</ele>
        <time>2021-07-02T13:54:11Z</time>
      </trkpt>
      <trkpt lat="45.05226" lon="5.50263">
        <ele>1242</ele>
        <time>2021-07-02T13:54:19Z</time>
      </trkpt>
      <trkpt lat="45.05226" lon="5.5027">
        <ele>1242</ele>
        <time>2021-07-02T13:54:23Z</time>
      </trkpt>
      <trkpt lat="45.05225" lon="5.50277">
        <ele>1242</ele>
        <time>2021-07-02T13:54:30Z</time>
      </trkpt>
      <trkpt lat="45.05219" lon="5.50283">
        <ele>1241</ele>
        <time>2021-07-02T13:54:39Z</time>
      </trkpt>
      <trkpt lat="45.05212" lon="5.50287">
        <ele>1240</ele>
        <time>2021-07-02T13:54:47Z</time>
      </trkpt>
      <trkpt lat="45.05214" lon="5.50293">
        <ele>1239</ele>
        <time>2021-07-02T13:54:53Z</time>
      </trkpt>
      <trkpt lat="45.05214" lon="5.50302">
        <ele>1237</ele>
        <time>2021-07-02T13:55:05Z</time>
      </trkpt>
      <trkpt lat="45.05216" lon="5.50309">
        <ele>1235</ele>
        <time>2021-07-02T13:55:11Z</time>
      </trkpt>
      <trkpt lat="45.05216" lon="5.50315">
        <ele>1234</ele>
        <time>2021-07-02T13:55:18Z</time>
      </trkpt>
      <trkpt lat="45.05225" lon="5.50332">
        <ele>1232</ele>
        <time>2021-07-02T13:55:34Z</time>
      </trkpt>
      <trkpt lat="45.05233" lon="5.50333">
        <ele>1231</ele>
        <time>2021-07-02T13:55:45Z</time>
      </trkpt>
      <trkpt lat="45.0524" lon="5.50328">
        <ele>1230</ele>
        <time>2021-07-02T13:55:54Z</time>
      </trkpt>
      <trkpt lat="45.05249" lon="5.50322">
        <ele>1230</ele>
        <time>2021-07-02T13:56:03Z</time>
      </trkpt>
      <trkpt lat="45.05255" lon="5.50323">
        <ele>1231</ele>
        <time>2021-07-02T13:56:10Z</time>
      </trkpt>
      <trkpt lat="45.05264" lon="5.50324">
        <ele>1230</ele>
        <time>2021-07-02T13:56:19Z</time>
      </trkpt>
      <trkpt lat="45.05269" lon="5.5033">
        <ele>1230</ele>
        <time>2021-07-02T13:56:26Z</time>
      </trkpt>
      <trkpt lat="45.05274" lon="5.50344">
        <ele>1227</ele>
        <time>2021-07-02T13:56:43Z</time>
      </trkpt>
      <trkpt lat="45.05274" lon="5.50352">
        <ele>1226</ele>
        <time>2021-07-02T13:56:48Z</time>
      </trkpt>
      <trkpt lat="45.05271" lon="5.50356">
        <ele>1226</ele>
        <time>2021-07-02T13:56:52Z</time>
      </trkpt>
      <trkpt lat="45.05269" lon="5.50362">
        <ele>1226</ele>
        <time>2021-07-02T13:56:56Z</time>
      </trkpt>
      <trkpt lat="45.05268" lon="5.50378">
        <ele>1228</ele>
        <time>2021-07-02T13:57:12Z</time>
      </trkpt>
      <trkpt lat="45.05271" lon="5.50384">
        <ele>1229</ele>
        <time>2021-07-02T13:57:18Z</time>
      </trkpt>
      <trkpt lat="45.05272" lon="5.50391">
        <ele>1229</ele>
        <time>2021-07-02T13:57:23Z</time>
      </trkpt>
      <trkpt lat="45.05274" lon="5.50403">
        <ele>1227</ele>
        <time>2021-07-02T13:57:33Z</time>
      </trkpt>
      <trkpt lat="45.05278" lon="5.50407">
        <ele>1226</ele>
        <time>2021-07-02T13:57:37Z</time>
      </trkpt>
      <trkpt lat="45.05283" lon="5.5042">
        <ele>1226</ele>
        <time>2021-07-02T13:57:49Z</time>
      </trkpt>
      <trkpt lat="45.05285" lon="5.50444">
        <ele>1229</ele>
        <time>2021-07-02T13:58:09Z</time>
      </trkpt>
      <trkpt lat="45.05289" lon="5.50449">
        <ele>1229</ele>
        <time>2021-07-02T13:58:17Z</time>
      </trkpt>
      <trkpt lat="45.0529" lon="5.50455">
        <ele>1229</ele>
        <time>2021-07-02T13:58:22Z</time>
      </trkpt>
      <trkpt lat="45.05291" lon="5.50462">
        <ele>1229</ele>
        <time>2021-07-02T13:58:26Z</time>
      </trkpt>
      <trkpt lat="45.05294" lon="5.50468">
        <ele>1229</ele>
        <time>2021-07-02T13:58:31Z</time>
      </trkpt>
      <trkpt lat="45.05302" lon="5.50479">
        <ele>1228</ele>
        <time>2021-07-02T13:58:42Z</time>
      </trkpt>
      <trkpt lat="45.05308" lon="5.50492">
        <ele>1227</ele>
        <time>2021-07-02T13:58:51Z</time>
      </trkpt>
      <trkpt lat="45.05311" lon="5.50496">
        <ele>1227</ele>
        <time>2021-07-02T13:58:54Z</time>
      </trkpt>
      <trkpt lat="45.05314" lon="5.50501">
        <ele>1227</ele>
        <time>2021-07-02T13:58:57Z</time>
      </trkpt>
      <trkpt lat="45.05315" lon="5.50507">
        <ele>1226</ele>
        <time>2021-07-02T13:59:01Z</time>
      </trkpt>
      <trkpt lat="45.05325" lon="5.5053">
        <ele>1225</ele>
        <time>2021-07-02T13:59:20Z</time>
      </trkpt>
      <trkpt lat="45.05329" lon="5.50534">
        <ele>1224</ele>
        <time>2021-07-02T13:59:26Z</time>
      </trkpt>
      <trkpt lat="45.0534" lon="5.50539">
        <ele>1221</ele>
        <time>2021-07-02T13:59:41Z</time>
      </trkpt>
      <trkpt lat="45.05344" lon="5.50546">
        <ele>1220</ele>
        <time>2021-07-02T13:59:51Z</time>
      </trkpt>
      <trkpt lat="45.05353" lon="5.5056">
        <ele>1216</ele>
        <time>2021-07-02T14:00:05Z</time>
      </trkpt>
      <trkpt lat="45.05354" lon="5.50574">
        <ele>1214</ele>
        <time>2021-07-02T14:00:17Z</time>
      </trkpt>
      <trkpt lat="45.05359" lon="5.50601">
        <ele>1211</ele>
        <time>2021-07-02T14:00:36Z</time>
      </trkpt>
      <trkpt lat="45.05365" lon="5.50603">
        <ele>1211</ele>
        <time>2021-07-02T14:00:43Z</time>
      </trkpt>
      <trkpt lat="45.05373" lon="5.50605">
        <ele>1211</ele>
        <time>2021-07-02T14:00:53Z</time>
      </trkpt>
      <trkpt lat="45.05378" lon="5.50607">
        <ele>1210</ele>
        <time>2021-07-02T14:00:57Z</time>
      </trkpt>
      <trkpt lat="45.05385" lon="5.50611">
        <ele>1208</ele>
        <time>2021-07-02T14:01:07Z</time>
      </trkpt>
      <trkpt lat="45.0539" lon="5.50613">
        <ele>1207</ele>
        <time>2021-07-02T14:01:17Z</time>
      </trkpt>
      <trkpt lat="45.05395" lon="5.50619">
        <ele>1207</ele>
        <time>2021-07-02T14:01:21Z</time>
      </trkpt>
      <trkpt lat="45.05396" lon="5.50625">
        <ele>1206</ele>
        <time>2021-07-02T14:01:25Z</time>
      </trkpt>
      <trkpt lat="45.05399" lon="5.5063">
        <ele>1206</ele>
        <time>2021-07-02T14:01:29Z</time>
      </trkpt>
      <trkpt lat="45.05403" lon="5.50639">
        <ele>1205</ele>
        <time>2021-07-02T14:01:36Z</time>
      </trkpt>
      <trkpt lat="45.05404" lon="5.50653">
        <ele>1205</ele>
        <time>2021-07-02T14:01:45Z</time>
      </trkpt>
      <trkpt lat="45.05404" lon="5.5066">
        <ele>1205</ele>
        <time>2021-07-02T14:01:50Z</time>
      </trkpt>
      <trkpt lat="45.05399" lon="5.50673">
        <ele>1206</ele>
        <time>2021-07-02T14:02:00Z</time>
      </trkpt>
      <trkpt lat="45.05391" lon="5.5068">
        <ele>1206</ele>
        <time>2021-07-02T14:02:09Z</time>
      </trkpt>
      <trkpt lat="45.05381" lon="5.50686">
        <ele>1207</ele>
        <time>2021-07-02T14:02:20Z</time>
      </trkpt>
      <trkpt lat="45.05372" lon="5.50691">
        <ele>1208</ele>
        <time>2021-07-02T14:02:30Z</time>
      </trkpt>
      <trkpt lat="45.05369" lon="5.50697">
        <ele>1209</ele>
        <time>2021-07-02T14:02:34Z</time>
      </trkpt>
      <trkpt lat="45.05369" lon="5.50704">
        <ele>1210</ele>
        <time>2021-07-02T14:02:41Z</time>
      </trkpt>
      <trkpt lat="45.0537" lon="5.50716">
        <ele>1210</ele>
        <time>2021-07-02T14:02:50Z</time>
      </trkpt>
      <trkpt lat="45.0537" lon="5.50723">
        <ele>1210</ele>
        <time>2021-07-02T14:02:54Z</time>
      </trkpt>
      <trkpt lat="45.05369" lon="5.50731">
        <ele>1209</ele>
        <time>2021-07-02T14:02:59Z</time>
      </trkpt>
      <trkpt lat="45.05364" lon="5.50743">
        <ele>1208</ele>
        <time>2021-07-02T14:03:08Z</time>
      </trkpt>
      <trkpt lat="45.05362" lon="5.50756">
        <ele>1208</ele>
        <time>2021-07-02T14:03:16Z</time>
      </trkpt>
      <trkpt lat="45.05359" lon="5.50774">
        <ele>1209</ele>
        <time>2021-07-02T14:03:32Z</time>
      </trkpt>
      <trkpt lat="45.05363" lon="5.50796">
        <ele>1207</ele>
        <time>2021-07-02T14:03:50Z</time>
      </trkpt>
      <trkpt lat="45.05366" lon="5.50802">
        <ele>1207</ele>
        <time>2021-07-02T14:03:55Z</time>
      </trkpt>
      <trkpt lat="45.05369" lon="5.50808">
        <ele>1206</ele>
        <time>2021-07-02T14:04:00Z</time>
      </trkpt>
      <trkpt lat="45.05358" lon="5.50826">
        <ele>1203</ele>
        <time>2021-07-02T14:04:23Z</time>
      </trkpt>
      <trkpt lat="45.05354" lon="5.50832">
        <ele>1201</ele>
        <time>2021-07-02T14:04:33Z</time>
      </trkpt>
      <trkpt lat="45.0535" lon="5.50837">
        <ele>1200</ele>
        <time>2021-07-02T14:04:38Z</time>
      </trkpt>
      <trkpt lat="45.05347" lon="5.50849">
        <ele>1198</ele>
        <time>2021-07-02T14:04:50Z</time>
      </trkpt>
      <trkpt lat="45.05337" lon="5.50869">
        <ele>1193</ele>
        <time>2021-07-02T14:05:10Z</time>
      </trkpt>
      <trkpt lat="45.05333" lon="5.50874">
        <ele>1193</ele>
        <time>2021-07-02T14:05:14Z</time>
      </trkpt>
      <trkpt lat="45.05331" lon="5.50882">
        <ele>1191</ele>
        <time>2021-07-02T14:05:22Z</time>
      </trkpt>
      <trkpt lat="45.05318" lon="5.50891">
        <ele>1190</ele>
        <time>2021-07-02T14:05:33Z</time>
      </trkpt>
      <trkpt lat="45.05305" lon="5.50913">
        <ele>1187</ele>
        <time>2021-07-02T14:05:54Z</time>
      </trkpt>
      <trkpt lat="45.05297" lon="5.50921">
        <ele>1187</ele>
        <time>2021-07-02T14:06:01Z</time>
      </trkpt>
      <trkpt lat="45.05293" lon="5.50925">
        <ele>1187</ele>
        <time>2021-07-02T14:06:06Z</time>
      </trkpt>
      <trkpt lat="45.05274" lon="5.50956">
        <ele>1187</ele>
        <time>2021-07-02T14:06:34Z</time>
      </trkpt>
      <trkpt lat="45.05273" lon="5.50963">
        <ele>1187</ele>
        <time>2021-07-02T14:06:39Z</time>
      </trkpt>
      <trkpt lat="45.05274" lon="5.5097">
        <ele>1185</ele>
        <time>2021-07-02T14:07:06Z</time>
      </trkpt>
      <trkpt lat="45.0527" lon="5.50977">
        <ele>1185</ele>
        <time>2021-07-02T14:07:36Z</time>
      </trkpt>
      <trkpt lat="45.0527" lon="5.50978">
        <ele>1184</ele>
        <time>2021-07-02T14:08:30Z</time>
      </trkpt>
      <trkpt lat="45.05266" lon="5.50984">
        <ele>1183</ele>
        <time>2021-07-02T14:08:45Z</time>
      </trkpt>
      <trkpt lat="45.05266" lon="5.50991">
        <ele>1183</ele>
        <time>2021-07-02T14:09:00Z</time>
      </trkpt>
      <trkpt lat="45.05261" lon="5.5099">
        <ele>1182</ele>
        <time>2021-07-02T14:09:30Z</time>
      </trkpt>
      <trkpt lat="45.05251" lon="5.51007">
        <ele>1178</ele>
        <time>2021-07-02T14:09:58Z</time>
      </trkpt>
      <trkpt lat="45.05246" lon="5.51021">
        <ele>1176</ele>
        <time>2021-07-02T14:10:08Z</time>
      </trkpt>
      <trkpt lat="45.05244" lon="5.51027">
        <ele>1176</ele>
        <time>2021-07-02T14:10:11Z</time>
      </trkpt>
      <trkpt lat="45.05241" lon="5.51041">
        <ele>1176</ele>
        <time>2021-07-02T14:10:21Z</time>
      </trkpt>
      <trkpt lat="45.05237" lon="5.51047">
        <ele>1176</ele>
        <time>2021-07-02T14:10:26Z</time>
      </trkpt>
      <trkpt lat="45.0523" lon="5.51064">
        <ele>1177</ele>
        <time>2021-07-02T14:10:40Z</time>
      </trkpt>
      <trkpt lat="45.05226" lon="5.51088">
        <ele>1180</ele>
        <time>2021-07-02T14:11:01Z</time>
      </trkpt>
      <trkpt lat="45.05227" lon="5.51096">
        <ele>1181</ele>
        <time>2021-07-02T14:11:07Z</time>
      </trkpt>
      <trkpt lat="45.05231" lon="5.51105">
        <ele>1181</ele>
        <time>2021-07-02T14:11:24Z</time>
      </trkpt>
      <trkpt lat="45.05235" lon="5.51113">
        <ele>1182</ele>
        <time>2021-07-02T14:11:36Z</time>
      </trkpt>
      <trkpt lat="45.05243" lon="5.51119">
        <ele>1183</ele>
        <time>2021-07-02T14:11:47Z</time>
      </trkpt>
      <trkpt lat="45.05247" lon="5.51122">
        <ele>1183</ele>
        <time>2021-07-02T14:11:53Z</time>
      </trkpt>
      <trkpt lat="45.05267" lon="5.51118">
        <ele>1183</ele>
        <time>2021-07-02T14:12:15Z</time>
      </trkpt>
      <trkpt lat="45.05271" lon="5.51123">
        <ele>1183</ele>
        <time>2021-07-02T14:12:18Z</time>
      </trkpt>
      <trkpt lat="45.05277" lon="5.51136">
        <ele>1183</ele>
        <time>2021-07-02T14:12:26Z</time>
      </trkpt>
      <trkpt lat="45.05277" lon="5.51142">
        <ele>1184</ele>
        <time>2021-07-02T14:12:31Z</time>
      </trkpt>
      <trkpt lat="45.05275" lon="5.51157">
        <ele>1185</ele>
        <time>2021-07-02T14:12:42Z</time>
      </trkpt>
      <trkpt lat="45.05272" lon="5.51176">
        <ele>1187</ele>
        <time>2021-07-02T14:12:59Z</time>
      </trkpt>
      <trkpt lat="45.05271" lon="5.51184">
        <ele>1187</ele>
        <time>2021-07-02T14:13:06Z</time>
      </trkpt>
      <trkpt lat="45.0527" lon="5.51197">
        <ele>1186</ele>
        <time>2021-07-02T14:13:17Z</time>
      </trkpt>
      <trkpt lat="45.05268" lon="5.51204">
        <ele>1185</ele>
        <time>2021-07-02T14:13:22Z</time>
      </trkpt>
      <trkpt lat="45.05268" lon="5.5121">
        <ele>1184</ele>
        <time>2021-07-02T14:13:26Z</time>
      </trkpt>
      <trkpt lat="45.05266" lon="5.51215">
        <ele>1183</ele>
        <time>2021-07-02T14:13:31Z</time>
      </trkpt>
      <trkpt lat="45.05266" lon="5.51222">
        <ele>1182</ele>
        <time>2021-07-02T14:13:36Z</time>
      </trkpt>
      <trkpt lat="45.05269" lon="5.51221">
        <ele>1182</ele>
        <time>2021-07-02T14:13:55Z</time>
      </trkpt>
      <trkpt lat="45.05268" lon="5.51215">
        <ele>1182</ele>
        <time>2021-07-02T14:14:04Z</time>
      </trkpt>
      <trkpt lat="45.05274" lon="5.5122">
        <ele>1182</ele>
        <time>2021-07-02T14:14:16Z</time>
      </trkpt>
      <trkpt lat="45.05278" lon="5.51215">
        <ele>1182</ele>
        <time>2021-07-02T14:14:32Z</time>
      </trkpt>
      <trkpt lat="45.05284" lon="5.51219">
        <ele>1182</ele>
        <time>2021-07-02T14:14:43Z</time>
      </trkpt>
      <trkpt lat="45.05289" lon="5.51219">
        <ele>1182</ele>
        <time>2021-07-02T14:14:48Z</time>
      </trkpt>
      <trkpt lat="45.05294" lon="5.51217">
        <ele>1182</ele>
        <time>2021-07-02T14:14:56Z</time>
      </trkpt>
      <trkpt lat="45.05313" lon="5.51221">
        <ele>1181</ele>
        <time>2021-07-02T14:15:11Z</time>
      </trkpt>
      <trkpt lat="45.05319" lon="5.5122">
        <ele>1181</ele>
        <time>2021-07-02T14:15:15Z</time>
      </trkpt>
      <trkpt lat="45.05327" lon="5.51216">
        <ele>1181</ele>
        <time>2021-07-02T14:15:21Z</time>
      </trkpt>
      <trkpt lat="45.05336" lon="5.51213">
        <ele>1181</ele>
        <time>2021-07-02T14:15:29Z</time>
      </trkpt>
      <trkpt lat="45.0535" lon="5.51216">
        <ele>1182</ele>
        <time>2021-07-02T14:15:42Z</time>
      </trkpt>
      <trkpt lat="45.05354" lon="5.51218">
        <ele>1182</ele>
        <time>2021-07-02T14:15:46Z</time>
      </trkpt>
      <trkpt lat="45.05379" lon="5.51228">
        <ele>1181</ele>
        <time>2021-07-02T14:16:06Z</time>
      </trkpt>
      <trkpt lat="45.05383" lon="5.5123">
        <ele>1181</ele>
        <time>2021-07-02T14:16:09Z</time>
      </trkpt>
      <trkpt lat="45.05387" lon="5.51234">
        <ele>1181</ele>
        <time>2021-07-02T14:16:14Z</time>
      </trkpt>
      <trkpt lat="45.0539" lon="5.51247">
        <ele>1181</ele>
        <time>2021-07-02T14:16:22Z</time>
      </trkpt>
      <trkpt lat="45.0539" lon="5.51255">
        <ele>1181</ele>
        <time>2021-07-02T14:16:27Z</time>
      </trkpt>
      <trkpt lat="45.05385" lon="5.51267">
        <ele>1180</ele>
        <time>2021-07-02T14:16:35Z</time>
      </trkpt>
      <trkpt lat="45.05375" lon="5.51281">
        <ele>1180</ele>
        <time>2021-07-02T14:16:46Z</time>
      </trkpt>
      <trkpt lat="45.05367" lon="5.51296">
        <ele>1179</ele>
        <time>2021-07-02T14:16:57Z</time>
      </trkpt>
      <trkpt lat="45.05366" lon="5.51302">
        <ele>1179</ele>
        <time>2021-07-02T14:17:01Z</time>
      </trkpt>
      <trkpt lat="45.05364" lon="5.51315">
        <ele>1179</ele>
        <time>2021-07-02T14:17:11Z</time>
      </trkpt>
      <trkpt lat="45.05365" lon="5.51322">
        <ele>1179</ele>
        <time>2021-07-02T14:17:15Z</time>
      </trkpt>
      <trkpt lat="45.05365" lon="5.51329">
        <ele>1179</ele>
        <time>2021-07-02T14:17:19Z</time>
      </trkpt>
      <trkpt lat="45.05367" lon="5.51335">
        <ele>1178</ele>
        <time>2021-07-02T14:17:23Z</time>
      </trkpt>
      <trkpt lat="45.05379" lon="5.5136">
        <ele>1177</ele>
        <time>2021-07-02T14:17:41Z</time>
      </trkpt>
      <trkpt lat="45.05385" lon="5.5137">
        <ele>1177</ele>
        <time>2021-07-02T14:17:49Z</time>
      </trkpt>
      <trkpt lat="45.05389" lon="5.51372">
        <ele>1178</ele>
        <time>2021-07-02T14:17:54Z</time>
      </trkpt>
      <trkpt lat="45.05393" lon="5.51377">
        <ele>1177</ele>
        <time>2021-07-02T14:17:58Z</time>
      </trkpt>
      <trkpt lat="45.05402" lon="5.51387">
        <ele>1176</ele>
        <time>2021-07-02T14:18:11Z</time>
      </trkpt>
      <trkpt lat="45.05406" lon="5.5139">
        <ele>1175</ele>
        <time>2021-07-02T14:18:15Z</time>
      </trkpt>
      <trkpt lat="45.05404" lon="5.51397">
        <ele>1175</ele>
        <time>2021-07-02T14:18:22Z</time>
      </trkpt>
      <trkpt lat="45.05399" lon="5.51402">
        <ele>1174</ele>
        <time>2021-07-02T14:18:29Z</time>
      </trkpt>
      <trkpt lat="45.05394" lon="5.51414">
        <ele>1173</ele>
        <time>2021-07-02T14:18:38Z</time>
      </trkpt>
      <trkpt lat="45.05395" lon="5.51421">
        <ele>1172</ele>
        <time>2021-07-02T14:18:42Z</time>
      </trkpt>
      <trkpt lat="45.05391" lon="5.51417">
        <ele>1172</ele>
        <time>2021-07-02T14:18:54Z</time>
      </trkpt>
      <trkpt lat="45.05392" lon="5.51429">
        <ele>1171</ele>
        <time>2021-07-02T14:19:09Z</time>
      </trkpt>
      <trkpt lat="45.05392" lon="5.51446">
        <ele>1169</ele>
        <time>2021-07-02T14:19:20Z</time>
      </trkpt>
      <trkpt lat="45.0539" lon="5.51455">
        <ele>1168</ele>
        <time>2021-07-02T14:19:27Z</time>
      </trkpt>
      <trkpt lat="45.05385" lon="5.5147">
        <ele>1166</ele>
        <time>2021-07-02T14:19:39Z</time>
      </trkpt>
      <trkpt lat="45.05391" lon="5.51469">
        <ele>1165</ele>
        <time>2021-07-02T14:19:48Z</time>
      </trkpt>
      <trkpt lat="45.05398" lon="5.51467">
        <ele>1164</ele>
        <time>2021-07-02T14:19:55Z</time>
      </trkpt>
      <trkpt lat="45.05408" lon="5.51468">
        <ele>1163</ele>
        <time>2021-07-02T14:20:04Z</time>
      </trkpt>
      <trkpt lat="45.05414" lon="5.51474">
        <ele>1162</ele>
        <time>2021-07-02T14:20:13Z</time>
      </trkpt>
      <trkpt lat="45.05409" lon="5.51489">
        <ele>1159</ele>
        <time>2021-07-02T14:20:30Z</time>
      </trkpt>
      <trkpt lat="45.05406" lon="5.51493">
        <ele>1158</ele>
        <time>2021-07-02T14:20:36Z</time>
      </trkpt>
      <trkpt lat="45.05404" lon="5.51499">
        <ele>1157</ele>
        <time>2021-07-02T14:20:41Z</time>
      </trkpt>
      <trkpt lat="45.05403" lon="5.51505">
        <ele>1156</ele>
        <time>2021-07-02T14:20:46Z</time>
      </trkpt>
      <trkpt lat="45.05402" lon="5.51514">
        <ele>1156</ele>
        <time>2021-07-02T14:20:56Z</time>
      </trkpt>
      <trkpt lat="45.05405" lon="5.51513">
        <ele>1156</ele>
        <time>2021-07-02T14:21:23Z</time>
      </trkpt>
      <trkpt lat="45.05409" lon="5.51511">
        <ele>1156</ele>
        <time>2021-07-02T14:21:58Z</time>
      </trkpt>
      <trkpt lat="45.05415" lon="5.51519">
        <ele>1155</ele>
        <time>2021-07-02T14:22:06Z</time>
      </trkpt>
      <trkpt lat="45.0543" lon="5.51523">
        <ele>1154</ele>
        <time>2021-07-02T14:22:18Z</time>
      </trkpt>
      <trkpt lat="45.05449" lon="5.51538">
        <ele>1152</ele>
        <time>2021-07-02T14:22:37Z</time>
      </trkpt>
      <trkpt lat="45.0545" lon="5.51535">
        <ele>1151</ele>
        <time>2021-07-02T14:22:49Z</time>
      </trkpt>
      <trkpt lat="45.0546" lon="5.5154">
        <ele>1150</ele>
        <time>2021-07-02T14:22:57Z</time>
      </trkpt>
      <trkpt lat="45.05465" lon="5.51545">
        <ele>1150</ele>
        <time>2021-07-02T14:23:04Z</time>
      </trkpt>
      <trkpt lat="45.05487" lon="5.51552">
        <ele>1148</ele>
        <time>2021-07-02T14:23:22Z</time>
      </trkpt>
      <trkpt lat="45.05506" lon="5.51568">
        <ele>1147</ele>
        <time>2021-07-02T14:23:46Z</time>
      </trkpt>
      <trkpt lat="45.0551" lon="5.51571">
        <ele>1146</ele>
        <time>2021-07-02T14:23:50Z</time>
      </trkpt>
      <trkpt lat="45.05514" lon="5.5158">
        <ele>1146</ele>
        <time>2021-07-02T14:23:58Z</time>
      </trkpt>
      <trkpt lat="45.05522" lon="5.51587">
        <ele>1145</ele>
        <time>2021-07-02T14:24:07Z</time>
      </trkpt>
      <trkpt lat="45.05533" lon="5.51589">
        <ele>1145</ele>
        <time>2021-07-02T14:24:15Z</time>
      </trkpt>
      <trkpt lat="45.05538" lon="5.51594">
        <ele>1144</ele>
        <time>2021-07-02T14:24:19Z</time>
      </trkpt>
      <trkpt lat="45.05543" lon="5.51595">
        <ele>1144</ele>
        <time>2021-07-02T14:24:23Z</time>
      </trkpt>
      <trkpt lat="45.05547" lon="5.516">
        <ele>1144</ele>
        <time>2021-07-02T14:24:27Z</time>
      </trkpt>
      <trkpt lat="45.05554" lon="5.51593">
        <ele>1142</ele>
        <time>2021-07-02T14:24:49Z</time>
      </trkpt>
      <trkpt lat="45.05562" lon="5.51595">
        <ele>1140</ele>
        <time>2021-07-02T14:24:58Z</time>
      </trkpt>
      <trkpt lat="45.05563" lon="5.51601">
        <ele>1140</ele>
        <time>2021-07-02T14:25:02Z</time>
      </trkpt>
      <trkpt lat="45.05558" lon="5.51634">
        <ele>1138</ele>
        <time>2021-07-02T14:25:22Z</time>
      </trkpt>
      <trkpt lat="45.05559" lon="5.51641">
        <ele>1138</ele>
        <time>2021-07-02T14:25:26Z</time>
      </trkpt>
      <trkpt lat="45.05564" lon="5.51637">
        <ele>1135</ele>
        <time>2021-07-02T14:25:38Z</time>
      </trkpt>
      <trkpt lat="45.05577" lon="5.51623">
        <ele>1132</ele>
        <time>2021-07-02T14:25:55Z</time>
      </trkpt>
      <trkpt lat="45.05584" lon="5.51623">
        <ele>1132</ele>
        <time>2021-07-02T14:26:02Z</time>
      </trkpt>
      <trkpt lat="45.05588" lon="5.51625">
        <ele>1131</ele>
        <time>2021-07-02T14:26:05Z</time>
      </trkpt>
      <trkpt lat="45.05616" lon="5.51631">
        <ele>1127</ele>
        <time>2021-07-02T14:26:34Z</time>
      </trkpt>
      <trkpt lat="45.05621" lon="5.51634">
        <ele>1127</ele>
        <time>2021-07-02T14:26:39Z</time>
      </trkpt>
      <trkpt lat="45.05626" lon="5.51634">
        <ele>1126</ele>
        <time>2021-07-02T14:26:43Z</time>
      </trkpt>
      <trkpt lat="45.05633" lon="5.51638">
        <ele>1124</ele>
        <time>2021-07-02T14:26:55Z</time>
      </trkpt>
      <trkpt lat="45.05643" lon="5.51645">
        <ele>1123</ele>
        <time>2021-07-02T14:27:05Z</time>
      </trkpt>
      <trkpt lat="45.05648" lon="5.51646">
        <ele>1122</ele>
        <time>2021-07-02T14:27:12Z</time>
      </trkpt>
      <trkpt lat="45.05654" lon="5.51637">
        <ele>1120</ele>
        <time>2021-07-02T14:27:22Z</time>
      </trkpt>
      <trkpt lat="45.05663" lon="5.51628">
        <ele>1118</ele>
        <time>2021-07-02T14:27:33Z</time>
      </trkpt>
      <trkpt lat="45.05668" lon="5.51626">
        <ele>1117</ele>
        <time>2021-07-02T14:27:37Z</time>
      </trkpt>
      <trkpt lat="45.05679" lon="5.51623">
        <ele>1115</ele>
        <time>2021-07-02T14:27:48Z</time>
      </trkpt>
      <trkpt lat="45.05685" lon="5.51624">
        <ele>1115</ele>
        <time>2021-07-02T14:27:55Z</time>
      </trkpt>
      <trkpt lat="45.05697" lon="5.51626">
        <ele>1113</ele>
        <time>2021-07-02T14:28:11Z</time>
      </trkpt>
      <trkpt lat="45.05702" lon="5.51626">
        <ele>1113</ele>
        <time>2021-07-02T14:28:14Z</time>
      </trkpt>
      <trkpt lat="45.05729" lon="5.51637">
        <ele>1110</ele>
        <time>2021-07-02T14:28:42Z</time>
      </trkpt>
      <trkpt lat="45.05734" lon="5.51637">
        <ele>1110</ele>
        <time>2021-07-02T14:28:45Z</time>
      </trkpt>
      <trkpt lat="45.05744" lon="5.51638">
        <ele>1109</ele>
        <time>2021-07-02T14:28:57Z</time>
      </trkpt>
      <trkpt lat="45.05763" lon="5.51633">
        <ele>1109</ele>
        <time>2021-07-02T14:29:15Z</time>
      </trkpt>
      <trkpt lat="45.05774" lon="5.51627">
        <ele>1107</ele>
        <time>2021-07-02T14:29:27Z</time>
      </trkpt>
      <trkpt lat="45.05779" lon="5.51622">
        <ele>1106</ele>
        <time>2021-07-02T14:29:36Z</time>
      </trkpt>
      <trkpt lat="45.05784" lon="5.51623">
        <ele>1106</ele>
        <time>2021-07-02T14:29:39Z</time>
      </trkpt>
      <trkpt lat="45.0579" lon="5.51624">
        <ele>1104</ele>
        <time>2021-07-02T14:29:47Z</time>
      </trkpt>
      <trkpt lat="45.05799" lon="5.51625">
        <ele>1104</ele>
        <time>2021-07-02T14:29:53Z</time>
      </trkpt>
      <trkpt lat="45.05805" lon="5.51626">
        <ele>1103</ele>
        <time>2021-07-02T14:29:57Z</time>
      </trkpt>
      <trkpt lat="45.05809" lon="5.51627">
        <ele>1103</ele>
        <time>2021-07-02T14:30:02Z</time>
      </trkpt>
      <trkpt lat="45.05815" lon="5.51629">
        <ele>1103</ele>
        <time>2021-07-02T14:30:06Z</time>
      </trkpt>
      <trkpt lat="45.0582" lon="5.51627">
        <ele>1103</ele>
        <time>2021-07-02T14:30:13Z</time>
      </trkpt>
      <trkpt lat="45.05825" lon="5.51629">
        <ele>1103</ele>
        <time>2021-07-02T14:30:17Z</time>
      </trkpt>
      <trkpt lat="45.0583" lon="5.51629">
        <ele>1102</ele>
        <time>2021-07-02T14:30:22Z</time>
      </trkpt>
      <trkpt lat="45.05838" lon="5.51631">
        <ele>1101</ele>
        <time>2021-07-02T14:30:31Z</time>
      </trkpt>
      <trkpt lat="45.05841" lon="5.51635">
        <ele>1101</ele>
        <time>2021-07-02T14:30:35Z</time>
      </trkpt>
      <trkpt lat="45.05848" lon="5.5164">
        <ele>1100</ele>
        <time>2021-07-02T14:30:43Z</time>
      </trkpt>
      <trkpt lat="45.05857" lon="5.51653">
        <ele>1098</ele>
        <time>2021-07-02T14:30:55Z</time>
      </trkpt>
      <trkpt lat="45.05861" lon="5.51662">
        <ele>1097</ele>
        <time>2021-07-02T14:31:02Z</time>
      </trkpt>
      <trkpt lat="45.05869" lon="5.51669">
        <ele>1095</ele>
        <time>2021-07-02T14:31:11Z</time>
      </trkpt>
      <trkpt lat="45.05873" lon="5.51674">
        <ele>1094</ele>
        <time>2021-07-02T14:31:14Z</time>
      </trkpt>
      <trkpt lat="45.05877" lon="5.51674">
        <ele>1094</ele>
        <time>2021-07-02T14:31:18Z</time>
      </trkpt>
      <trkpt lat="45.05884" lon="5.51675">
        <ele>1094</ele>
        <time>2021-07-02T14:31:23Z</time>
      </trkpt>
      <trkpt lat="45.05893" lon="5.51681">
        <ele>1094</ele>
        <time>2021-07-02T14:31:31Z</time>
      </trkpt>
      <trkpt lat="45.05902" lon="5.51697">
        <ele>1095</ele>
        <time>2021-07-02T14:31:43Z</time>
      </trkpt>
      <trkpt lat="45.05906" lon="5.517">
        <ele>1095</ele>
        <time>2021-07-02T14:31:47Z</time>
      </trkpt>
      <trkpt lat="45.05914" lon="5.51713">
        <ele>1095</ele>
        <time>2021-07-02T14:31:58Z</time>
      </trkpt>
      <trkpt lat="45.05916" lon="5.51718">
        <ele>1096</ele>
        <time>2021-07-02T14:32:02Z</time>
      </trkpt>
      <trkpt lat="45.05919" lon="5.51726">
        <ele>1096</ele>
        <time>2021-07-02T14:32:10Z</time>
      </trkpt>
      <trkpt lat="45.0592" lon="5.51733">
        <ele>1097</ele>
        <time>2021-07-02T14:32:15Z</time>
      </trkpt>
      <trkpt lat="45.0592" lon="5.51739">
        <ele>1098</ele>
        <time>2021-07-02T14:32:19Z</time>
      </trkpt>
      <trkpt lat="45.05926" lon="5.51748">
        <ele>1099</ele>
        <time>2021-07-02T14:32:32Z</time>
      </trkpt>
      <trkpt lat="45.05931" lon="5.51753">
        <ele>1100</ele>
        <time>2021-07-02T14:32:43Z</time>
      </trkpt>
      <trkpt lat="45.05943" lon="5.51769">
        <ele>1101</ele>
        <time>2021-07-02T14:33:07Z</time>
      </trkpt>
      <trkpt lat="45.05944" lon="5.51761">
        <ele>1101</ele>
        <time>2021-07-02T14:33:25Z</time>
      </trkpt>
      <trkpt lat="45.05941" lon="5.51752">
        <ele>1101</ele>
        <time>2021-07-02T14:33:35Z</time>
      </trkpt>
      <trkpt lat="45.05932" lon="5.51752">
        <ele>1101</ele>
        <time>2021-07-02T14:33:45Z</time>
      </trkpt>
      <trkpt lat="45.05937" lon="5.51762">
        <ele>1100</ele>
        <time>2021-07-02T14:34:17Z</time>
      </trkpt>
      <trkpt lat="45.05938" lon="5.51769">
        <ele>1100</ele>
        <time>2021-07-02T14:34:24Z</time>
      </trkpt>
      <trkpt lat="45.05937" lon="5.51783">
        <ele>1100</ele>
        <time>2021-07-02T14:34:32Z</time>
      </trkpt>
      <trkpt lat="45.05934" lon="5.51824">
        <ele>1102</ele>
        <time>2021-07-02T14:35:04Z</time>
      </trkpt>
      <trkpt lat="45.05934" lon="5.51838">
        <ele>1103</ele>
        <time>2021-07-02T14:35:13Z</time>
      </trkpt>
      <trkpt lat="45.05932" lon="5.51844">
        <ele>1103</ele>
        <time>2021-07-02T14:35:17Z</time>
      </trkpt>
      <trkpt lat="45.05929" lon="5.51847">
        <ele>1104</ele>
        <time>2021-07-02T14:35:21Z</time>
      </trkpt>
      <trkpt lat="45.05928" lon="5.51854">
        <ele>1104</ele>
        <time>2021-07-02T14:35:26Z</time>
      </trkpt>
      <trkpt lat="45.05919" lon="5.5188">
        <ele>1105</ele>
        <time>2021-07-02T14:35:45Z</time>
      </trkpt>
      <trkpt lat="45.05919" lon="5.51888">
        <ele>1106</ele>
        <time>2021-07-02T14:35:50Z</time>
      </trkpt>
      <trkpt lat="45.05916" lon="5.51894">
        <ele>1106</ele>
        <time>2021-07-02T14:35:54Z</time>
      </trkpt>
      <trkpt lat="45.05912" lon="5.51911">
        <ele>1108</ele>
        <time>2021-07-02T14:36:09Z</time>
      </trkpt>
      <trkpt lat="45.05912" lon="5.51923">
        <ele>1109</ele>
        <time>2021-07-02T14:36:19Z</time>
      </trkpt>
      <trkpt lat="45.05911" lon="5.51929">
        <ele>1109</ele>
        <time>2021-07-02T14:36:24Z</time>
      </trkpt>
      <trkpt lat="45.05909" lon="5.51939">
        <ele>1110</ele>
        <time>2021-07-02T14:36:32Z</time>
      </trkpt>
      <trkpt lat="45.05906" lon="5.51943">
        <ele>1111</ele>
        <time>2021-07-02T14:36:36Z</time>
      </trkpt>
      <trkpt lat="45.05904" lon="5.51949">
        <ele>1111</ele>
        <time>2021-07-02T14:36:41Z</time>
      </trkpt>
      <trkpt lat="45.05903" lon="5.51956">
        <ele>1112</ele>
        <time>2021-07-02T14:36:46Z</time>
      </trkpt>
      <trkpt lat="45.05901" lon="5.51961">
        <ele>1112</ele>
        <time>2021-07-02T14:36:51Z</time>
      </trkpt>
      <trkpt lat="45.05898" lon="5.51976">
        <ele>1113</ele>
        <time>2021-07-02T14:37:00Z</time>
      </trkpt>
      <trkpt lat="45.059" lon="5.51983">
        <ele>1113</ele>
        <time>2021-07-02T14:37:07Z</time>
      </trkpt>
      <trkpt lat="45.05896" lon="5.51989">
        <ele>1113</ele>
        <time>2021-07-02T14:37:24Z</time>
      </trkpt>
      <trkpt lat="45.05901" lon="5.51993">
        <ele>1114</ele>
        <time>2021-07-02T14:37:29Z</time>
      </trkpt>
      <trkpt lat="45.05905" lon="5.52004">
        <ele>1115</ele>
        <time>2021-07-02T14:37:41Z</time>
      </trkpt>
      <trkpt lat="45.05904" lon="5.52013">
        <ele>1116</ele>
        <time>2021-07-02T14:37:48Z</time>
      </trkpt>
      <trkpt lat="45.059" lon="5.52016">
        <ele>1116</ele>
        <time>2021-07-02T14:37:55Z</time>
      </trkpt>
      <trkpt lat="45.05884" lon="5.52039">
        <ele>1117</ele>
        <time>2021-07-02T14:38:16Z</time>
      </trkpt>
      <trkpt lat="45.05882" lon="5.52049">
        <ele>1118</ele>
        <time>2021-07-02T14:38:24Z</time>
      </trkpt>
      <trkpt lat="45.05882" lon="5.52055">
        <ele>1118</ele>
        <time>2021-07-02T14:38:29Z</time>
      </trkpt>
      <trkpt lat="45.05881" lon="5.52066">
        <ele>1119</ele>
        <time>2021-07-02T14:38:38Z</time>
      </trkpt>
      <trkpt lat="45.05876" lon="5.52073">
        <ele>1120</ele>
        <time>2021-07-02T14:38:48Z</time>
      </trkpt>
      <trkpt lat="45.05871" lon="5.52076">
        <ele>1120</ele>
        <time>2021-07-02T14:38:53Z</time>
      </trkpt>
      <trkpt lat="45.0585" lon="5.52088">
        <ele>1123</ele>
        <time>2021-07-02T14:39:16Z</time>
      </trkpt>
      <trkpt lat="45.05835" lon="5.52105">
        <ele>1125</ele>
        <time>2021-07-02T14:39:37Z</time>
      </trkpt>
      <trkpt lat="45.05833" lon="5.52117">
        <ele>1126</ele>
        <time>2021-07-02T14:39:46Z</time>
      </trkpt>
      <trkpt lat="45.05834" lon="5.52116">
        <ele>1127</ele>
        <time>2021-07-02T14:40:05Z</time>
      </trkpt>
      <trkpt lat="45.05838" lon="5.52111">
        <ele>1127</ele>
        <time>2021-07-02T14:40:25Z</time>
      </trkpt>
      <trkpt lat="45.05841" lon="5.52124">
        <ele>1127</ele>
        <time>2021-07-02T14:40:39Z</time>
      </trkpt>
      <trkpt lat="45.05847" lon="5.52135">
        <ele>1127</ele>
        <time>2021-07-02T14:40:46Z</time>
      </trkpt>
      <trkpt lat="45.05851" lon="5.52143">
        <ele>1126</ele>
        <time>2021-07-02T14:40:53Z</time>
      </trkpt>
      <trkpt lat="45.05855" lon="5.52146">
        <ele>1126</ele>
        <time>2021-07-02T14:40:56Z</time>
      </trkpt>
      <trkpt lat="45.05861" lon="5.5215">
        <ele>1126</ele>
        <time>2021-07-02T14:41:01Z</time>
      </trkpt>
      <trkpt lat="45.0587" lon="5.52156">
        <ele>1126</ele>
        <time>2021-07-02T14:41:09Z</time>
      </trkpt>
      <trkpt lat="45.05875" lon="5.52157">
        <ele>1126</ele>
        <time>2021-07-02T14:41:13Z</time>
      </trkpt>
      <trkpt lat="45.0588" lon="5.5216">
        <ele>1126</ele>
        <time>2021-07-02T14:41:17Z</time>
      </trkpt>
      <trkpt lat="45.05898" lon="5.52172">
        <ele>1127</ele>
        <time>2021-07-02T14:41:34Z</time>
      </trkpt>
      <trkpt lat="45.05902" lon="5.52175">
        <ele>1127</ele>
        <time>2021-07-02T14:41:39Z</time>
      </trkpt>
      <trkpt lat="45.05907" lon="5.52175">
        <ele>1128</ele>
        <time>2021-07-02T14:41:43Z</time>
      </trkpt>
      <trkpt lat="45.05911" lon="5.52179">
        <ele>1128</ele>
        <time>2021-07-02T14:41:46Z</time>
      </trkpt>
      <trkpt lat="45.0593" lon="5.52189">
        <ele>1129</ele>
        <time>2021-07-02T14:42:05Z</time>
      </trkpt>
      <trkpt lat="45.05934" lon="5.52193">
        <ele>1129</ele>
        <time>2021-07-02T14:42:09Z</time>
      </trkpt>
      <trkpt lat="45.0595" lon="5.52204">
        <ele>1130</ele>
        <time>2021-07-02T14:42:25Z</time>
      </trkpt>
      <trkpt lat="45.05953" lon="5.52209">
        <ele>1130</ele>
        <time>2021-07-02T14:42:29Z</time>
      </trkpt>
      <trkpt lat="45.05957" lon="5.52213">
        <ele>1131</ele>
        <time>2021-07-02T14:42:33Z</time>
      </trkpt>
      <trkpt lat="45.05961" lon="5.52217">
        <ele>1131</ele>
        <time>2021-07-02T14:42:36Z</time>
      </trkpt>
      <trkpt lat="45.05985" lon="5.52239">
        <ele>1132</ele>
        <time>2021-07-02T14:42:58Z</time>
      </trkpt>
      <trkpt lat="45.05987" lon="5.52244">
        <ele>1133</ele>
        <time>2021-07-02T14:43:02Z</time>
      </trkpt>
      <trkpt lat="45.0599" lon="5.52248">
        <ele>1133</ele>
        <time>2021-07-02T14:43:07Z</time>
      </trkpt>
      <trkpt lat="45.06003" lon="5.52259">
        <ele>1135</ele>
        <time>2021-07-02T14:43:25Z</time>
      </trkpt>
      <trkpt lat="45.06007" lon="5.52263">
        <ele>1136</ele>
        <time>2021-07-02T14:43:30Z</time>
      </trkpt>
      <trkpt lat="45.0601" lon="5.5227">
        <ele>1136</ele>
        <time>2021-07-02T14:43:42Z</time>
      </trkpt>
      <trkpt lat="45.06012" lon="5.52276">
        <ele>1136</ele>
        <time>2021-07-02T14:43:47Z</time>
      </trkpt>
      <trkpt lat="45.06015" lon="5.52283">
        <ele>1136</ele>
        <time>2021-07-02T14:43:51Z</time>
      </trkpt>
      <trkpt lat="45.06017" lon="5.52287">
        <ele>1137</ele>
        <time>2021-07-02T14:44:00Z</time>
      </trkpt>
      <trkpt lat="45.06014" lon="5.52294">
        <ele>1136</ele>
        <time>2021-07-02T14:44:15Z</time>
      </trkpt>
    </trkseg>
  </trk>
</gpx>